<?xml version="1.0" encoding="UTF-8" standalone="no" ?>
<gpx xmlns="http://www.topografix.com/GPX/1/1" xmlns:xsi="http://www.w3.org/2001/XMLSchema-instance" xsi:schemaLocation="http://www.topografix.com/GPX/1/1 http://www.topografix.com/GPX/1/1/gpx.xsd" version="1.1" creator="VisuGPX - https://www.visugpx.com">
  <metadata>
    <name>Gribeimont  MARCHE ADEPS 2013 (Sept)</name>
    <desc><![CDATA[Marche adeps bien sympa a faire en famille ]]></desc>
  </metadata>
  <trk>
    <name><![CDATA[solo scooby]]></name>
    <trkseg>
      <trkpt lat="50.20494" lon="5.42544">
        <ele>322</ele>
        <time>2013-09-15T08:28:40Z</time>
      </trkpt>
      <trkpt lat="50.20495" lon="5.4254">
        <ele>322</ele>
        <time>2013-09-15T08:28:45Z</time>
      </trkpt>
      <trkpt lat="50.20496" lon="5.42536">
        <ele>322</ele>
        <time>2013-09-15T08:28:50Z</time>
      </trkpt>
      <trkpt lat="50.20498" lon="5.42533">
        <ele>322</ele>
        <time>2013-09-15T08:28:57Z</time>
      </trkpt>
      <trkpt lat="50.20498" lon="5.42534">
        <ele>322</ele>
        <time>2013-09-15T08:29:03Z</time>
      </trkpt>
      <trkpt lat="50.20497" lon="5.42538">
        <ele>323</ele>
        <time>2013-09-15T08:29:08Z</time>
      </trkpt>
      <trkpt lat="50.20497" lon="5.42542">
        <ele>322</ele>
        <time>2013-09-15T08:29:14Z</time>
      </trkpt>
      <trkpt lat="50.20497" lon="5.42544">
        <ele>322</ele>
        <time>2013-09-15T08:29:20Z</time>
      </trkpt>
      <trkpt lat="50.20497" lon="5.42545">
        <ele>322</ele>
        <time>2013-09-15T08:29:26Z</time>
      </trkpt>
      <trkpt lat="50.20498" lon="5.42545">
        <ele>322</ele>
        <time>2013-09-15T08:29:32Z</time>
      </trkpt>
      <trkpt lat="50.20498" lon="5.42545">
        <ele>322</ele>
        <time>2013-09-15T08:29:38Z</time>
      </trkpt>
      <trkpt lat="50.20497" lon="5.42538">
        <ele>322</ele>
        <time>2013-09-15T08:29:43Z</time>
      </trkpt>
      <trkpt lat="50.20497" lon="5.42531">
        <ele>322</ele>
        <time>2013-09-15T08:29:49Z</time>
      </trkpt>
      <trkpt lat="50.20495" lon="5.42524">
        <ele>322</ele>
        <time>2013-09-15T08:29:54Z</time>
      </trkpt>
      <trkpt lat="50.20493" lon="5.42526">
        <ele>322</ele>
        <time>2013-09-15T08:30:00Z</time>
      </trkpt>
      <trkpt lat="50.20492" lon="5.4252">
        <ele>322</ele>
        <time>2013-09-15T08:30:06Z</time>
      </trkpt>
      <trkpt lat="50.20489" lon="5.42513">
        <ele>322</ele>
        <time>2013-09-15T08:30:12Z</time>
      </trkpt>
      <trkpt lat="50.20483" lon="5.4251">
        <ele>320</ele>
        <time>2013-09-15T08:30:18Z</time>
      </trkpt>
      <trkpt lat="50.20479" lon="5.42506">
        <ele>320</ele>
        <time>2013-09-15T08:30:23Z</time>
      </trkpt>
      <trkpt lat="50.20475" lon="5.42499">
        <ele>319</ele>
        <time>2013-09-15T08:30:29Z</time>
      </trkpt>
      <trkpt lat="50.20469" lon="5.42495">
        <ele>318</ele>
        <time>2013-09-15T08:30:35Z</time>
      </trkpt>
      <trkpt lat="50.20466" lon="5.42484">
        <ele>317</ele>
        <time>2013-09-15T08:30:41Z</time>
      </trkpt>
      <trkpt lat="50.20466" lon="5.42471">
        <ele>318</ele>
        <time>2013-09-15T08:30:46Z</time>
      </trkpt>
      <trkpt lat="50.20467" lon="5.42458">
        <ele>318</ele>
        <time>2013-09-15T08:30:52Z</time>
      </trkpt>
      <trkpt lat="50.20468" lon="5.42446">
        <ele>318</ele>
        <time>2013-09-15T08:30:57Z</time>
      </trkpt>
      <trkpt lat="50.20469" lon="5.42448">
        <ele>318</ele>
        <time>2013-09-15T08:31:03Z</time>
      </trkpt>
      <trkpt lat="50.20467" lon="5.42441">
        <ele>318</ele>
        <time>2013-09-15T08:31:09Z</time>
      </trkpt>
      <trkpt lat="50.20465" lon="5.42421">
        <ele>319</ele>
        <time>2013-09-15T08:31:15Z</time>
      </trkpt>
      <trkpt lat="50.20464" lon="5.42414">
        <ele>319</ele>
        <time>2013-09-15T08:31:20Z</time>
      </trkpt>
      <trkpt lat="50.20464" lon="5.42403">
        <ele>320</ele>
        <time>2013-09-15T08:31:26Z</time>
      </trkpt>
      <trkpt lat="50.20464" lon="5.42392">
        <ele>320</ele>
        <time>2013-09-15T08:31:32Z</time>
      </trkpt>
      <trkpt lat="50.20464" lon="5.42382">
        <ele>321</ele>
        <time>2013-09-15T08:31:37Z</time>
      </trkpt>
      <trkpt lat="50.20466" lon="5.42372">
        <ele>321</ele>
        <time>2013-09-15T08:31:43Z</time>
      </trkpt>
      <trkpt lat="50.20465" lon="5.42363">
        <ele>322</ele>
        <time>2013-09-15T08:31:49Z</time>
      </trkpt>
      <trkpt lat="50.20465" lon="5.42355">
        <ele>322</ele>
        <time>2013-09-15T08:31:54Z</time>
      </trkpt>
      <trkpt lat="50.20465" lon="5.42343">
        <ele>323</ele>
        <time>2013-09-15T08:32:00Z</time>
      </trkpt>
      <trkpt lat="50.20465" lon="5.42331">
        <ele>324</ele>
        <time>2013-09-15T08:32:06Z</time>
      </trkpt>
      <trkpt lat="50.20466" lon="5.42322">
        <ele>324</ele>
        <time>2013-09-15T08:32:11Z</time>
      </trkpt>
      <trkpt lat="50.20469" lon="5.42312">
        <ele>325</ele>
        <time>2013-09-15T08:32:16Z</time>
      </trkpt>
      <trkpt lat="50.20472" lon="5.42301">
        <ele>325</ele>
        <time>2013-09-15T08:32:21Z</time>
      </trkpt>
      <trkpt lat="50.20475" lon="5.4229">
        <ele>325</ele>
        <time>2013-09-15T08:32:27Z</time>
      </trkpt>
      <trkpt lat="50.20476" lon="5.4228">
        <ele>326</ele>
        <time>2013-09-15T08:32:32Z</time>
      </trkpt>
      <trkpt lat="50.20477" lon="5.42272">
        <ele>326</ele>
        <time>2013-09-15T08:32:37Z</time>
      </trkpt>
      <trkpt lat="50.20478" lon="5.42261">
        <ele>326</ele>
        <time>2013-09-15T08:32:43Z</time>
      </trkpt>
      <trkpt lat="50.2048" lon="5.42248">
        <ele>327</ele>
        <time>2013-09-15T08:32:49Z</time>
      </trkpt>
      <trkpt lat="50.2048" lon="5.4224">
        <ele>327</ele>
        <time>2013-09-15T08:32:54Z</time>
      </trkpt>
      <trkpt lat="50.20482" lon="5.42232">
        <ele>328</ele>
        <time>2013-09-15T08:32:59Z</time>
      </trkpt>
      <trkpt lat="50.20483" lon="5.42221">
        <ele>328</ele>
        <time>2013-09-15T08:33:05Z</time>
      </trkpt>
      <trkpt lat="50.20487" lon="5.42212">
        <ele>328</ele>
        <time>2013-09-15T08:33:10Z</time>
      </trkpt>
      <trkpt lat="50.20491" lon="5.42204">
        <ele>328</ele>
        <time>2013-09-15T08:33:15Z</time>
      </trkpt>
      <trkpt lat="50.20496" lon="5.42201">
        <ele>329</ele>
        <time>2013-09-15T08:33:20Z</time>
      </trkpt>
      <trkpt lat="50.20502" lon="5.42202">
        <ele>329</ele>
        <time>2013-09-15T08:33:26Z</time>
      </trkpt>
      <trkpt lat="50.20508" lon="5.42204">
        <ele>330</ele>
        <time>2013-09-15T08:33:31Z</time>
      </trkpt>
      <trkpt lat="50.20511" lon="5.42211">
        <ele>330</ele>
        <time>2013-09-15T08:33:36Z</time>
      </trkpt>
      <trkpt lat="50.20512" lon="5.42219">
        <ele>331</ele>
        <time>2013-09-15T08:33:41Z</time>
      </trkpt>
      <trkpt lat="50.20517" lon="5.42227">
        <ele>331</ele>
        <time>2013-09-15T08:33:47Z</time>
      </trkpt>
      <trkpt lat="50.20522" lon="5.42234">
        <ele>331</ele>
        <time>2013-09-15T08:33:52Z</time>
      </trkpt>
      <trkpt lat="50.20526" lon="5.4224">
        <ele>332</ele>
        <time>2013-09-15T08:33:57Z</time>
      </trkpt>
      <trkpt lat="50.20525" lon="5.42251">
        <ele>332</ele>
        <time>2013-09-15T08:34:02Z</time>
      </trkpt>
      <trkpt lat="50.20526" lon="5.42263">
        <ele>333</ele>
        <time>2013-09-15T08:34:07Z</time>
      </trkpt>
      <trkpt lat="50.20528" lon="5.42274">
        <ele>333</ele>
        <time>2013-09-15T08:34:12Z</time>
      </trkpt>
      <trkpt lat="50.20528" lon="5.42286">
        <ele>333</ele>
        <time>2013-09-15T08:34:18Z</time>
      </trkpt>
      <trkpt lat="50.2053" lon="5.42298">
        <ele>334</ele>
        <time>2013-09-15T08:34:23Z</time>
      </trkpt>
      <trkpt lat="50.20534" lon="5.42307">
        <ele>334</ele>
        <time>2013-09-15T08:34:29Z</time>
      </trkpt>
      <trkpt lat="50.20536" lon="5.42317">
        <ele>334</ele>
        <time>2013-09-15T08:34:34Z</time>
      </trkpt>
      <trkpt lat="50.20538" lon="5.42326">
        <ele>335</ele>
        <time>2013-09-15T08:34:39Z</time>
      </trkpt>
      <trkpt lat="50.20541" lon="5.42335">
        <ele>335</ele>
        <time>2013-09-15T08:34:44Z</time>
      </trkpt>
      <trkpt lat="50.20544" lon="5.42344">
        <ele>335</ele>
        <time>2013-09-15T08:34:50Z</time>
      </trkpt>
      <trkpt lat="50.20547" lon="5.42352">
        <ele>335</ele>
        <time>2013-09-15T08:34:55Z</time>
      </trkpt>
      <trkpt lat="50.2055" lon="5.42363">
        <ele>335</ele>
        <time>2013-09-15T08:35:01Z</time>
      </trkpt>
      <trkpt lat="50.20554" lon="5.42374">
        <ele>336</ele>
        <time>2013-09-15T08:35:07Z</time>
      </trkpt>
      <trkpt lat="50.20559" lon="5.42384">
        <ele>336</ele>
        <time>2013-09-15T08:35:13Z</time>
      </trkpt>
      <trkpt lat="50.20563" lon="5.42395">
        <ele>336</ele>
        <time>2013-09-15T08:35:19Z</time>
      </trkpt>
      <trkpt lat="50.20567" lon="5.42404">
        <ele>337</ele>
        <time>2013-09-15T08:35:24Z</time>
      </trkpt>
      <trkpt lat="50.20571" lon="5.42414">
        <ele>337</ele>
        <time>2013-09-15T08:35:30Z</time>
      </trkpt>
      <trkpt lat="50.20575" lon="5.42424">
        <ele>337</ele>
        <time>2013-09-15T08:35:36Z</time>
      </trkpt>
      <trkpt lat="50.20578" lon="5.42431">
        <ele>338</ele>
        <time>2013-09-15T08:35:41Z</time>
      </trkpt>
      <trkpt lat="50.20581" lon="5.42441">
        <ele>338</ele>
        <time>2013-09-15T08:35:47Z</time>
      </trkpt>
      <trkpt lat="50.20586" lon="5.42448">
        <ele>338</ele>
        <time>2013-09-15T08:35:52Z</time>
      </trkpt>
      <trkpt lat="50.20591" lon="5.42455">
        <ele>338</ele>
        <time>2013-09-15T08:35:58Z</time>
      </trkpt>
      <trkpt lat="50.20596" lon="5.4246">
        <ele>339</ele>
        <time>2013-09-15T08:36:03Z</time>
      </trkpt>
      <trkpt lat="50.20602" lon="5.42465">
        <ele>339</ele>
        <time>2013-09-15T08:36:09Z</time>
      </trkpt>
      <trkpt lat="50.20609" lon="5.4247">
        <ele>340</ele>
        <time>2013-09-15T08:36:15Z</time>
      </trkpt>
      <trkpt lat="50.20615" lon="5.42473">
        <ele>340</ele>
        <time>2013-09-15T08:36:20Z</time>
      </trkpt>
      <trkpt lat="50.20621" lon="5.42476">
        <ele>341</ele>
        <time>2013-09-15T08:36:26Z</time>
      </trkpt>
      <trkpt lat="50.20628" lon="5.42478">
        <ele>340</ele>
        <time>2013-09-15T08:36:32Z</time>
      </trkpt>
      <trkpt lat="50.20635" lon="5.4248">
        <ele>341</ele>
        <time>2013-09-15T08:36:38Z</time>
      </trkpt>
      <trkpt lat="50.20642" lon="5.42481">
        <ele>342</ele>
        <time>2013-09-15T08:36:44Z</time>
      </trkpt>
      <trkpt lat="50.20648" lon="5.42482">
        <ele>342</ele>
        <time>2013-09-15T08:36:49Z</time>
      </trkpt>
      <trkpt lat="50.20655" lon="5.42483">
        <ele>342</ele>
        <time>2013-09-15T08:36:55Z</time>
      </trkpt>
      <trkpt lat="50.20658" lon="5.42482">
        <ele>342</ele>
        <time>2013-09-15T08:37:00Z</time>
      </trkpt>
      <trkpt lat="50.20663" lon="5.42485">
        <ele>342</ele>
        <time>2013-09-15T08:37:05Z</time>
      </trkpt>
      <trkpt lat="50.20669" lon="5.42487">
        <ele>342</ele>
        <time>2013-09-15T08:37:11Z</time>
      </trkpt>
      <trkpt lat="50.20675" lon="5.42488">
        <ele>343</ele>
        <time>2013-09-15T08:37:16Z</time>
      </trkpt>
      <trkpt lat="50.20682" lon="5.4249">
        <ele>344</ele>
        <time>2013-09-15T08:37:22Z</time>
      </trkpt>
      <trkpt lat="50.20687" lon="5.42494">
        <ele>344</ele>
        <time>2013-09-15T08:37:27Z</time>
      </trkpt>
      <trkpt lat="50.20693" lon="5.42497">
        <ele>344</ele>
        <time>2013-09-15T08:37:32Z</time>
      </trkpt>
      <trkpt lat="50.207" lon="5.42499">
        <ele>345</ele>
        <time>2013-09-15T08:37:38Z</time>
      </trkpt>
      <trkpt lat="50.20706" lon="5.42501">
        <ele>345</ele>
        <time>2013-09-15T08:37:43Z</time>
      </trkpt>
      <trkpt lat="50.20713" lon="5.42502">
        <ele>345</ele>
        <time>2013-09-15T08:37:49Z</time>
      </trkpt>
      <trkpt lat="50.20719" lon="5.42503">
        <ele>346</ele>
        <time>2013-09-15T08:37:54Z</time>
      </trkpt>
      <trkpt lat="50.20726" lon="5.42506">
        <ele>346</ele>
        <time>2013-09-15T08:38:00Z</time>
      </trkpt>
      <trkpt lat="50.20732" lon="5.42511">
        <ele>346</ele>
        <time>2013-09-15T08:38:05Z</time>
      </trkpt>
      <trkpt lat="50.20737" lon="5.42517">
        <ele>346</ele>
        <time>2013-09-15T08:38:10Z</time>
      </trkpt>
      <trkpt lat="50.20743" lon="5.42523">
        <ele>347</ele>
        <time>2013-09-15T08:38:16Z</time>
      </trkpt>
      <trkpt lat="50.2075" lon="5.42527">
        <ele>348</ele>
        <time>2013-09-15T08:38:22Z</time>
      </trkpt>
      <trkpt lat="50.20755" lon="5.42531">
        <ele>348</ele>
        <time>2013-09-15T08:38:27Z</time>
      </trkpt>
      <trkpt lat="50.2076" lon="5.42536">
        <ele>348</ele>
        <time>2013-09-15T08:38:32Z</time>
      </trkpt>
      <trkpt lat="50.20763" lon="5.42538">
        <ele>349</ele>
        <time>2013-09-15T08:38:37Z</time>
      </trkpt>
      <trkpt lat="50.20768" lon="5.42544">
        <ele>349</ele>
        <time>2013-09-15T08:38:43Z</time>
      </trkpt>
      <trkpt lat="50.20775" lon="5.42551">
        <ele>349</ele>
        <time>2013-09-15T08:38:49Z</time>
      </trkpt>
      <trkpt lat="50.2078" lon="5.42556">
        <ele>349</ele>
        <time>2013-09-15T08:38:54Z</time>
      </trkpt>
      <trkpt lat="50.20785" lon="5.42562">
        <ele>350</ele>
        <time>2013-09-15T08:39:00Z</time>
      </trkpt>
      <trkpt lat="50.2079" lon="5.42567">
        <ele>350</ele>
        <time>2013-09-15T08:39:05Z</time>
      </trkpt>
      <trkpt lat="50.20797" lon="5.4257">
        <ele>351</ele>
        <time>2013-09-15T08:39:11Z</time>
      </trkpt>
      <trkpt lat="50.20803" lon="5.42572">
        <ele>351</ele>
        <time>2013-09-15T08:39:17Z</time>
      </trkpt>
      <trkpt lat="50.20809" lon="5.42572">
        <ele>352</ele>
        <time>2013-09-15T08:39:22Z</time>
      </trkpt>
      <trkpt lat="50.20814" lon="5.42572">
        <ele>352</ele>
        <time>2013-09-15T08:39:27Z</time>
      </trkpt>
      <trkpt lat="50.20821" lon="5.42571">
        <ele>353</ele>
        <time>2013-09-15T08:39:33Z</time>
      </trkpt>
      <trkpt lat="50.20829" lon="5.42571">
        <ele>353</ele>
        <time>2013-09-15T08:39:39Z</time>
      </trkpt>
      <trkpt lat="50.2083" lon="5.42569">
        <ele>353</ele>
        <time>2013-09-15T08:39:45Z</time>
      </trkpt>
      <trkpt lat="50.20829" lon="5.42568">
        <ele>354</ele>
        <time>2013-09-15T08:39:52Z</time>
      </trkpt>
      <trkpt lat="50.20829" lon="5.42567">
        <ele>354</ele>
        <time>2013-09-15T08:39:58Z</time>
      </trkpt>
      <trkpt lat="50.20832" lon="5.42566">
        <ele>354</ele>
        <time>2013-09-15T08:40:03Z</time>
      </trkpt>
      <trkpt lat="50.20837" lon="5.42567">
        <ele>354</ele>
        <time>2013-09-15T08:40:09Z</time>
      </trkpt>
      <trkpt lat="50.20844" lon="5.42569">
        <ele>355</ele>
        <time>2013-09-15T08:40:15Z</time>
      </trkpt>
      <trkpt lat="50.20852" lon="5.42572">
        <ele>355</ele>
        <time>2013-09-15T08:40:21Z</time>
      </trkpt>
      <trkpt lat="50.20857" lon="5.42575">
        <ele>355</ele>
        <time>2013-09-15T08:40:27Z</time>
      </trkpt>
      <trkpt lat="50.20865" lon="5.42577">
        <ele>355</ele>
        <time>2013-09-15T08:40:33Z</time>
      </trkpt>
      <trkpt lat="50.20871" lon="5.42579">
        <ele>356</ele>
        <time>2013-09-15T08:40:38Z</time>
      </trkpt>
      <trkpt lat="50.20878" lon="5.42581">
        <ele>356</ele>
        <time>2013-09-15T08:40:44Z</time>
      </trkpt>
      <trkpt lat="50.20881" lon="5.42585">
        <ele>356</ele>
        <time>2013-09-15T08:40:50Z</time>
      </trkpt>
      <trkpt lat="50.20883" lon="5.42585">
        <ele>357</ele>
        <time>2013-09-15T08:40:55Z</time>
      </trkpt>
      <trkpt lat="50.20889" lon="5.42588">
        <ele>356</ele>
        <time>2013-09-15T08:41:00Z</time>
      </trkpt>
      <trkpt lat="50.20895" lon="5.42592">
        <ele>357</ele>
        <time>2013-09-15T08:41:06Z</time>
      </trkpt>
      <trkpt lat="50.20903" lon="5.42593">
        <ele>357</ele>
        <time>2013-09-15T08:41:12Z</time>
      </trkpt>
      <trkpt lat="50.2091" lon="5.42593">
        <ele>357</ele>
        <time>2013-09-15T08:41:18Z</time>
      </trkpt>
      <trkpt lat="50.20916" lon="5.42593">
        <ele>357</ele>
        <time>2013-09-15T08:41:23Z</time>
      </trkpt>
      <trkpt lat="50.20922" lon="5.42596">
        <ele>357</ele>
        <time>2013-09-15T08:41:29Z</time>
      </trkpt>
      <trkpt lat="50.20928" lon="5.42598">
        <ele>357</ele>
        <time>2013-09-15T08:41:34Z</time>
      </trkpt>
      <trkpt lat="50.20933" lon="5.426">
        <ele>357</ele>
        <time>2013-09-15T08:41:40Z</time>
      </trkpt>
      <trkpt lat="50.20937" lon="5.42605">
        <ele>358</ele>
        <time>2013-09-15T08:41:45Z</time>
      </trkpt>
      <trkpt lat="50.20942" lon="5.42609">
        <ele>358</ele>
        <time>2013-09-15T08:41:51Z</time>
      </trkpt>
      <trkpt lat="50.20948" lon="5.42611">
        <ele>359</ele>
        <time>2013-09-15T08:41:57Z</time>
      </trkpt>
      <trkpt lat="50.20954" lon="5.42611">
        <ele>359</ele>
        <time>2013-09-15T08:42:02Z</time>
      </trkpt>
      <trkpt lat="50.20962" lon="5.42612">
        <ele>359</ele>
        <time>2013-09-15T08:42:08Z</time>
      </trkpt>
      <trkpt lat="50.20971" lon="5.42613">
        <ele>360</ele>
        <time>2013-09-15T08:42:14Z</time>
      </trkpt>
      <trkpt lat="50.20977" lon="5.42614">
        <ele>360</ele>
        <time>2013-09-15T08:42:19Z</time>
      </trkpt>
      <trkpt lat="50.20985" lon="5.42615">
        <ele>360</ele>
        <time>2013-09-15T08:42:25Z</time>
      </trkpt>
      <trkpt lat="50.20992" lon="5.42616">
        <ele>360</ele>
        <time>2013-09-15T08:42:31Z</time>
      </trkpt>
      <trkpt lat="50.20996" lon="5.42617">
        <ele>361</ele>
        <time>2013-09-15T08:42:37Z</time>
      </trkpt>
      <trkpt lat="50.21005" lon="5.42619">
        <ele>361</ele>
        <time>2013-09-15T08:42:43Z</time>
      </trkpt>
      <trkpt lat="50.21013" lon="5.4262">
        <ele>361</ele>
        <time>2013-09-15T08:42:49Z</time>
      </trkpt>
      <trkpt lat="50.21019" lon="5.42622">
        <ele>362</ele>
        <time>2013-09-15T08:42:54Z</time>
      </trkpt>
      <trkpt lat="50.21024" lon="5.42623">
        <ele>362</ele>
        <time>2013-09-15T08:42:59Z</time>
      </trkpt>
      <trkpt lat="50.21032" lon="5.42625">
        <ele>362</ele>
        <time>2013-09-15T08:43:05Z</time>
      </trkpt>
      <trkpt lat="50.2104" lon="5.42626">
        <ele>363</ele>
        <time>2013-09-15T08:43:11Z</time>
      </trkpt>
      <trkpt lat="50.21048" lon="5.42627">
        <ele>363</ele>
        <time>2013-09-15T08:43:17Z</time>
      </trkpt>
      <trkpt lat="50.21054" lon="5.42628">
        <ele>364</ele>
        <time>2013-09-15T08:43:22Z</time>
      </trkpt>
      <trkpt lat="50.21059" lon="5.42628">
        <ele>364</ele>
        <time>2013-09-15T08:43:27Z</time>
      </trkpt>
      <trkpt lat="50.21066" lon="5.42632">
        <ele>365</ele>
        <time>2013-09-15T08:43:33Z</time>
      </trkpt>
      <trkpt lat="50.21068" lon="5.42633">
        <ele>364</ele>
        <time>2013-09-15T08:43:39Z</time>
      </trkpt>
      <trkpt lat="50.21068" lon="5.42634">
        <ele>364</ele>
        <time>2013-09-15T08:43:45Z</time>
      </trkpt>
      <trkpt lat="50.21068" lon="5.42636">
        <ele>365</ele>
        <time>2013-09-15T08:43:51Z</time>
      </trkpt>
      <trkpt lat="50.21067" lon="5.42637">
        <ele>365</ele>
        <time>2013-09-15T08:43:57Z</time>
      </trkpt>
      <trkpt lat="50.21067" lon="5.42637">
        <ele>365</ele>
        <time>2013-09-15T08:44:03Z</time>
      </trkpt>
      <trkpt lat="50.21068" lon="5.42637">
        <ele>365</ele>
        <time>2013-09-15T08:44:09Z</time>
      </trkpt>
      <trkpt lat="50.21073" lon="5.42638">
        <ele>365</ele>
        <time>2013-09-15T08:44:15Z</time>
      </trkpt>
      <trkpt lat="50.2108" lon="5.42642">
        <ele>366</ele>
        <time>2013-09-15T08:44:21Z</time>
      </trkpt>
      <trkpt lat="50.21086" lon="5.42646">
        <ele>366</ele>
        <time>2013-09-15T08:44:27Z</time>
      </trkpt>
      <trkpt lat="50.21093" lon="5.4265">
        <ele>366</ele>
        <time>2013-09-15T08:44:33Z</time>
      </trkpt>
      <trkpt lat="50.211" lon="5.42652">
        <ele>366</ele>
        <time>2013-09-15T08:44:39Z</time>
      </trkpt>
      <trkpt lat="50.21108" lon="5.42656">
        <ele>367</ele>
        <time>2013-09-15T08:44:45Z</time>
      </trkpt>
      <trkpt lat="50.21114" lon="5.42659">
        <ele>367</ele>
        <time>2013-09-15T08:44:50Z</time>
      </trkpt>
      <trkpt lat="50.21121" lon="5.42662">
        <ele>367</ele>
        <time>2013-09-15T08:44:56Z</time>
      </trkpt>
      <trkpt lat="50.21127" lon="5.42666">
        <ele>367</ele>
        <time>2013-09-15T08:45:02Z</time>
      </trkpt>
      <trkpt lat="50.21135" lon="5.42671">
        <ele>367</ele>
        <time>2013-09-15T08:45:08Z</time>
      </trkpt>
      <trkpt lat="50.21141" lon="5.42675">
        <ele>368</ele>
        <time>2013-09-15T08:45:13Z</time>
      </trkpt>
      <trkpt lat="50.21147" lon="5.42682">
        <ele>368</ele>
        <time>2013-09-15T08:45:19Z</time>
      </trkpt>
      <trkpt lat="50.21154" lon="5.42689">
        <ele>368</ele>
        <time>2013-09-15T08:45:25Z</time>
      </trkpt>
      <trkpt lat="50.21161" lon="5.42697">
        <ele>368</ele>
        <time>2013-09-15T08:45:31Z</time>
      </trkpt>
      <trkpt lat="50.21168" lon="5.42704">
        <ele>368</ele>
        <time>2013-09-15T08:45:37Z</time>
      </trkpt>
      <trkpt lat="50.21173" lon="5.4271">
        <ele>368</ele>
        <time>2013-09-15T08:45:42Z</time>
      </trkpt>
      <trkpt lat="50.21178" lon="5.42715">
        <ele>368</ele>
        <time>2013-09-15T08:45:47Z</time>
      </trkpt>
      <trkpt lat="50.21186" lon="5.42722">
        <ele>368</ele>
        <time>2013-09-15T08:45:53Z</time>
      </trkpt>
      <trkpt lat="50.21192" lon="5.42728">
        <ele>368</ele>
        <time>2013-09-15T08:45:58Z</time>
      </trkpt>
      <trkpt lat="50.21197" lon="5.42733">
        <ele>368</ele>
        <time>2013-09-15T08:46:03Z</time>
      </trkpt>
      <trkpt lat="50.21204" lon="5.4274">
        <ele>368</ele>
        <time>2013-09-15T08:46:09Z</time>
      </trkpt>
      <trkpt lat="50.21209" lon="5.42747">
        <ele>368</ele>
        <time>2013-09-15T08:46:14Z</time>
      </trkpt>
      <trkpt lat="50.21216" lon="5.42755">
        <ele>368</ele>
        <time>2013-09-15T08:46:20Z</time>
      </trkpt>
      <trkpt lat="50.2122" lon="5.42762">
        <ele>368</ele>
        <time>2013-09-15T08:46:25Z</time>
      </trkpt>
      <trkpt lat="50.21226" lon="5.4277">
        <ele>369</ele>
        <time>2013-09-15T08:46:31Z</time>
      </trkpt>
      <trkpt lat="50.2123" lon="5.42778">
        <ele>369</ele>
        <time>2013-09-15T08:46:37Z</time>
      </trkpt>
      <trkpt lat="50.21236" lon="5.42787">
        <ele>369</ele>
        <time>2013-09-15T08:46:43Z</time>
      </trkpt>
      <trkpt lat="50.21241" lon="5.42796">
        <ele>369</ele>
        <time>2013-09-15T08:46:49Z</time>
      </trkpt>
      <trkpt lat="50.21247" lon="5.42803">
        <ele>369</ele>
        <time>2013-09-15T08:46:55Z</time>
      </trkpt>
      <trkpt lat="50.21252" lon="5.42809">
        <ele>368</ele>
        <time>2013-09-15T08:47:00Z</time>
      </trkpt>
      <trkpt lat="50.21257" lon="5.42815">
        <ele>368</ele>
        <time>2013-09-15T08:47:05Z</time>
      </trkpt>
      <trkpt lat="50.21263" lon="5.42823">
        <ele>368</ele>
        <time>2013-09-15T08:47:11Z</time>
      </trkpt>
      <trkpt lat="50.21269" lon="5.4283">
        <ele>368</ele>
        <time>2013-09-15T08:47:17Z</time>
      </trkpt>
      <trkpt lat="50.21274" lon="5.42836">
        <ele>367</ele>
        <time>2013-09-15T08:47:22Z</time>
      </trkpt>
      <trkpt lat="50.2128" lon="5.42842">
        <ele>368</ele>
        <time>2013-09-15T08:47:27Z</time>
      </trkpt>
      <trkpt lat="50.21287" lon="5.4285">
        <ele>368</ele>
        <time>2013-09-15T08:47:33Z</time>
      </trkpt>
      <trkpt lat="50.21292" lon="5.42856">
        <ele>367</ele>
        <time>2013-09-15T08:47:38Z</time>
      </trkpt>
      <trkpt lat="50.21298" lon="5.42866">
        <ele>368</ele>
        <time>2013-09-15T08:47:44Z</time>
      </trkpt>
      <trkpt lat="50.213" lon="5.42874">
        <ele>368</ele>
        <time>2013-09-15T08:47:49Z</time>
      </trkpt>
      <trkpt lat="50.21302" lon="5.42884">
        <ele>367</ele>
        <time>2013-09-15T08:47:54Z</time>
      </trkpt>
      <trkpt lat="50.21304" lon="5.42896">
        <ele>367</ele>
        <time>2013-09-15T08:48:00Z</time>
      </trkpt>
      <trkpt lat="50.21307" lon="5.42907">
        <ele>367</ele>
        <time>2013-09-15T08:48:06Z</time>
      </trkpt>
      <trkpt lat="50.21309" lon="5.42917">
        <ele>367</ele>
        <time>2013-09-15T08:48:11Z</time>
      </trkpt>
      <trkpt lat="50.21311" lon="5.42928">
        <ele>367</ele>
        <time>2013-09-15T08:48:17Z</time>
      </trkpt>
      <trkpt lat="50.21314" lon="5.42936">
        <ele>368</ele>
        <time>2013-09-15T08:48:22Z</time>
      </trkpt>
      <trkpt lat="50.21318" lon="5.42947">
        <ele>368</ele>
        <time>2013-09-15T08:48:28Z</time>
      </trkpt>
      <trkpt lat="50.21321" lon="5.42958">
        <ele>367</ele>
        <time>2013-09-15T08:48:34Z</time>
      </trkpt>
      <trkpt lat="50.21324" lon="5.42967">
        <ele>367</ele>
        <time>2013-09-15T08:48:39Z</time>
      </trkpt>
      <trkpt lat="50.21329" lon="5.42979">
        <ele>367</ele>
        <time>2013-09-15T08:48:45Z</time>
      </trkpt>
      <trkpt lat="50.21333" lon="5.42991">
        <ele>367</ele>
        <time>2013-09-15T08:48:51Z</time>
      </trkpt>
      <trkpt lat="50.21336" lon="5.43003">
        <ele>368</ele>
        <time>2013-09-15T08:48:57Z</time>
      </trkpt>
      <trkpt lat="50.2134" lon="5.43014">
        <ele>367</ele>
        <time>2013-09-15T08:49:03Z</time>
      </trkpt>
      <trkpt lat="50.21343" lon="5.43023">
        <ele>367</ele>
        <time>2013-09-15T08:49:08Z</time>
      </trkpt>
      <trkpt lat="50.21345" lon="5.43029">
        <ele>367</ele>
        <time>2013-09-15T08:49:13Z</time>
      </trkpt>
      <trkpt lat="50.21349" lon="5.43039">
        <ele>368</ele>
        <time>2013-09-15T08:49:19Z</time>
      </trkpt>
      <trkpt lat="50.21352" lon="5.43047">
        <ele>367</ele>
        <time>2013-09-15T08:49:24Z</time>
      </trkpt>
      <trkpt lat="50.21356" lon="5.43058">
        <ele>367</ele>
        <time>2013-09-15T08:49:30Z</time>
      </trkpt>
      <trkpt lat="50.21359" lon="5.43066">
        <ele>367</ele>
        <time>2013-09-15T08:49:35Z</time>
      </trkpt>
      <trkpt lat="50.21363" lon="5.43076">
        <ele>367</ele>
        <time>2013-09-15T08:49:41Z</time>
      </trkpt>
      <trkpt lat="50.21367" lon="5.43084">
        <ele>367</ele>
        <time>2013-09-15T08:49:46Z</time>
      </trkpt>
      <trkpt lat="50.21372" lon="5.43094">
        <ele>366</ele>
        <time>2013-09-15T08:49:52Z</time>
      </trkpt>
      <trkpt lat="50.21375" lon="5.43102">
        <ele>367</ele>
        <time>2013-09-15T08:49:57Z</time>
      </trkpt>
      <trkpt lat="50.21379" lon="5.43113">
        <ele>367</ele>
        <time>2013-09-15T08:50:03Z</time>
      </trkpt>
      <trkpt lat="50.21381" lon="5.43122">
        <ele>367</ele>
        <time>2013-09-15T08:50:08Z</time>
      </trkpt>
      <trkpt lat="50.21384" lon="5.43131">
        <ele>367</ele>
        <time>2013-09-15T08:50:13Z</time>
      </trkpt>
      <trkpt lat="50.21387" lon="5.43141">
        <ele>366</ele>
        <time>2013-09-15T08:50:19Z</time>
      </trkpt>
      <trkpt lat="50.21389" lon="5.43151">
        <ele>366</ele>
        <time>2013-09-15T08:50:24Z</time>
      </trkpt>
      <trkpt lat="50.21392" lon="5.43159">
        <ele>366</ele>
        <time>2013-09-15T08:50:29Z</time>
      </trkpt>
      <trkpt lat="50.21394" lon="5.43171">
        <ele>366</ele>
        <time>2013-09-15T08:50:35Z</time>
      </trkpt>
      <trkpt lat="50.21396" lon="5.43181">
        <ele>366</ele>
        <time>2013-09-15T08:50:40Z</time>
      </trkpt>
      <trkpt lat="50.21398" lon="5.43192">
        <ele>366</ele>
        <time>2013-09-15T08:50:46Z</time>
      </trkpt>
      <trkpt lat="50.214" lon="5.43205">
        <ele>366</ele>
        <time>2013-09-15T08:50:52Z</time>
      </trkpt>
      <trkpt lat="50.21401" lon="5.43214">
        <ele>366</ele>
        <time>2013-09-15T08:50:57Z</time>
      </trkpt>
      <trkpt lat="50.21403" lon="5.43224">
        <ele>366</ele>
        <time>2013-09-15T08:51:02Z</time>
      </trkpt>
      <trkpt lat="50.21405" lon="5.43235">
        <ele>366</ele>
        <time>2013-09-15T08:51:08Z</time>
      </trkpt>
      <trkpt lat="50.21406" lon="5.43244">
        <ele>366</ele>
        <time>2013-09-15T08:51:13Z</time>
      </trkpt>
      <trkpt lat="50.21407" lon="5.43254">
        <ele>366</ele>
        <time>2013-09-15T08:51:18Z</time>
      </trkpt>
      <trkpt lat="50.21407" lon="5.43263">
        <ele>366</ele>
        <time>2013-09-15T08:51:23Z</time>
      </trkpt>
      <trkpt lat="50.21408" lon="5.43276">
        <ele>367</ele>
        <time>2013-09-15T08:51:29Z</time>
      </trkpt>
      <trkpt lat="50.21408" lon="5.43289">
        <ele>367</ele>
        <time>2013-09-15T08:51:35Z</time>
      </trkpt>
      <trkpt lat="50.21407" lon="5.43298">
        <ele>367</ele>
        <time>2013-09-15T08:51:40Z</time>
      </trkpt>
      <trkpt lat="50.21408" lon="5.43309">
        <ele>366</ele>
        <time>2013-09-15T08:51:46Z</time>
      </trkpt>
      <trkpt lat="50.21409" lon="5.43318">
        <ele>367</ele>
        <time>2013-09-15T08:51:51Z</time>
      </trkpt>
      <trkpt lat="50.21411" lon="5.4333">
        <ele>367</ele>
        <time>2013-09-15T08:51:57Z</time>
      </trkpt>
      <trkpt lat="50.21412" lon="5.43339">
        <ele>368</ele>
        <time>2013-09-15T08:52:02Z</time>
      </trkpt>
      <trkpt lat="50.21413" lon="5.43351">
        <ele>368</ele>
        <time>2013-09-15T08:52:08Z</time>
      </trkpt>
      <trkpt lat="50.21415" lon="5.4336">
        <ele>368</ele>
        <time>2013-09-15T08:52:13Z</time>
      </trkpt>
      <trkpt lat="50.21417" lon="5.43372">
        <ele>368</ele>
        <time>2013-09-15T08:52:19Z</time>
      </trkpt>
      <trkpt lat="50.21419" lon="5.43384">
        <ele>368</ele>
        <time>2013-09-15T08:52:25Z</time>
      </trkpt>
      <trkpt lat="50.2142" lon="5.43394">
        <ele>368</ele>
        <time>2013-09-15T08:52:30Z</time>
      </trkpt>
      <trkpt lat="50.21421" lon="5.43405">
        <ele>367</ele>
        <time>2013-09-15T08:52:36Z</time>
      </trkpt>
      <trkpt lat="50.21422" lon="5.43415">
        <ele>368</ele>
        <time>2013-09-15T08:52:41Z</time>
      </trkpt>
      <trkpt lat="50.21422" lon="5.43426">
        <ele>368</ele>
        <time>2013-09-15T08:52:46Z</time>
      </trkpt>
      <trkpt lat="50.21422" lon="5.43436">
        <ele>368</ele>
        <time>2013-09-15T08:52:51Z</time>
      </trkpt>
      <trkpt lat="50.21422" lon="5.43446">
        <ele>368</ele>
        <time>2013-09-15T08:52:56Z</time>
      </trkpt>
      <trkpt lat="50.21421" lon="5.43458">
        <ele>367</ele>
        <time>2013-09-15T08:53:02Z</time>
      </trkpt>
      <trkpt lat="50.2142" lon="5.43468">
        <ele>368</ele>
        <time>2013-09-15T08:53:07Z</time>
      </trkpt>
      <trkpt lat="50.2142" lon="5.43478">
        <ele>368</ele>
        <time>2013-09-15T08:53:12Z</time>
      </trkpt>
      <trkpt lat="50.21418" lon="5.43491">
        <ele>368</ele>
        <time>2013-09-15T08:53:18Z</time>
      </trkpt>
      <trkpt lat="50.21416" lon="5.43501">
        <ele>368</ele>
        <time>2013-09-15T08:53:23Z</time>
      </trkpt>
      <trkpt lat="50.21413" lon="5.43513">
        <ele>368</ele>
        <time>2013-09-15T08:53:29Z</time>
      </trkpt>
      <trkpt lat="50.2141" lon="5.43524">
        <ele>368</ele>
        <time>2013-09-15T08:53:35Z</time>
      </trkpt>
      <trkpt lat="50.21407" lon="5.43532">
        <ele>368</ele>
        <time>2013-09-15T08:53:40Z</time>
      </trkpt>
      <trkpt lat="50.21403" lon="5.43543">
        <ele>368</ele>
        <time>2013-09-15T08:53:46Z</time>
      </trkpt>
      <trkpt lat="50.21401" lon="5.43553">
        <ele>368</ele>
        <time>2013-09-15T08:53:51Z</time>
      </trkpt>
      <trkpt lat="50.21399" lon="5.43564">
        <ele>368</ele>
        <time>2013-09-15T08:53:57Z</time>
      </trkpt>
      <trkpt lat="50.21399" lon="5.43576">
        <ele>368</ele>
        <time>2013-09-15T08:54:03Z</time>
      </trkpt>
      <trkpt lat="50.214" lon="5.43587">
        <ele>368</ele>
        <time>2013-09-15T08:54:08Z</time>
      </trkpt>
      <trkpt lat="50.21402" lon="5.436">
        <ele>368</ele>
        <time>2013-09-15T08:54:14Z</time>
      </trkpt>
      <trkpt lat="50.21403" lon="5.43609">
        <ele>368</ele>
        <time>2013-09-15T08:54:19Z</time>
      </trkpt>
      <trkpt lat="50.21405" lon="5.43621">
        <ele>368</ele>
        <time>2013-09-15T08:54:25Z</time>
      </trkpt>
      <trkpt lat="50.21405" lon="5.43631">
        <ele>368</ele>
        <time>2013-09-15T08:54:30Z</time>
      </trkpt>
      <trkpt lat="50.21407" lon="5.43641">
        <ele>368</ele>
        <time>2013-09-15T08:54:35Z</time>
      </trkpt>
      <trkpt lat="50.21408" lon="5.43652">
        <ele>367</ele>
        <time>2013-09-15T08:54:41Z</time>
      </trkpt>
      <trkpt lat="50.21409" lon="5.43665">
        <ele>368</ele>
        <time>2013-09-15T08:54:47Z</time>
      </trkpt>
      <trkpt lat="50.2141" lon="5.43675">
        <ele>368</ele>
        <time>2013-09-15T08:54:52Z</time>
      </trkpt>
      <trkpt lat="50.21411" lon="5.43687">
        <ele>368</ele>
        <time>2013-09-15T08:54:58Z</time>
      </trkpt>
      <trkpt lat="50.21412" lon="5.43697">
        <ele>367</ele>
        <time>2013-09-15T08:55:03Z</time>
      </trkpt>
      <trkpt lat="50.21414" lon="5.43708">
        <ele>367</ele>
        <time>2013-09-15T08:55:09Z</time>
      </trkpt>
      <trkpt lat="50.21415" lon="5.43716">
        <ele>367</ele>
        <time>2013-09-15T08:55:14Z</time>
      </trkpt>
      <trkpt lat="50.21414" lon="5.43727">
        <ele>367</ele>
        <time>2013-09-15T08:55:20Z</time>
      </trkpt>
      <trkpt lat="50.21411" lon="5.43735">
        <ele>367</ele>
        <time>2013-09-15T08:55:25Z</time>
      </trkpt>
      <trkpt lat="50.21408" lon="5.43745">
        <ele>367</ele>
        <time>2013-09-15T08:55:31Z</time>
      </trkpt>
      <trkpt lat="50.21406" lon="5.43749">
        <ele>367</ele>
        <time>2013-09-15T08:55:37Z</time>
      </trkpt>
      <trkpt lat="50.21405" lon="5.4375">
        <ele>367</ele>
        <time>2013-09-15T08:55:42Z</time>
      </trkpt>
      <trkpt lat="50.21402" lon="5.43754">
        <ele>367</ele>
        <time>2013-09-15T08:55:48Z</time>
      </trkpt>
      <trkpt lat="50.21399" lon="5.4376">
        <ele>368</ele>
        <time>2013-09-15T08:55:54Z</time>
      </trkpt>
      <trkpt lat="50.21397" lon="5.43768">
        <ele>368</ele>
        <time>2013-09-15T08:56:00Z</time>
      </trkpt>
      <trkpt lat="50.21394" lon="5.43778">
        <ele>368</ele>
        <time>2013-09-15T08:56:06Z</time>
      </trkpt>
      <trkpt lat="50.21391" lon="5.43785">
        <ele>368</ele>
        <time>2013-09-15T08:56:11Z</time>
      </trkpt>
      <trkpt lat="50.21386" lon="5.43795">
        <ele>368</ele>
        <time>2013-09-15T08:56:17Z</time>
      </trkpt>
      <trkpt lat="50.21382" lon="5.43804">
        <ele>368</ele>
        <time>2013-09-15T08:56:22Z</time>
      </trkpt>
      <trkpt lat="50.21376" lon="5.43814">
        <ele>368</ele>
        <time>2013-09-15T08:56:28Z</time>
      </trkpt>
      <trkpt lat="50.21371" lon="5.43822">
        <ele>368</ele>
        <time>2013-09-15T08:56:34Z</time>
      </trkpt>
      <trkpt lat="50.21365" lon="5.43829">
        <ele>367</ele>
        <time>2013-09-15T08:56:39Z</time>
      </trkpt>
      <trkpt lat="50.2136" lon="5.43835">
        <ele>368</ele>
        <time>2013-09-15T08:56:44Z</time>
      </trkpt>
      <trkpt lat="50.21355" lon="5.43843">
        <ele>367</ele>
        <time>2013-09-15T08:56:50Z</time>
      </trkpt>
      <trkpt lat="50.2135" lon="5.43848">
        <ele>367</ele>
        <time>2013-09-15T08:56:55Z</time>
      </trkpt>
      <trkpt lat="50.21345" lon="5.43856">
        <ele>367</ele>
        <time>2013-09-15T08:57:00Z</time>
      </trkpt>
      <trkpt lat="50.2134" lon="5.43863">
        <ele>367</ele>
        <time>2013-09-15T08:57:05Z</time>
      </trkpt>
      <trkpt lat="50.21335" lon="5.43872">
        <ele>366</ele>
        <time>2013-09-15T08:57:11Z</time>
      </trkpt>
      <trkpt lat="50.2133" lon="5.4388">
        <ele>366</ele>
        <time>2013-09-15T08:57:16Z</time>
      </trkpt>
      <trkpt lat="50.21324" lon="5.43888">
        <ele>365</ele>
        <time>2013-09-15T08:57:22Z</time>
      </trkpt>
      <trkpt lat="50.21318" lon="5.43896">
        <ele>364</ele>
        <time>2013-09-15T08:57:28Z</time>
      </trkpt>
      <trkpt lat="50.21312" lon="5.43903">
        <ele>364</ele>
        <time>2013-09-15T08:57:34Z</time>
      </trkpt>
      <trkpt lat="50.21307" lon="5.43908">
        <ele>364</ele>
        <time>2013-09-15T08:57:39Z</time>
      </trkpt>
      <trkpt lat="50.21301" lon="5.43913">
        <ele>364</ele>
        <time>2013-09-15T08:57:44Z</time>
      </trkpt>
      <trkpt lat="50.21294" lon="5.43919">
        <ele>364</ele>
        <time>2013-09-15T08:57:50Z</time>
      </trkpt>
      <trkpt lat="50.21287" lon="5.43926">
        <ele>363</ele>
        <time>2013-09-15T08:57:56Z</time>
      </trkpt>
      <trkpt lat="50.21281" lon="5.43931">
        <ele>363</ele>
        <time>2013-09-15T08:58:01Z</time>
      </trkpt>
      <trkpt lat="50.21275" lon="5.43937">
        <ele>363</ele>
        <time>2013-09-15T08:58:07Z</time>
      </trkpt>
      <trkpt lat="50.2127" lon="5.4394">
        <ele>362</ele>
        <time>2013-09-15T08:58:12Z</time>
      </trkpt>
      <trkpt lat="50.21265" lon="5.43945">
        <ele>362</ele>
        <time>2013-09-15T08:58:17Z</time>
      </trkpt>
      <trkpt lat="50.21258" lon="5.43951">
        <ele>362</ele>
        <time>2013-09-15T08:58:23Z</time>
      </trkpt>
      <trkpt lat="50.21253" lon="5.43954">
        <ele>361</ele>
        <time>2013-09-15T08:58:29Z</time>
      </trkpt>
      <trkpt lat="50.2125" lon="5.43957">
        <ele>361</ele>
        <time>2013-09-15T08:58:34Z</time>
      </trkpt>
      <trkpt lat="50.21246" lon="5.43961">
        <ele>360</ele>
        <time>2013-09-15T08:58:40Z</time>
      </trkpt>
      <trkpt lat="50.21244" lon="5.43963">
        <ele>360</ele>
        <time>2013-09-15T08:58:45Z</time>
      </trkpt>
      <trkpt lat="50.21241" lon="5.43967">
        <ele>360</ele>
        <time>2013-09-15T08:58:50Z</time>
      </trkpt>
      <trkpt lat="50.21236" lon="5.43972">
        <ele>361</ele>
        <time>2013-09-15T08:58:56Z</time>
      </trkpt>
      <trkpt lat="50.2123" lon="5.43979">
        <ele>361</ele>
        <time>2013-09-15T08:59:02Z</time>
      </trkpt>
      <trkpt lat="50.21224" lon="5.43985">
        <ele>361</ele>
        <time>2013-09-15T08:59:07Z</time>
      </trkpt>
      <trkpt lat="50.21219" lon="5.4399">
        <ele>361</ele>
        <time>2013-09-15T08:59:12Z</time>
      </trkpt>
      <trkpt lat="50.21213" lon="5.43996">
        <ele>361</ele>
        <time>2013-09-15T08:59:17Z</time>
      </trkpt>
      <trkpt lat="50.21206" lon="5.44002">
        <ele>361</ele>
        <time>2013-09-15T08:59:23Z</time>
      </trkpt>
      <trkpt lat="50.21201" lon="5.44005">
        <ele>361</ele>
        <time>2013-09-15T08:59:28Z</time>
      </trkpt>
      <trkpt lat="50.21195" lon="5.44006">
        <ele>361</ele>
        <time>2013-09-15T08:59:34Z</time>
      </trkpt>
      <trkpt lat="50.2119" lon="5.44009">
        <ele>362</ele>
        <time>2013-09-15T08:59:39Z</time>
      </trkpt>
      <trkpt lat="50.21183" lon="5.44013">
        <ele>363</ele>
        <time>2013-09-15T08:59:45Z</time>
      </trkpt>
      <trkpt lat="50.21178" lon="5.44014">
        <ele>363</ele>
        <time>2013-09-15T08:59:50Z</time>
      </trkpt>
      <trkpt lat="50.21174" lon="5.44013">
        <ele>363</ele>
        <time>2013-09-15T08:59:55Z</time>
      </trkpt>
      <trkpt lat="50.21169" lon="5.4401">
        <ele>363</ele>
        <time>2013-09-15T09:00:01Z</time>
      </trkpt>
      <trkpt lat="50.21166" lon="5.44008">
        <ele>363</ele>
        <time>2013-09-15T09:00:06Z</time>
      </trkpt>
      <trkpt lat="50.21165" lon="5.44007">
        <ele>363</ele>
        <time>2013-09-15T09:00:12Z</time>
      </trkpt>
      <trkpt lat="50.21164" lon="5.44006">
        <ele>364</ele>
        <time>2013-09-15T09:00:17Z</time>
      </trkpt>
      <trkpt lat="50.21162" lon="5.44004">
        <ele>363</ele>
        <time>2013-09-15T09:00:22Z</time>
      </trkpt>
      <trkpt lat="50.21161" lon="5.44003">
        <ele>364</ele>
        <time>2013-09-15T09:00:28Z</time>
      </trkpt>
      <trkpt lat="50.21159" lon="5.44001">
        <ele>363</ele>
        <time>2013-09-15T09:00:34Z</time>
      </trkpt>
      <trkpt lat="50.21159" lon="5.44">
        <ele>363</ele>
        <time>2013-09-15T09:00:40Z</time>
      </trkpt>
      <trkpt lat="50.21158" lon="5.43998">
        <ele>363</ele>
        <time>2013-09-15T09:00:46Z</time>
      </trkpt>
      <trkpt lat="50.21158" lon="5.43997">
        <ele>363</ele>
        <time>2013-09-15T09:00:53Z</time>
      </trkpt>
      <trkpt lat="50.21157" lon="5.43998">
        <ele>363</ele>
        <time>2013-09-15T09:00:59Z</time>
      </trkpt>
      <trkpt lat="50.21157" lon="5.43998">
        <ele>364</ele>
        <time>2013-09-15T09:01:04Z</time>
      </trkpt>
      <trkpt lat="50.21157" lon="5.43998">
        <ele>363</ele>
        <time>2013-09-15T09:01:10Z</time>
      </trkpt>
      <trkpt lat="50.21158" lon="5.43995">
        <ele>363</ele>
        <time>2013-09-15T09:01:16Z</time>
      </trkpt>
      <trkpt lat="50.21158" lon="5.43993">
        <ele>364</ele>
        <time>2013-09-15T09:01:22Z</time>
      </trkpt>
      <trkpt lat="50.21158" lon="5.4399">
        <ele>364</ele>
        <time>2013-09-15T09:01:27Z</time>
      </trkpt>
      <trkpt lat="50.21158" lon="5.43988">
        <ele>363</ele>
        <time>2013-09-15T09:01:32Z</time>
      </trkpt>
      <trkpt lat="50.21156" lon="5.43991">
        <ele>364</ele>
        <time>2013-09-15T09:01:38Z</time>
      </trkpt>
      <trkpt lat="50.21154" lon="5.43997">
        <ele>364</ele>
        <time>2013-09-15T09:01:43Z</time>
      </trkpt>
      <trkpt lat="50.21152" lon="5.44007">
        <ele>364</ele>
        <time>2013-09-15T09:01:49Z</time>
      </trkpt>
      <trkpt lat="50.21149" lon="5.44013">
        <ele>364</ele>
        <time>2013-09-15T09:01:54Z</time>
      </trkpt>
      <trkpt lat="50.21147" lon="5.44021">
        <ele>364</ele>
        <time>2013-09-15T09:01:59Z</time>
      </trkpt>
      <trkpt lat="50.21149" lon="5.44029">
        <ele>364</ele>
        <time>2013-09-15T09:02:05Z</time>
      </trkpt>
      <trkpt lat="50.21149" lon="5.4404">
        <ele>365</ele>
        <time>2013-09-15T09:02:11Z</time>
      </trkpt>
      <trkpt lat="50.21148" lon="5.44047">
        <ele>365</ele>
        <time>2013-09-15T09:02:16Z</time>
      </trkpt>
      <trkpt lat="50.21149" lon="5.44054">
        <ele>365</ele>
        <time>2013-09-15T09:02:21Z</time>
      </trkpt>
      <trkpt lat="50.21151" lon="5.44062">
        <ele>365</ele>
        <time>2013-09-15T09:02:26Z</time>
      </trkpt>
      <trkpt lat="50.21155" lon="5.44068">
        <ele>365</ele>
        <time>2013-09-15T09:02:32Z</time>
      </trkpt>
      <trkpt lat="50.21159" lon="5.44075">
        <ele>365</ele>
        <time>2013-09-15T09:02:38Z</time>
      </trkpt>
      <trkpt lat="50.21161" lon="5.44081">
        <ele>365</ele>
        <time>2013-09-15T09:02:43Z</time>
      </trkpt>
      <trkpt lat="50.21163" lon="5.44089">
        <ele>365</ele>
        <time>2013-09-15T09:02:48Z</time>
      </trkpt>
      <trkpt lat="50.21162" lon="5.44093">
        <ele>366</ele>
        <time>2013-09-15T09:02:53Z</time>
      </trkpt>
      <trkpt lat="50.2116" lon="5.44097">
        <ele>365</ele>
        <time>2013-09-15T09:02:59Z</time>
      </trkpt>
      <trkpt lat="50.21159" lon="5.44101">
        <ele>366</ele>
        <time>2013-09-15T09:03:05Z</time>
      </trkpt>
      <trkpt lat="50.21156" lon="5.44103">
        <ele>366</ele>
        <time>2013-09-15T09:03:11Z</time>
      </trkpt>
      <trkpt lat="50.21154" lon="5.44104">
        <ele>366</ele>
        <time>2013-09-15T09:03:17Z</time>
      </trkpt>
      <trkpt lat="50.21154" lon="5.44104">
        <ele>366</ele>
        <time>2013-09-15T09:03:22Z</time>
      </trkpt>
      <trkpt lat="50.21153" lon="5.44102">
        <ele>366</ele>
        <time>2013-09-15T09:03:28Z</time>
      </trkpt>
      <trkpt lat="50.21151" lon="5.44103">
        <ele>365</ele>
        <time>2013-09-15T09:03:35Z</time>
      </trkpt>
      <trkpt lat="50.21151" lon="5.44105">
        <ele>366</ele>
        <time>2013-09-15T09:03:40Z</time>
      </trkpt>
      <trkpt lat="50.2115" lon="5.44108">
        <ele>365</ele>
        <time>2013-09-15T09:03:45Z</time>
      </trkpt>
      <trkpt lat="50.21151" lon="5.4411">
        <ele>365</ele>
        <time>2013-09-15T09:03:50Z</time>
      </trkpt>
      <trkpt lat="50.21152" lon="5.4411">
        <ele>366</ele>
        <time>2013-09-15T09:03:56Z</time>
      </trkpt>
      <trkpt lat="50.21154" lon="5.44111">
        <ele>366</ele>
        <time>2013-09-15T09:04:01Z</time>
      </trkpt>
      <trkpt lat="50.21156" lon="5.44111">
        <ele>366</ele>
        <time>2013-09-15T09:04:06Z</time>
      </trkpt>
      <trkpt lat="50.21158" lon="5.4411">
        <ele>366</ele>
        <time>2013-09-15T09:04:12Z</time>
      </trkpt>
      <trkpt lat="50.21159" lon="5.4411">
        <ele>366</ele>
        <time>2013-09-15T09:04:17Z</time>
      </trkpt>
      <trkpt lat="50.21159" lon="5.44114">
        <ele>366</ele>
        <time>2013-09-15T09:04:22Z</time>
      </trkpt>
      <trkpt lat="50.21161" lon="5.4412">
        <ele>366</ele>
        <time>2013-09-15T09:04:28Z</time>
      </trkpt>
      <trkpt lat="50.21161" lon="5.44125">
        <ele>366</ele>
        <time>2013-09-15T09:04:33Z</time>
      </trkpt>
      <trkpt lat="50.2116" lon="5.44131">
        <ele>366</ele>
        <time>2013-09-15T09:04:38Z</time>
      </trkpt>
      <trkpt lat="50.21159" lon="5.44134">
        <ele>366</ele>
        <time>2013-09-15T09:04:44Z</time>
      </trkpt>
      <trkpt lat="50.2116" lon="5.44136">
        <ele>366</ele>
        <time>2013-09-15T09:04:49Z</time>
      </trkpt>
      <trkpt lat="50.2116" lon="5.44138">
        <ele>366</ele>
        <time>2013-09-15T09:04:54Z</time>
      </trkpt>
      <trkpt lat="50.21161" lon="5.44141">
        <ele>366</ele>
        <time>2013-09-15T09:05:00Z</time>
      </trkpt>
      <trkpt lat="50.21162" lon="5.44143">
        <ele>366</ele>
        <time>2013-09-15T09:05:06Z</time>
      </trkpt>
      <trkpt lat="50.21162" lon="5.44145">
        <ele>366</ele>
        <time>2013-09-15T09:05:11Z</time>
      </trkpt>
      <trkpt lat="50.21163" lon="5.44148">
        <ele>366</ele>
        <time>2013-09-15T09:05:16Z</time>
      </trkpt>
      <trkpt lat="50.21165" lon="5.4415">
        <ele>366</ele>
        <time>2013-09-15T09:05:21Z</time>
      </trkpt>
      <trkpt lat="50.21165" lon="5.44151">
        <ele>366</ele>
        <time>2013-09-15T09:05:27Z</time>
      </trkpt>
      <trkpt lat="50.21167" lon="5.44155">
        <ele>366</ele>
        <time>2013-09-15T09:05:32Z</time>
      </trkpt>
      <trkpt lat="50.21168" lon="5.44158">
        <ele>366</ele>
        <time>2013-09-15T09:05:37Z</time>
      </trkpt>
      <trkpt lat="50.21168" lon="5.4416">
        <ele>366</ele>
        <time>2013-09-15T09:05:43Z</time>
      </trkpt>
      <trkpt lat="50.2117" lon="5.44163">
        <ele>366</ele>
        <time>2013-09-15T09:05:49Z</time>
      </trkpt>
      <trkpt lat="50.21173" lon="5.44164">
        <ele>366</ele>
        <time>2013-09-15T09:05:54Z</time>
      </trkpt>
      <trkpt lat="50.21175" lon="5.44168">
        <ele>366</ele>
        <time>2013-09-15T09:05:59Z</time>
      </trkpt>
      <trkpt lat="50.2118" lon="5.44173">
        <ele>366</ele>
        <time>2013-09-15T09:06:05Z</time>
      </trkpt>
      <trkpt lat="50.21184" lon="5.44177">
        <ele>366</ele>
        <time>2013-09-15T09:06:10Z</time>
      </trkpt>
      <trkpt lat="50.21188" lon="5.44179">
        <ele>366</ele>
        <time>2013-09-15T09:06:16Z</time>
      </trkpt>
      <trkpt lat="50.21188" lon="5.44182">
        <ele>366</ele>
        <time>2013-09-15T09:06:22Z</time>
      </trkpt>
      <trkpt lat="50.2119" lon="5.44185">
        <ele>366</ele>
        <time>2013-09-15T09:06:27Z</time>
      </trkpt>
      <trkpt lat="50.21193" lon="5.44187">
        <ele>366</ele>
        <time>2013-09-15T09:06:32Z</time>
      </trkpt>
      <trkpt lat="50.21196" lon="5.4419">
        <ele>366</ele>
        <time>2013-09-15T09:06:37Z</time>
      </trkpt>
      <trkpt lat="50.21198" lon="5.44194">
        <ele>366</ele>
        <time>2013-09-15T09:06:43Z</time>
      </trkpt>
      <trkpt lat="50.212" lon="5.44197">
        <ele>365</ele>
        <time>2013-09-15T09:06:48Z</time>
      </trkpt>
      <trkpt lat="50.212" lon="5.44201">
        <ele>366</ele>
        <time>2013-09-15T09:06:54Z</time>
      </trkpt>
      <trkpt lat="50.212" lon="5.44207">
        <ele>366</ele>
        <time>2013-09-15T09:06:59Z</time>
      </trkpt>
      <trkpt lat="50.212" lon="5.44212">
        <ele>366</ele>
        <time>2013-09-15T09:07:05Z</time>
      </trkpt>
      <trkpt lat="50.212" lon="5.44215">
        <ele>366</ele>
        <time>2013-09-15T09:07:10Z</time>
      </trkpt>
      <trkpt lat="50.21199" lon="5.44219">
        <ele>366</ele>
        <time>2013-09-15T09:07:15Z</time>
      </trkpt>
      <trkpt lat="50.21199" lon="5.44223">
        <ele>366</ele>
        <time>2013-09-15T09:07:21Z</time>
      </trkpt>
      <trkpt lat="50.21196" lon="5.44225">
        <ele>366</ele>
        <time>2013-09-15T09:07:26Z</time>
      </trkpt>
      <trkpt lat="50.21193" lon="5.44222">
        <ele>366</ele>
        <time>2013-09-15T09:07:32Z</time>
      </trkpt>
      <trkpt lat="50.2119" lon="5.44219">
        <ele>367</ele>
        <time>2013-09-15T09:07:38Z</time>
      </trkpt>
      <trkpt lat="50.21186" lon="5.44215">
        <ele>367</ele>
        <time>2013-09-15T09:07:44Z</time>
      </trkpt>
      <trkpt lat="50.21183" lon="5.4421">
        <ele>367</ele>
        <time>2013-09-15T09:07:50Z</time>
      </trkpt>
      <trkpt lat="50.21181" lon="5.44208">
        <ele>367</ele>
        <time>2013-09-15T09:07:56Z</time>
      </trkpt>
      <trkpt lat="50.2118" lon="5.44206">
        <ele>367</ele>
        <time>2013-09-15T09:08:01Z</time>
      </trkpt>
      <trkpt lat="50.21178" lon="5.44206">
        <ele>367</ele>
        <time>2013-09-15T09:08:07Z</time>
      </trkpt>
      <trkpt lat="50.21178" lon="5.44205">
        <ele>366</ele>
        <time>2013-09-15T09:08:13Z</time>
      </trkpt>
      <trkpt lat="50.2118" lon="5.44203">
        <ele>367</ele>
        <time>2013-09-15T09:08:18Z</time>
      </trkpt>
      <trkpt lat="50.21182" lon="5.44201">
        <ele>366</ele>
        <time>2013-09-15T09:08:24Z</time>
      </trkpt>
      <trkpt lat="50.21182" lon="5.44201">
        <ele>366</ele>
        <time>2013-09-15T09:08:29Z</time>
      </trkpt>
      <trkpt lat="50.21182" lon="5.44205">
        <ele>367</ele>
        <time>2013-09-15T09:08:34Z</time>
      </trkpt>
      <trkpt lat="50.21185" lon="5.44207">
        <ele>366</ele>
        <time>2013-09-15T09:08:40Z</time>
      </trkpt>
      <trkpt lat="50.21189" lon="5.44208">
        <ele>366</ele>
        <time>2013-09-15T09:08:45Z</time>
      </trkpt>
      <trkpt lat="50.21192" lon="5.44208">
        <ele>366</ele>
        <time>2013-09-15T09:08:51Z</time>
      </trkpt>
      <trkpt lat="50.21192" lon="5.44209">
        <ele>366</ele>
        <time>2013-09-15T09:08:57Z</time>
      </trkpt>
      <trkpt lat="50.21192" lon="5.44211">
        <ele>366</ele>
        <time>2013-09-15T09:09:02Z</time>
      </trkpt>
      <trkpt lat="50.21193" lon="5.4421">
        <ele>366</ele>
        <time>2013-09-15T09:09:08Z</time>
      </trkpt>
      <trkpt lat="50.21196" lon="5.44208">
        <ele>366</ele>
        <time>2013-09-15T09:09:14Z</time>
      </trkpt>
      <trkpt lat="50.21198" lon="5.44209">
        <ele>366</ele>
        <time>2013-09-15T09:09:19Z</time>
      </trkpt>
      <trkpt lat="50.21201" lon="5.44212">
        <ele>366</ele>
        <time>2013-09-15T09:09:25Z</time>
      </trkpt>
      <trkpt lat="50.21204" lon="5.44214">
        <ele>366</ele>
        <time>2013-09-15T09:09:30Z</time>
      </trkpt>
      <trkpt lat="50.21207" lon="5.4422">
        <ele>366</ele>
        <time>2013-09-15T09:09:36Z</time>
      </trkpt>
      <trkpt lat="50.21211" lon="5.44227">
        <ele>366</ele>
        <time>2013-09-15T09:09:42Z</time>
      </trkpt>
      <trkpt lat="50.21216" lon="5.44233">
        <ele>365</ele>
        <time>2013-09-15T09:09:48Z</time>
      </trkpt>
      <trkpt lat="50.2122" lon="5.44239">
        <ele>365</ele>
        <time>2013-09-15T09:09:53Z</time>
      </trkpt>
      <trkpt lat="50.21226" lon="5.44244">
        <ele>365</ele>
        <time>2013-09-15T09:09:59Z</time>
      </trkpt>
      <trkpt lat="50.2123" lon="5.44248">
        <ele>364</ele>
        <time>2013-09-15T09:10:04Z</time>
      </trkpt>
      <trkpt lat="50.21235" lon="5.44254">
        <ele>364</ele>
        <time>2013-09-15T09:10:09Z</time>
      </trkpt>
      <trkpt lat="50.2124" lon="5.44262">
        <ele>364</ele>
        <time>2013-09-15T09:10:15Z</time>
      </trkpt>
      <trkpt lat="50.21244" lon="5.44269">
        <ele>363</ele>
        <time>2013-09-15T09:10:20Z</time>
      </trkpt>
      <trkpt lat="50.21248" lon="5.44276">
        <ele>363</ele>
        <time>2013-09-15T09:10:25Z</time>
      </trkpt>
      <trkpt lat="50.2125" lon="5.44284">
        <ele>363</ele>
        <time>2013-09-15T09:10:31Z</time>
      </trkpt>
      <trkpt lat="50.21251" lon="5.44291">
        <ele>363</ele>
        <time>2013-09-15T09:10:36Z</time>
      </trkpt>
      <trkpt lat="50.21253" lon="5.44299">
        <ele>363</ele>
        <time>2013-09-15T09:10:41Z</time>
      </trkpt>
      <trkpt lat="50.21256" lon="5.44309">
        <ele>363</ele>
        <time>2013-09-15T09:10:47Z</time>
      </trkpt>
      <trkpt lat="50.21257" lon="5.4432">
        <ele>362</ele>
        <time>2013-09-15T09:10:53Z</time>
      </trkpt>
      <trkpt lat="50.2126" lon="5.44331">
        <ele>362</ele>
        <time>2013-09-15T09:10:59Z</time>
      </trkpt>
      <trkpt lat="50.21261" lon="5.44339">
        <ele>362</ele>
        <time>2013-09-15T09:11:04Z</time>
      </trkpt>
      <trkpt lat="50.21262" lon="5.44347">
        <ele>362</ele>
        <time>2013-09-15T09:11:10Z</time>
      </trkpt>
      <trkpt lat="50.21262" lon="5.44358">
        <ele>361</ele>
        <time>2013-09-15T09:11:15Z</time>
      </trkpt>
      <trkpt lat="50.2126" lon="5.44369">
        <ele>361</ele>
        <time>2013-09-15T09:11:21Z</time>
      </trkpt>
      <trkpt lat="50.21258" lon="5.44378">
        <ele>361</ele>
        <time>2013-09-15T09:11:27Z</time>
      </trkpt>
      <trkpt lat="50.21256" lon="5.44385">
        <ele>361</ele>
        <time>2013-09-15T09:11:32Z</time>
      </trkpt>
      <trkpt lat="50.21256" lon="5.44388">
        <ele>361</ele>
        <time>2013-09-15T09:11:38Z</time>
      </trkpt>
      <trkpt lat="50.21257" lon="5.44388">
        <ele>361</ele>
        <time>2013-09-15T09:11:43Z</time>
      </trkpt>
      <trkpt lat="50.2126" lon="5.44385">
        <ele>361</ele>
        <time>2013-09-15T09:11:48Z</time>
      </trkpt>
      <trkpt lat="50.2126" lon="5.44384">
        <ele>362</ele>
        <time>2013-09-15T09:11:54Z</time>
      </trkpt>
      <trkpt lat="50.21259" lon="5.44388">
        <ele>362</ele>
        <time>2013-09-15T09:12:00Z</time>
      </trkpt>
      <trkpt lat="50.21258" lon="5.4439">
        <ele>362</ele>
        <time>2013-09-15T09:12:06Z</time>
      </trkpt>
      <trkpt lat="50.21255" lon="5.44397">
        <ele>362</ele>
        <time>2013-09-15T09:12:12Z</time>
      </trkpt>
      <trkpt lat="50.21254" lon="5.44401">
        <ele>361</ele>
        <time>2013-09-15T09:12:17Z</time>
      </trkpt>
      <trkpt lat="50.21251" lon="5.44407">
        <ele>361</ele>
        <time>2013-09-15T09:12:23Z</time>
      </trkpt>
      <trkpt lat="50.21248" lon="5.44413">
        <ele>361</ele>
        <time>2013-09-15T09:12:28Z</time>
      </trkpt>
      <trkpt lat="50.21244" lon="5.4442">
        <ele>361</ele>
        <time>2013-09-15T09:12:34Z</time>
      </trkpt>
      <trkpt lat="50.21241" lon="5.44427">
        <ele>362</ele>
        <time>2013-09-15T09:12:39Z</time>
      </trkpt>
      <trkpt lat="50.2124" lon="5.4443">
        <ele>362</ele>
        <time>2013-09-15T09:12:45Z</time>
      </trkpt>
      <trkpt lat="50.21237" lon="5.44435">
        <ele>362</ele>
        <time>2013-09-15T09:12:51Z</time>
      </trkpt>
      <trkpt lat="50.21232" lon="5.44443">
        <ele>362</ele>
        <time>2013-09-15T09:12:57Z</time>
      </trkpt>
      <trkpt lat="50.21229" lon="5.44449">
        <ele>362</ele>
        <time>2013-09-15T09:13:03Z</time>
      </trkpt>
      <trkpt lat="50.21225" lon="5.44456">
        <ele>361</ele>
        <time>2013-09-15T09:13:09Z</time>
      </trkpt>
      <trkpt lat="50.21221" lon="5.44462">
        <ele>362</ele>
        <time>2013-09-15T09:13:14Z</time>
      </trkpt>
      <trkpt lat="50.21217" lon="5.44469">
        <ele>362</ele>
        <time>2013-09-15T09:13:20Z</time>
      </trkpt>
      <trkpt lat="50.21214" lon="5.44473">
        <ele>361</ele>
        <time>2013-09-15T09:13:25Z</time>
      </trkpt>
      <trkpt lat="50.2121" lon="5.44479">
        <ele>362</ele>
        <time>2013-09-15T09:13:30Z</time>
      </trkpt>
      <trkpt lat="50.21207" lon="5.44486">
        <ele>362</ele>
        <time>2013-09-15T09:13:35Z</time>
      </trkpt>
      <trkpt lat="50.21202" lon="5.44491">
        <ele>362</ele>
        <time>2013-09-15T09:13:41Z</time>
      </trkpt>
      <trkpt lat="50.21196" lon="5.44499">
        <ele>361</ele>
        <time>2013-09-15T09:13:47Z</time>
      </trkpt>
      <trkpt lat="50.21192" lon="5.44509">
        <ele>361</ele>
        <time>2013-09-15T09:13:53Z</time>
      </trkpt>
      <trkpt lat="50.21188" lon="5.4452">
        <ele>361</ele>
        <time>2013-09-15T09:13:58Z</time>
      </trkpt>
      <trkpt lat="50.21185" lon="5.44528">
        <ele>360</ele>
        <time>2013-09-15T09:14:04Z</time>
      </trkpt>
      <trkpt lat="50.21183" lon="5.44535">
        <ele>359</ele>
        <time>2013-09-15T09:14:09Z</time>
      </trkpt>
      <trkpt lat="50.2118" lon="5.44544">
        <ele>359</ele>
        <time>2013-09-15T09:14:14Z</time>
      </trkpt>
      <trkpt lat="50.21176" lon="5.44552">
        <ele>358</ele>
        <time>2013-09-15T09:14:20Z</time>
      </trkpt>
      <trkpt lat="50.21172" lon="5.4456">
        <ele>358</ele>
        <time>2013-09-15T09:14:25Z</time>
      </trkpt>
      <trkpt lat="50.21168" lon="5.44569">
        <ele>358</ele>
        <time>2013-09-15T09:14:31Z</time>
      </trkpt>
      <trkpt lat="50.21164" lon="5.44579">
        <ele>357</ele>
        <time>2013-09-15T09:14:36Z</time>
      </trkpt>
      <trkpt lat="50.21163" lon="5.44587">
        <ele>356</ele>
        <time>2013-09-15T09:14:41Z</time>
      </trkpt>
      <trkpt lat="50.21162" lon="5.44595">
        <ele>356</ele>
        <time>2013-09-15T09:14:47Z</time>
      </trkpt>
      <trkpt lat="50.21159" lon="5.44605">
        <ele>355</ele>
        <time>2013-09-15T09:14:52Z</time>
      </trkpt>
      <trkpt lat="50.21157" lon="5.44616">
        <ele>354</ele>
        <time>2013-09-15T09:14:58Z</time>
      </trkpt>
      <trkpt lat="50.21154" lon="5.44628">
        <ele>353</ele>
        <time>2013-09-15T09:15:03Z</time>
      </trkpt>
      <trkpt lat="50.21154" lon="5.44636">
        <ele>353</ele>
        <time>2013-09-15T09:15:09Z</time>
      </trkpt>
      <trkpt lat="50.21151" lon="5.44646">
        <ele>352</ele>
        <time>2013-09-15T09:15:15Z</time>
      </trkpt>
      <trkpt lat="50.2115" lon="5.44654">
        <ele>351</ele>
        <time>2013-09-15T09:15:20Z</time>
      </trkpt>
      <trkpt lat="50.2115" lon="5.44665">
        <ele>350</ele>
        <time>2013-09-15T09:15:26Z</time>
      </trkpt>
      <trkpt lat="50.21149" lon="5.44675">
        <ele>350</ele>
        <time>2013-09-15T09:15:32Z</time>
      </trkpt>
      <trkpt lat="50.21146" lon="5.44686">
        <ele>349</ele>
        <time>2013-09-15T09:15:38Z</time>
      </trkpt>
      <trkpt lat="50.21143" lon="5.44694">
        <ele>348</ele>
        <time>2013-09-15T09:15:43Z</time>
      </trkpt>
      <trkpt lat="50.2114" lon="5.44703">
        <ele>347</ele>
        <time>2013-09-15T09:15:48Z</time>
      </trkpt>
      <trkpt lat="50.21138" lon="5.44712">
        <ele>347</ele>
        <time>2013-09-15T09:15:54Z</time>
      </trkpt>
      <trkpt lat="50.21136" lon="5.44721">
        <ele>346</ele>
        <time>2013-09-15T09:15:59Z</time>
      </trkpt>
      <trkpt lat="50.21134" lon="5.44731">
        <ele>345</ele>
        <time>2013-09-15T09:16:04Z</time>
      </trkpt>
      <trkpt lat="50.21129" lon="5.4474">
        <ele>344</ele>
        <time>2013-09-15T09:16:09Z</time>
      </trkpt>
      <trkpt lat="50.21125" lon="5.44746">
        <ele>343</ele>
        <time>2013-09-15T09:16:15Z</time>
      </trkpt>
      <trkpt lat="50.21123" lon="5.44751">
        <ele>342</ele>
        <time>2013-09-15T09:16:21Z</time>
      </trkpt>
      <trkpt lat="50.21122" lon="5.44755">
        <ele>341</ele>
        <time>2013-09-15T09:16:26Z</time>
      </trkpt>
      <trkpt lat="50.21121" lon="5.44756">
        <ele>342</ele>
        <time>2013-09-15T09:16:32Z</time>
      </trkpt>
      <trkpt lat="50.21121" lon="5.44758">
        <ele>341</ele>
        <time>2013-09-15T09:16:37Z</time>
      </trkpt>
      <trkpt lat="50.21121" lon="5.44758">
        <ele>341</ele>
        <time>2013-09-15T09:16:43Z</time>
      </trkpt>
      <trkpt lat="50.21123" lon="5.4476">
        <ele>342</ele>
        <time>2013-09-15T09:16:49Z</time>
      </trkpt>
      <trkpt lat="50.21124" lon="5.44764">
        <ele>341</ele>
        <time>2013-09-15T09:16:54Z</time>
      </trkpt>
      <trkpt lat="50.21125" lon="5.44765">
        <ele>341</ele>
        <time>2013-09-15T09:17:00Z</time>
      </trkpt>
      <trkpt lat="50.21124" lon="5.44765">
        <ele>341</ele>
        <time>2013-09-15T09:17:06Z</time>
      </trkpt>
      <trkpt lat="50.21123" lon="5.44766">
        <ele>341</ele>
        <time>2013-09-15T09:17:12Z</time>
      </trkpt>
      <trkpt lat="50.21122" lon="5.44766">
        <ele>341</ele>
        <time>2013-09-15T09:17:17Z</time>
      </trkpt>
      <trkpt lat="50.2112" lon="5.44767">
        <ele>342</ele>
        <time>2013-09-15T09:17:23Z</time>
      </trkpt>
      <trkpt lat="50.21118" lon="5.44767">
        <ele>341</ele>
        <time>2013-09-15T09:17:28Z</time>
      </trkpt>
      <trkpt lat="50.21117" lon="5.44767">
        <ele>341</ele>
        <time>2013-09-15T09:17:34Z</time>
      </trkpt>
      <trkpt lat="50.21115" lon="5.44767">
        <ele>341</ele>
        <time>2013-09-15T09:17:39Z</time>
      </trkpt>
      <trkpt lat="50.21111" lon="5.44766">
        <ele>341</ele>
        <time>2013-09-15T09:17:45Z</time>
      </trkpt>
      <trkpt lat="50.21106" lon="5.44769">
        <ele>341</ele>
        <time>2013-09-15T09:17:51Z</time>
      </trkpt>
      <trkpt lat="50.21103" lon="5.44776">
        <ele>340</ele>
        <time>2013-09-15T09:17:57Z</time>
      </trkpt>
      <trkpt lat="50.21102" lon="5.4478">
        <ele>339</ele>
        <time>2013-09-15T09:18:02Z</time>
      </trkpt>
      <trkpt lat="50.21103" lon="5.44782">
        <ele>339</ele>
        <time>2013-09-15T09:18:08Z</time>
      </trkpt>
      <trkpt lat="50.21104" lon="5.44782">
        <ele>339</ele>
        <time>2013-09-15T09:18:13Z</time>
      </trkpt>
      <trkpt lat="50.21102" lon="5.44785">
        <ele>339</ele>
        <time>2013-09-15T09:18:18Z</time>
      </trkpt>
      <trkpt lat="50.21101" lon="5.44787">
        <ele>338</ele>
        <time>2013-09-15T09:18:24Z</time>
      </trkpt>
      <trkpt lat="50.211" lon="5.4479">
        <ele>337</ele>
        <time>2013-09-15T09:18:30Z</time>
      </trkpt>
      <trkpt lat="50.21099" lon="5.44793">
        <ele>337</ele>
        <time>2013-09-15T09:18:36Z</time>
      </trkpt>
      <trkpt lat="50.21099" lon="5.44796">
        <ele>336</ele>
        <time>2013-09-15T09:18:41Z</time>
      </trkpt>
      <trkpt lat="50.21099" lon="5.44801">
        <ele>336</ele>
        <time>2013-09-15T09:18:47Z</time>
      </trkpt>
      <trkpt lat="50.211" lon="5.44808">
        <ele>335</ele>
        <time>2013-09-15T09:18:52Z</time>
      </trkpt>
      <trkpt lat="50.21101" lon="5.44814">
        <ele>333</ele>
        <time>2013-09-15T09:18:57Z</time>
      </trkpt>
      <trkpt lat="50.211" lon="5.44819">
        <ele>332</ele>
        <time>2013-09-15T09:19:03Z</time>
      </trkpt>
      <trkpt lat="50.21098" lon="5.44824">
        <ele>332</ele>
        <time>2013-09-15T09:19:09Z</time>
      </trkpt>
      <trkpt lat="50.21098" lon="5.4483">
        <ele>331</ele>
        <time>2013-09-15T09:19:15Z</time>
      </trkpt>
      <trkpt lat="50.21098" lon="5.44835">
        <ele>331</ele>
        <time>2013-09-15T09:19:20Z</time>
      </trkpt>
      <trkpt lat="50.21098" lon="5.4484">
        <ele>330</ele>
        <time>2013-09-15T09:19:25Z</time>
      </trkpt>
      <trkpt lat="50.21097" lon="5.44845">
        <ele>329</ele>
        <time>2013-09-15T09:19:32Z</time>
      </trkpt>
      <trkpt lat="50.21096" lon="5.44851">
        <ele>329</ele>
        <time>2013-09-15T09:19:37Z</time>
      </trkpt>
      <trkpt lat="50.21096" lon="5.44859">
        <ele>328</ele>
        <time>2013-09-15T09:19:42Z</time>
      </trkpt>
      <trkpt lat="50.21099" lon="5.44866">
        <ele>326</ele>
        <time>2013-09-15T09:19:49Z</time>
      </trkpt>
      <trkpt lat="50.21101" lon="5.44875">
        <ele>325</ele>
        <time>2013-09-15T09:19:54Z</time>
      </trkpt>
      <trkpt lat="50.21103" lon="5.44879">
        <ele>325</ele>
        <time>2013-09-15T09:20:00Z</time>
      </trkpt>
      <trkpt lat="50.21104" lon="5.44885">
        <ele>324</ele>
        <time>2013-09-15T09:20:06Z</time>
      </trkpt>
      <trkpt lat="50.21105" lon="5.44887">
        <ele>324</ele>
        <time>2013-09-15T09:20:12Z</time>
      </trkpt>
      <trkpt lat="50.21107" lon="5.44887">
        <ele>324</ele>
        <time>2013-09-15T09:20:18Z</time>
      </trkpt>
      <trkpt lat="50.21108" lon="5.44888">
        <ele>324</ele>
        <time>2013-09-15T09:20:24Z</time>
      </trkpt>
      <trkpt lat="50.2111" lon="5.44891">
        <ele>324</ele>
        <time>2013-09-15T09:20:30Z</time>
      </trkpt>
      <trkpt lat="50.21112" lon="5.44894">
        <ele>322</ele>
        <time>2013-09-15T09:20:36Z</time>
      </trkpt>
      <trkpt lat="50.21112" lon="5.44896">
        <ele>322</ele>
        <time>2013-09-15T09:20:42Z</time>
      </trkpt>
      <trkpt lat="50.21112" lon="5.44896">
        <ele>322</ele>
        <time>2013-09-15T09:20:49Z</time>
      </trkpt>
      <trkpt lat="50.21112" lon="5.449">
        <ele>322</ele>
        <time>2013-09-15T09:20:54Z</time>
      </trkpt>
      <trkpt lat="50.21112" lon="5.44906">
        <ele>321</ele>
        <time>2013-09-15T09:21:00Z</time>
      </trkpt>
      <trkpt lat="50.21114" lon="5.44912">
        <ele>320</ele>
        <time>2013-09-15T09:21:06Z</time>
      </trkpt>
      <trkpt lat="50.21114" lon="5.4492">
        <ele>319</ele>
        <time>2013-09-15T09:21:11Z</time>
      </trkpt>
      <trkpt lat="50.21115" lon="5.44926">
        <ele>318</ele>
        <time>2013-09-15T09:21:16Z</time>
      </trkpt>
      <trkpt lat="50.21116" lon="5.44931">
        <ele>318</ele>
        <time>2013-09-15T09:21:22Z</time>
      </trkpt>
      <trkpt lat="50.21117" lon="5.44939">
        <ele>317</ele>
        <time>2013-09-15T09:21:27Z</time>
      </trkpt>
      <trkpt lat="50.21119" lon="5.44946">
        <ele>316</ele>
        <time>2013-09-15T09:21:32Z</time>
      </trkpt>
      <trkpt lat="50.21122" lon="5.44953">
        <ele>316</ele>
        <time>2013-09-15T09:21:38Z</time>
      </trkpt>
      <trkpt lat="50.21124" lon="5.44958">
        <ele>315</ele>
        <time>2013-09-15T09:21:43Z</time>
      </trkpt>
      <trkpt lat="50.21128" lon="5.44967">
        <ele>314</ele>
        <time>2013-09-15T09:21:50Z</time>
      </trkpt>
      <trkpt lat="50.21131" lon="5.44975">
        <ele>314</ele>
        <time>2013-09-15T09:21:55Z</time>
      </trkpt>
      <trkpt lat="50.21135" lon="5.44983">
        <ele>313</ele>
        <time>2013-09-15T09:22:00Z</time>
      </trkpt>
      <trkpt lat="50.21138" lon="5.44991">
        <ele>312</ele>
        <time>2013-09-15T09:22:06Z</time>
      </trkpt>
      <trkpt lat="50.21141" lon="5.45002">
        <ele>312</ele>
        <time>2013-09-15T09:22:12Z</time>
      </trkpt>
      <trkpt lat="50.21145" lon="5.45014">
        <ele>312</ele>
        <time>2013-09-15T09:22:18Z</time>
      </trkpt>
      <trkpt lat="50.21148" lon="5.45026">
        <ele>311</ele>
        <time>2013-09-15T09:22:24Z</time>
      </trkpt>
      <trkpt lat="50.2115" lon="5.45038">
        <ele>310</ele>
        <time>2013-09-15T09:22:29Z</time>
      </trkpt>
      <trkpt lat="50.21151" lon="5.45048">
        <ele>310</ele>
        <time>2013-09-15T09:22:34Z</time>
      </trkpt>
      <trkpt lat="50.21151" lon="5.45057">
        <ele>309</ele>
        <time>2013-09-15T09:22:39Z</time>
      </trkpt>
      <trkpt lat="50.2115" lon="5.45066">
        <ele>309</ele>
        <time>2013-09-15T09:22:45Z</time>
      </trkpt>
      <trkpt lat="50.21151" lon="5.45076">
        <ele>309</ele>
        <time>2013-09-15T09:22:50Z</time>
      </trkpt>
      <trkpt lat="50.21151" lon="5.45084">
        <ele>309</ele>
        <time>2013-09-15T09:22:55Z</time>
      </trkpt>
      <trkpt lat="50.21154" lon="5.45091">
        <ele>309</ele>
        <time>2013-09-15T09:23:00Z</time>
      </trkpt>
      <trkpt lat="50.21155" lon="5.45101">
        <ele>308</ele>
        <time>2013-09-15T09:23:05Z</time>
      </trkpt>
      <trkpt lat="50.21158" lon="5.45109">
        <ele>307</ele>
        <time>2013-09-15T09:23:10Z</time>
      </trkpt>
      <trkpt lat="50.21161" lon="5.45119">
        <ele>306</ele>
        <time>2013-09-15T09:23:16Z</time>
      </trkpt>
      <trkpt lat="50.21162" lon="5.45127">
        <ele>306</ele>
        <time>2013-09-15T09:23:21Z</time>
      </trkpt>
      <trkpt lat="50.21165" lon="5.45136">
        <ele>306</ele>
        <time>2013-09-15T09:23:27Z</time>
      </trkpt>
      <trkpt lat="50.21168" lon="5.45142">
        <ele>306</ele>
        <time>2013-09-15T09:23:32Z</time>
      </trkpt>
      <trkpt lat="50.21171" lon="5.4515">
        <ele>306</ele>
        <time>2013-09-15T09:23:39Z</time>
      </trkpt>
      <trkpt lat="50.21175" lon="5.45158">
        <ele>305</ele>
        <time>2013-09-15T09:23:44Z</time>
      </trkpt>
      <trkpt lat="50.21178" lon="5.45168">
        <ele>305</ele>
        <time>2013-09-15T09:23:51Z</time>
      </trkpt>
      <trkpt lat="50.2118" lon="5.45178">
        <ele>304</ele>
        <time>2013-09-15T09:23:56Z</time>
      </trkpt>
      <trkpt lat="50.21182" lon="5.45187">
        <ele>303</ele>
        <time>2013-09-15T09:24:01Z</time>
      </trkpt>
      <trkpt lat="50.21185" lon="5.45197">
        <ele>302</ele>
        <time>2013-09-15T09:24:07Z</time>
      </trkpt>
      <trkpt lat="50.21188" lon="5.45205">
        <ele>301</ele>
        <time>2013-09-15T09:24:12Z</time>
      </trkpt>
      <trkpt lat="50.21189" lon="5.45214">
        <ele>300</ele>
        <time>2013-09-15T09:24:18Z</time>
      </trkpt>
      <trkpt lat="50.2119" lon="5.45223">
        <ele>300</ele>
        <time>2013-09-15T09:24:23Z</time>
      </trkpt>
      <trkpt lat="50.2119" lon="5.45226">
        <ele>300</ele>
        <time>2013-09-15T09:24:29Z</time>
      </trkpt>
      <trkpt lat="50.2119" lon="5.45227">
        <ele>299</ele>
        <time>2013-09-15T09:24:35Z</time>
      </trkpt>
      <trkpt lat="50.21191" lon="5.45228">
        <ele>299</ele>
        <time>2013-09-15T09:24:40Z</time>
      </trkpt>
      <trkpt lat="50.21191" lon="5.45233">
        <ele>299</ele>
        <time>2013-09-15T09:24:46Z</time>
      </trkpt>
      <trkpt lat="50.21193" lon="5.45238">
        <ele>299</ele>
        <time>2013-09-15T09:24:51Z</time>
      </trkpt>
      <trkpt lat="50.21196" lon="5.45241">
        <ele>298</ele>
        <time>2013-09-15T09:24:57Z</time>
      </trkpt>
      <trkpt lat="50.21196" lon="5.45245">
        <ele>298</ele>
        <time>2013-09-15T09:25:03Z</time>
      </trkpt>
      <trkpt lat="50.21198" lon="5.4525">
        <ele>298</ele>
        <time>2013-09-15T09:25:08Z</time>
      </trkpt>
      <trkpt lat="50.21199" lon="5.45253">
        <ele>297</ele>
        <time>2013-09-15T09:25:13Z</time>
      </trkpt>
      <trkpt lat="50.212" lon="5.45258">
        <ele>297</ele>
        <time>2013-09-15T09:25:19Z</time>
      </trkpt>
      <trkpt lat="50.21202" lon="5.45265">
        <ele>297</ele>
        <time>2013-09-15T09:25:25Z</time>
      </trkpt>
      <trkpt lat="50.21204" lon="5.45271">
        <ele>296</ele>
        <time>2013-09-15T09:25:31Z</time>
      </trkpt>
      <trkpt lat="50.21207" lon="5.45279">
        <ele>296</ele>
        <time>2013-09-15T09:25:36Z</time>
      </trkpt>
      <trkpt lat="50.21209" lon="5.45287">
        <ele>295</ele>
        <time>2013-09-15T09:25:42Z</time>
      </trkpt>
      <trkpt lat="50.21212" lon="5.45292">
        <ele>294</ele>
        <time>2013-09-15T09:25:47Z</time>
      </trkpt>
      <trkpt lat="50.21213" lon="5.45296">
        <ele>294</ele>
        <time>2013-09-15T09:25:52Z</time>
      </trkpt>
      <trkpt lat="50.21214" lon="5.45301">
        <ele>294</ele>
        <time>2013-09-15T09:25:58Z</time>
      </trkpt>
      <trkpt lat="50.21215" lon="5.4531">
        <ele>293</ele>
        <time>2013-09-15T09:26:04Z</time>
      </trkpt>
      <trkpt lat="50.21217" lon="5.45318">
        <ele>293</ele>
        <time>2013-09-15T09:26:09Z</time>
      </trkpt>
      <trkpt lat="50.21218" lon="5.45327">
        <ele>292</ele>
        <time>2013-09-15T09:26:14Z</time>
      </trkpt>
      <trkpt lat="50.21221" lon="5.45334">
        <ele>292</ele>
        <time>2013-09-15T09:26:19Z</time>
      </trkpt>
      <trkpt lat="50.21224" lon="5.45344">
        <ele>292</ele>
        <time>2013-09-15T09:26:25Z</time>
      </trkpt>
      <trkpt lat="50.21229" lon="5.45356">
        <ele>292</ele>
        <time>2013-09-15T09:26:30Z</time>
      </trkpt>
      <trkpt lat="50.21233" lon="5.45368">
        <ele>291</ele>
        <time>2013-09-15T09:26:36Z</time>
      </trkpt>
      <trkpt lat="50.21236" lon="5.45379">
        <ele>290</ele>
        <time>2013-09-15T09:26:42Z</time>
      </trkpt>
      <trkpt lat="50.21238" lon="5.45391">
        <ele>289</ele>
        <time>2013-09-15T09:26:48Z</time>
      </trkpt>
      <trkpt lat="50.21242" lon="5.45403">
        <ele>289</ele>
        <time>2013-09-15T09:26:54Z</time>
      </trkpt>
      <trkpt lat="50.21245" lon="5.45412">
        <ele>289</ele>
        <time>2013-09-15T09:27:00Z</time>
      </trkpt>
      <trkpt lat="50.21248" lon="5.45422">
        <ele>288</ele>
        <time>2013-09-15T09:27:05Z</time>
      </trkpt>
      <trkpt lat="50.21252" lon="5.45429">
        <ele>288</ele>
        <time>2013-09-15T09:27:10Z</time>
      </trkpt>
      <trkpt lat="50.21257" lon="5.45436">
        <ele>287</ele>
        <time>2013-09-15T09:27:15Z</time>
      </trkpt>
      <trkpt lat="50.21261" lon="5.45442">
        <ele>286</ele>
        <time>2013-09-15T09:27:21Z</time>
      </trkpt>
      <trkpt lat="50.21265" lon="5.45449">
        <ele>285</ele>
        <time>2013-09-15T09:27:26Z</time>
      </trkpt>
      <trkpt lat="50.2127" lon="5.45457">
        <ele>285</ele>
        <time>2013-09-15T09:27:32Z</time>
      </trkpt>
      <trkpt lat="50.21275" lon="5.45464">
        <ele>284</ele>
        <time>2013-09-15T09:27:37Z</time>
      </trkpt>
      <trkpt lat="50.21279" lon="5.45472">
        <ele>284</ele>
        <time>2013-09-15T09:27:43Z</time>
      </trkpt>
      <trkpt lat="50.21282" lon="5.4548">
        <ele>284</ele>
        <time>2013-09-15T09:27:48Z</time>
      </trkpt>
      <trkpt lat="50.21286" lon="5.45488">
        <ele>283</ele>
        <time>2013-09-15T09:27:55Z</time>
      </trkpt>
      <trkpt lat="50.21291" lon="5.45494">
        <ele>283</ele>
        <time>2013-09-15T09:28:00Z</time>
      </trkpt>
      <trkpt lat="50.21294" lon="5.45498">
        <ele>282</ele>
        <time>2013-09-15T09:28:05Z</time>
      </trkpt>
      <trkpt lat="50.21299" lon="5.45502">
        <ele>282</ele>
        <time>2013-09-15T09:28:11Z</time>
      </trkpt>
      <trkpt lat="50.21302" lon="5.45506">
        <ele>281</ele>
        <time>2013-09-15T09:28:16Z</time>
      </trkpt>
      <trkpt lat="50.21307" lon="5.45508">
        <ele>280</ele>
        <time>2013-09-15T09:28:22Z</time>
      </trkpt>
      <trkpt lat="50.21313" lon="5.45512">
        <ele>280</ele>
        <time>2013-09-15T09:28:28Z</time>
      </trkpt>
      <trkpt lat="50.2132" lon="5.45516">
        <ele>280</ele>
        <time>2013-09-15T09:28:34Z</time>
      </trkpt>
      <trkpt lat="50.21325" lon="5.45521">
        <ele>279</ele>
        <time>2013-09-15T09:28:40Z</time>
      </trkpt>
      <trkpt lat="50.2133" lon="5.45523">
        <ele>279</ele>
        <time>2013-09-15T09:28:46Z</time>
      </trkpt>
      <trkpt lat="50.21332" lon="5.4552">
        <ele>278</ele>
        <time>2013-09-15T09:28:52Z</time>
      </trkpt>
      <trkpt lat="50.21332" lon="5.45515">
        <ele>278</ele>
        <time>2013-09-15T09:28:58Z</time>
      </trkpt>
      <trkpt lat="50.21333" lon="5.45509">
        <ele>278</ele>
        <time>2013-09-15T09:29:04Z</time>
      </trkpt>
      <trkpt lat="50.21333" lon="5.45503">
        <ele>278</ele>
        <time>2013-09-15T09:29:09Z</time>
      </trkpt>
      <trkpt lat="50.21332" lon="5.455">
        <ele>278</ele>
        <time>2013-09-15T09:29:15Z</time>
      </trkpt>
      <trkpt lat="50.21332" lon="5.45495">
        <ele>278</ele>
        <time>2013-09-15T09:29:21Z</time>
      </trkpt>
      <trkpt lat="50.21331" lon="5.45485">
        <ele>278</ele>
        <time>2013-09-15T09:29:27Z</time>
      </trkpt>
      <trkpt lat="50.21329" lon="5.45479">
        <ele>279</ele>
        <time>2013-09-15T09:29:33Z</time>
      </trkpt>
      <trkpt lat="50.21326" lon="5.45471">
        <ele>279</ele>
        <time>2013-09-15T09:29:38Z</time>
      </trkpt>
      <trkpt lat="50.21321" lon="5.45462">
        <ele>279</ele>
        <time>2013-09-15T09:29:44Z</time>
      </trkpt>
      <trkpt lat="50.21318" lon="5.45452">
        <ele>279</ele>
        <time>2013-09-15T09:29:50Z</time>
      </trkpt>
      <trkpt lat="50.21317" lon="5.45445">
        <ele>279</ele>
        <time>2013-09-15T09:29:55Z</time>
      </trkpt>
      <trkpt lat="50.21316" lon="5.45434">
        <ele>280</ele>
        <time>2013-09-15T09:30:01Z</time>
      </trkpt>
      <trkpt lat="50.21315" lon="5.45423">
        <ele>280</ele>
        <time>2013-09-15T09:30:07Z</time>
      </trkpt>
      <trkpt lat="50.21313" lon="5.45414">
        <ele>280</ele>
        <time>2013-09-15T09:30:12Z</time>
      </trkpt>
      <trkpt lat="50.21311" lon="5.45402">
        <ele>280</ele>
        <time>2013-09-15T09:30:18Z</time>
      </trkpt>
      <trkpt lat="50.21309" lon="5.45393">
        <ele>281</ele>
        <time>2013-09-15T09:30:23Z</time>
      </trkpt>
      <trkpt lat="50.21307" lon="5.45383">
        <ele>281</ele>
        <time>2013-09-15T09:30:28Z</time>
      </trkpt>
      <trkpt lat="50.21306" lon="5.45375">
        <ele>281</ele>
        <time>2013-09-15T09:30:33Z</time>
      </trkpt>
      <trkpt lat="50.21305" lon="5.45363">
        <ele>281</ele>
        <time>2013-09-15T09:30:39Z</time>
      </trkpt>
      <trkpt lat="50.21305" lon="5.45355">
        <ele>281</ele>
        <time>2013-09-15T09:30:45Z</time>
      </trkpt>
      <trkpt lat="50.21303" lon="5.45346">
        <ele>281</ele>
        <time>2013-09-15T09:30:51Z</time>
      </trkpt>
      <trkpt lat="50.21301" lon="5.45337">
        <ele>281</ele>
        <time>2013-09-15T09:30:56Z</time>
      </trkpt>
      <trkpt lat="50.213" lon="5.4533">
        <ele>282</ele>
        <time>2013-09-15T09:31:01Z</time>
      </trkpt>
      <trkpt lat="50.21299" lon="5.45328">
        <ele>282</ele>
        <time>2013-09-15T09:31:07Z</time>
      </trkpt>
      <trkpt lat="50.21299" lon="5.45327">
        <ele>281</ele>
        <time>2013-09-15T09:31:13Z</time>
      </trkpt>
      <trkpt lat="50.21297" lon="5.45323">
        <ele>281</ele>
        <time>2013-09-15T09:31:18Z</time>
      </trkpt>
      <trkpt lat="50.21294" lon="5.45318">
        <ele>282</ele>
        <time>2013-09-15T09:31:24Z</time>
      </trkpt>
      <trkpt lat="50.21293" lon="5.45313">
        <ele>282</ele>
        <time>2013-09-15T09:31:29Z</time>
      </trkpt>
      <trkpt lat="50.21293" lon="5.45313">
        <ele>282</ele>
        <time>2013-09-15T09:31:35Z</time>
      </trkpt>
      <trkpt lat="50.21292" lon="5.45315">
        <ele>282</ele>
        <time>2013-09-15T09:31:41Z</time>
      </trkpt>
      <trkpt lat="50.21292" lon="5.45316">
        <ele>282</ele>
        <time>2013-09-15T09:31:46Z</time>
      </trkpt>
      <trkpt lat="50.21291" lon="5.45316">
        <ele>283</ele>
        <time>2013-09-15T09:31:52Z</time>
      </trkpt>
      <trkpt lat="50.2129" lon="5.45314">
        <ele>283</ele>
        <time>2013-09-15T09:31:57Z</time>
      </trkpt>
      <trkpt lat="50.21288" lon="5.45309">
        <ele>283</ele>
        <time>2013-09-15T09:32:02Z</time>
      </trkpt>
      <trkpt lat="50.21287" lon="5.45304">
        <ele>283</ele>
        <time>2013-09-15T09:32:07Z</time>
      </trkpt>
      <trkpt lat="50.21287" lon="5.453">
        <ele>284</ele>
        <time>2013-09-15T09:32:12Z</time>
      </trkpt>
      <trkpt lat="50.21287" lon="5.45293">
        <ele>284</ele>
        <time>2013-09-15T09:32:18Z</time>
      </trkpt>
      <trkpt lat="50.21287" lon="5.45285">
        <ele>284</ele>
        <time>2013-09-15T09:32:23Z</time>
      </trkpt>
      <trkpt lat="50.21288" lon="5.45275">
        <ele>284</ele>
        <time>2013-09-15T09:32:29Z</time>
      </trkpt>
      <trkpt lat="50.21286" lon="5.45265">
        <ele>284</ele>
        <time>2013-09-15T09:32:35Z</time>
      </trkpt>
      <trkpt lat="50.21283" lon="5.45257">
        <ele>285</ele>
        <time>2013-09-15T09:32:40Z</time>
      </trkpt>
      <trkpt lat="50.21281" lon="5.45246">
        <ele>285</ele>
        <time>2013-09-15T09:32:46Z</time>
      </trkpt>
      <trkpt lat="50.21278" lon="5.45238">
        <ele>286</ele>
        <time>2013-09-15T09:32:51Z</time>
      </trkpt>
      <trkpt lat="50.21275" lon="5.4523">
        <ele>286</ele>
        <time>2013-09-15T09:32:56Z</time>
      </trkpt>
      <trkpt lat="50.21273" lon="5.45223">
        <ele>287</ele>
        <time>2013-09-15T09:33:02Z</time>
      </trkpt>
      <trkpt lat="50.21269" lon="5.45216">
        <ele>287</ele>
        <time>2013-09-15T09:33:08Z</time>
      </trkpt>
      <trkpt lat="50.21265" lon="5.4521">
        <ele>287</ele>
        <time>2013-09-15T09:33:13Z</time>
      </trkpt>
      <trkpt lat="50.21264" lon="5.45205">
        <ele>287</ele>
        <time>2013-09-15T09:33:18Z</time>
      </trkpt>
      <trkpt lat="50.21262" lon="5.45198">
        <ele>287</ele>
        <time>2013-09-15T09:33:24Z</time>
      </trkpt>
      <trkpt lat="50.21261" lon="5.45194">
        <ele>287</ele>
        <time>2013-09-15T09:33:30Z</time>
      </trkpt>
      <trkpt lat="50.2126" lon="5.45187">
        <ele>287</ele>
        <time>2013-09-15T09:33:35Z</time>
      </trkpt>
      <trkpt lat="50.2126" lon="5.45178">
        <ele>288</ele>
        <time>2013-09-15T09:33:41Z</time>
      </trkpt>
      <trkpt lat="50.21261" lon="5.45172">
        <ele>288</ele>
        <time>2013-09-15T09:33:46Z</time>
      </trkpt>
      <trkpt lat="50.2126" lon="5.45163">
        <ele>288</ele>
        <time>2013-09-15T09:33:52Z</time>
      </trkpt>
      <trkpt lat="50.21258" lon="5.45156">
        <ele>289</ele>
        <time>2013-09-15T09:33:57Z</time>
      </trkpt>
      <trkpt lat="50.21258" lon="5.45149">
        <ele>289</ele>
        <time>2013-09-15T09:34:03Z</time>
      </trkpt>
      <trkpt lat="50.21256" lon="5.45145">
        <ele>289</ele>
        <time>2013-09-15T09:34:08Z</time>
      </trkpt>
      <trkpt lat="50.21256" lon="5.45141">
        <ele>289</ele>
        <time>2013-09-15T09:34:14Z</time>
      </trkpt>
      <trkpt lat="50.21255" lon="5.45137">
        <ele>290</ele>
        <time>2013-09-15T09:34:20Z</time>
      </trkpt>
      <trkpt lat="50.21254" lon="5.45133">
        <ele>290</ele>
        <time>2013-09-15T09:34:25Z</time>
      </trkpt>
      <trkpt lat="50.21251" lon="5.45127">
        <ele>290</ele>
        <time>2013-09-15T09:34:30Z</time>
      </trkpt>
      <trkpt lat="50.21248" lon="5.45121">
        <ele>291</ele>
        <time>2013-09-15T09:34:36Z</time>
      </trkpt>
      <trkpt lat="50.21245" lon="5.45116">
        <ele>292</ele>
        <time>2013-09-15T09:34:42Z</time>
      </trkpt>
      <trkpt lat="50.21245" lon="5.45111">
        <ele>293</ele>
        <time>2013-09-15T09:34:47Z</time>
      </trkpt>
      <trkpt lat="50.21244" lon="5.45106">
        <ele>293</ele>
        <time>2013-09-15T09:34:52Z</time>
      </trkpt>
      <trkpt lat="50.21243" lon="5.45099">
        <ele>293</ele>
        <time>2013-09-15T09:34:58Z</time>
      </trkpt>
      <trkpt lat="50.21245" lon="5.45095">
        <ele>292</ele>
        <time>2013-09-15T09:35:03Z</time>
      </trkpt>
      <trkpt lat="50.21246" lon="5.45091">
        <ele>290</ele>
        <time>2013-09-15T09:35:08Z</time>
      </trkpt>
      <trkpt lat="50.21247" lon="5.45086">
        <ele>289</ele>
        <time>2013-09-15T09:35:14Z</time>
      </trkpt>
      <trkpt lat="50.21249" lon="5.45082">
        <ele>289</ele>
        <time>2013-09-15T09:35:19Z</time>
      </trkpt>
      <trkpt lat="50.21249" lon="5.45078">
        <ele>289</ele>
        <time>2013-09-15T09:35:25Z</time>
      </trkpt>
      <trkpt lat="50.21249" lon="5.45076">
        <ele>289</ele>
        <time>2013-09-15T09:35:31Z</time>
      </trkpt>
      <trkpt lat="50.21251" lon="5.45076">
        <ele>289</ele>
        <time>2013-09-15T09:35:36Z</time>
      </trkpt>
      <trkpt lat="50.21252" lon="5.45074">
        <ele>289</ele>
        <time>2013-09-15T09:35:42Z</time>
      </trkpt>
      <trkpt lat="50.21253" lon="5.45071">
        <ele>289</ele>
        <time>2013-09-15T09:35:47Z</time>
      </trkpt>
      <trkpt lat="50.21252" lon="5.45068">
        <ele>289</ele>
        <time>2013-09-15T09:35:53Z</time>
      </trkpt>
      <trkpt lat="50.21251" lon="5.45064">
        <ele>289</ele>
        <time>2013-09-15T09:35:58Z</time>
      </trkpt>
      <trkpt lat="50.21248" lon="5.45062">
        <ele>290</ele>
        <time>2013-09-15T09:36:04Z</time>
      </trkpt>
      <trkpt lat="50.21248" lon="5.4506">
        <ele>290</ele>
        <time>2013-09-15T09:36:09Z</time>
      </trkpt>
      <trkpt lat="50.21247" lon="5.45057">
        <ele>291</ele>
        <time>2013-09-15T09:36:14Z</time>
      </trkpt>
      <trkpt lat="50.21246" lon="5.45052">
        <ele>292</ele>
        <time>2013-09-15T09:36:20Z</time>
      </trkpt>
      <trkpt lat="50.21243" lon="5.45048">
        <ele>292</ele>
        <time>2013-09-15T09:36:26Z</time>
      </trkpt>
      <trkpt lat="50.21243" lon="5.45044">
        <ele>292</ele>
        <time>2013-09-15T09:36:31Z</time>
      </trkpt>
      <trkpt lat="50.21241" lon="5.45044">
        <ele>293</ele>
        <time>2013-09-15T09:36:36Z</time>
      </trkpt>
      <trkpt lat="50.21239" lon="5.45044">
        <ele>294</ele>
        <time>2013-09-15T09:36:42Z</time>
      </trkpt>
      <trkpt lat="50.2124" lon="5.45041">
        <ele>295</ele>
        <time>2013-09-15T09:36:47Z</time>
      </trkpt>
      <trkpt lat="50.21239" lon="5.45041">
        <ele>296</ele>
        <time>2013-09-15T09:36:53Z</time>
      </trkpt>
      <trkpt lat="50.21239" lon="5.45041">
        <ele>295</ele>
        <time>2013-09-15T09:36:58Z</time>
      </trkpt>
      <trkpt lat="50.21239" lon="5.45037">
        <ele>295</ele>
        <time>2013-09-15T09:37:04Z</time>
      </trkpt>
      <trkpt lat="50.21239" lon="5.45034">
        <ele>296</ele>
        <time>2013-09-15T09:37:09Z</time>
      </trkpt>
      <trkpt lat="50.21238" lon="5.45031">
        <ele>296</ele>
        <time>2013-09-15T09:37:14Z</time>
      </trkpt>
      <trkpt lat="50.21238" lon="5.4503">
        <ele>296</ele>
        <time>2013-09-15T09:37:20Z</time>
      </trkpt>
      <trkpt lat="50.21238" lon="5.45034">
        <ele>295</ele>
        <time>2013-09-15T09:37:25Z</time>
      </trkpt>
      <trkpt lat="50.21236" lon="5.45034">
        <ele>295</ele>
        <time>2013-09-15T09:37:30Z</time>
      </trkpt>
      <trkpt lat="50.21235" lon="5.45035">
        <ele>295</ele>
        <time>2013-09-15T09:37:35Z</time>
      </trkpt>
      <trkpt lat="50.21235" lon="5.45039">
        <ele>295</ele>
        <time>2013-09-15T09:37:41Z</time>
      </trkpt>
      <trkpt lat="50.21235" lon="5.45043">
        <ele>295</ele>
        <time>2013-09-15T09:37:47Z</time>
      </trkpt>
      <trkpt lat="50.21235" lon="5.45047">
        <ele>295</ele>
        <time>2013-09-15T09:37:52Z</time>
      </trkpt>
      <trkpt lat="50.21236" lon="5.45051">
        <ele>295</ele>
        <time>2013-09-15T09:37:58Z</time>
      </trkpt>
      <trkpt lat="50.21235" lon="5.45055">
        <ele>295</ele>
        <time>2013-09-15T09:38:03Z</time>
      </trkpt>
      <trkpt lat="50.21237" lon="5.45055">
        <ele>295</ele>
        <time>2013-09-15T09:38:09Z</time>
      </trkpt>
      <trkpt lat="50.21237" lon="5.45053">
        <ele>295</ele>
        <time>2013-09-15T09:38:14Z</time>
      </trkpt>
      <trkpt lat="50.21238" lon="5.45051">
        <ele>295</ele>
        <time>2013-09-15T09:38:20Z</time>
      </trkpt>
      <trkpt lat="50.21236" lon="5.45049">
        <ele>295</ele>
        <time>2013-09-15T09:38:26Z</time>
      </trkpt>
      <trkpt lat="50.21237" lon="5.45046">
        <ele>295</ele>
        <time>2013-09-15T09:38:32Z</time>
      </trkpt>
      <trkpt lat="50.21237" lon="5.45043">
        <ele>296</ele>
        <time>2013-09-15T09:38:37Z</time>
      </trkpt>
      <trkpt lat="50.21235" lon="5.45037">
        <ele>296</ele>
        <time>2013-09-15T09:38:43Z</time>
      </trkpt>
      <trkpt lat="50.21234" lon="5.45034">
        <ele>296</ele>
        <time>2013-09-15T09:38:48Z</time>
      </trkpt>
      <trkpt lat="50.21235" lon="5.45032">
        <ele>296</ele>
        <time>2013-09-15T09:38:54Z</time>
      </trkpt>
      <trkpt lat="50.21234" lon="5.45028">
        <ele>296</ele>
        <time>2013-09-15T09:39:00Z</time>
      </trkpt>
      <trkpt lat="50.21237" lon="5.45025">
        <ele>296</ele>
        <time>2013-09-15T09:39:05Z</time>
      </trkpt>
      <trkpt lat="50.21236" lon="5.45022">
        <ele>296</ele>
        <time>2013-09-15T09:39:11Z</time>
      </trkpt>
      <trkpt lat="50.21236" lon="5.45019">
        <ele>296</ele>
        <time>2013-09-15T09:39:16Z</time>
      </trkpt>
      <trkpt lat="50.21237" lon="5.45018">
        <ele>296</ele>
        <time>2013-09-15T09:39:22Z</time>
      </trkpt>
      <trkpt lat="50.21238" lon="5.45021">
        <ele>296</ele>
        <time>2013-09-15T09:39:28Z</time>
      </trkpt>
      <trkpt lat="50.21239" lon="5.45021">
        <ele>296</ele>
        <time>2013-09-15T09:39:34Z</time>
      </trkpt>
      <trkpt lat="50.2124" lon="5.45023">
        <ele>296</ele>
        <time>2013-09-15T09:39:39Z</time>
      </trkpt>
      <trkpt lat="50.21238" lon="5.45023">
        <ele>296</ele>
        <time>2013-09-15T09:39:45Z</time>
      </trkpt>
      <trkpt lat="50.21238" lon="5.4502">
        <ele>296</ele>
        <time>2013-09-15T09:39:51Z</time>
      </trkpt>
      <trkpt lat="50.21236" lon="5.45018">
        <ele>296</ele>
        <time>2013-09-15T09:39:57Z</time>
      </trkpt>
      <trkpt lat="50.21235" lon="5.45014">
        <ele>297</ele>
        <time>2013-09-15T09:40:02Z</time>
      </trkpt>
      <trkpt lat="50.21232" lon="5.45008">
        <ele>297</ele>
        <time>2013-09-15T09:40:08Z</time>
      </trkpt>
      <trkpt lat="50.21229" lon="5.45002">
        <ele>297</ele>
        <time>2013-09-15T09:40:14Z</time>
      </trkpt>
      <trkpt lat="50.21228" lon="5.45001">
        <ele>297</ele>
        <time>2013-09-15T09:40:19Z</time>
      </trkpt>
      <trkpt lat="50.21229" lon="5.44996">
        <ele>298</ele>
        <time>2013-09-15T09:40:25Z</time>
      </trkpt>
      <trkpt lat="50.21229" lon="5.44993">
        <ele>297</ele>
        <time>2013-09-15T09:40:30Z</time>
      </trkpt>
      <trkpt lat="50.2123" lon="5.4499">
        <ele>297</ele>
        <time>2013-09-15T09:40:35Z</time>
      </trkpt>
      <trkpt lat="50.21231" lon="5.4499">
        <ele>297</ele>
        <time>2013-09-15T09:40:41Z</time>
      </trkpt>
      <trkpt lat="50.21232" lon="5.44987">
        <ele>297</ele>
        <time>2013-09-15T09:40:46Z</time>
      </trkpt>
      <trkpt lat="50.21232" lon="5.44985">
        <ele>297</ele>
        <time>2013-09-15T09:40:51Z</time>
      </trkpt>
      <trkpt lat="50.21232" lon="5.44982">
        <ele>297</ele>
        <time>2013-09-15T09:40:56Z</time>
      </trkpt>
      <trkpt lat="50.2123" lon="5.44978">
        <ele>297</ele>
        <time>2013-09-15T09:41:02Z</time>
      </trkpt>
      <trkpt lat="50.21229" lon="5.44977">
        <ele>297</ele>
        <time>2013-09-15T09:41:08Z</time>
      </trkpt>
      <trkpt lat="50.21228" lon="5.44974">
        <ele>298</ele>
        <time>2013-09-15T09:41:13Z</time>
      </trkpt>
      <trkpt lat="50.21228" lon="5.4497">
        <ele>298</ele>
        <time>2013-09-15T09:41:19Z</time>
      </trkpt>
      <trkpt lat="50.21228" lon="5.44965">
        <ele>299</ele>
        <time>2013-09-15T09:41:25Z</time>
      </trkpt>
      <trkpt lat="50.21226" lon="5.44962">
        <ele>298</ele>
        <time>2013-09-15T09:41:30Z</time>
      </trkpt>
      <trkpt lat="50.21224" lon="5.44958">
        <ele>298</ele>
        <time>2013-09-15T09:41:35Z</time>
      </trkpt>
      <trkpt lat="50.21222" lon="5.44951">
        <ele>299</ele>
        <time>2013-09-15T09:41:41Z</time>
      </trkpt>
      <trkpt lat="50.2122" lon="5.44946">
        <ele>299</ele>
        <time>2013-09-15T09:41:47Z</time>
      </trkpt>
      <trkpt lat="50.21222" lon="5.44943">
        <ele>299</ele>
        <time>2013-09-15T09:41:53Z</time>
      </trkpt>
      <trkpt lat="50.21225" lon="5.4494">
        <ele>299</ele>
        <time>2013-09-15T09:41:58Z</time>
      </trkpt>
      <trkpt lat="50.21228" lon="5.44939">
        <ele>299</ele>
        <time>2013-09-15T09:42:03Z</time>
      </trkpt>
      <trkpt lat="50.21228" lon="5.44939">
        <ele>299</ele>
        <time>2013-09-15T09:42:09Z</time>
      </trkpt>
      <trkpt lat="50.21228" lon="5.44945">
        <ele>299</ele>
        <time>2013-09-15T09:42:14Z</time>
      </trkpt>
      <trkpt lat="50.21229" lon="5.4495">
        <ele>298</ele>
        <time>2013-09-15T09:42:20Z</time>
      </trkpt>
      <trkpt lat="50.21229" lon="5.4495">
        <ele>298</ele>
        <time>2013-09-15T09:42:25Z</time>
      </trkpt>
      <trkpt lat="50.21228" lon="5.44949">
        <ele>298</ele>
        <time>2013-09-15T09:42:30Z</time>
      </trkpt>
      <trkpt lat="50.21228" lon="5.44949">
        <ele>298</ele>
        <time>2013-09-15T09:42:35Z</time>
      </trkpt>
      <trkpt lat="50.21226" lon="5.44946">
        <ele>299</ele>
        <time>2013-09-15T09:42:41Z</time>
      </trkpt>
      <trkpt lat="50.21223" lon="5.44943">
        <ele>299</ele>
        <time>2013-09-15T09:42:47Z</time>
      </trkpt>
      <trkpt lat="50.21222" lon="5.44939">
        <ele>299</ele>
        <time>2013-09-15T09:42:53Z</time>
      </trkpt>
      <trkpt lat="50.21221" lon="5.44937">
        <ele>299</ele>
        <time>2013-09-15T09:42:58Z</time>
      </trkpt>
      <trkpt lat="50.21223" lon="5.44938">
        <ele>299</ele>
        <time>2013-09-15T09:43:04Z</time>
      </trkpt>
      <trkpt lat="50.21226" lon="5.44937">
        <ele>299</ele>
        <time>2013-09-15T09:43:09Z</time>
      </trkpt>
      <trkpt lat="50.21227" lon="5.44939">
        <ele>299</ele>
        <time>2013-09-15T09:43:14Z</time>
      </trkpt>
      <trkpt lat="50.2123" lon="5.44938">
        <ele>299</ele>
        <time>2013-09-15T09:43:20Z</time>
      </trkpt>
      <trkpt lat="50.21231" lon="5.44937">
        <ele>299</ele>
        <time>2013-09-15T09:43:26Z</time>
      </trkpt>
      <trkpt lat="50.21234" lon="5.44933">
        <ele>299</ele>
        <time>2013-09-15T09:43:32Z</time>
      </trkpt>
      <trkpt lat="50.21235" lon="5.44929">
        <ele>299</ele>
        <time>2013-09-15T09:43:37Z</time>
      </trkpt>
      <trkpt lat="50.21234" lon="5.44926">
        <ele>299</ele>
        <time>2013-09-15T09:43:43Z</time>
      </trkpt>
      <trkpt lat="50.21229" lon="5.44922">
        <ele>299</ele>
        <time>2013-09-15T09:43:49Z</time>
      </trkpt>
      <trkpt lat="50.21226" lon="5.44921">
        <ele>300</ele>
        <time>2013-09-15T09:43:54Z</time>
      </trkpt>
      <trkpt lat="50.21223" lon="5.44918">
        <ele>300</ele>
        <time>2013-09-15T09:44:00Z</time>
      </trkpt>
      <trkpt lat="50.21222" lon="5.44914">
        <ele>300</ele>
        <time>2013-09-15T09:44:05Z</time>
      </trkpt>
      <trkpt lat="50.21222" lon="5.44912">
        <ele>300</ele>
        <time>2013-09-15T09:44:10Z</time>
      </trkpt>
      <trkpt lat="50.2122" lon="5.4491">
        <ele>300</ele>
        <time>2013-09-15T09:44:15Z</time>
      </trkpt>
      <trkpt lat="50.21219" lon="5.4491">
        <ele>300</ele>
        <time>2013-09-15T09:44:21Z</time>
      </trkpt>
      <trkpt lat="50.21221" lon="5.44906">
        <ele>301</ele>
        <time>2013-09-15T09:44:27Z</time>
      </trkpt>
      <trkpt lat="50.21221" lon="5.44901">
        <ele>301</ele>
        <time>2013-09-15T09:44:33Z</time>
      </trkpt>
      <trkpt lat="50.2122" lon="5.44897">
        <ele>301</ele>
        <time>2013-09-15T09:44:38Z</time>
      </trkpt>
      <trkpt lat="50.21221" lon="5.44891">
        <ele>301</ele>
        <time>2013-09-15T09:44:44Z</time>
      </trkpt>
      <trkpt lat="50.21221" lon="5.44885">
        <ele>301</ele>
        <time>2013-09-15T09:44:50Z</time>
      </trkpt>
      <trkpt lat="50.21221" lon="5.4488">
        <ele>302</ele>
        <time>2013-09-15T09:44:55Z</time>
      </trkpt>
      <trkpt lat="50.21222" lon="5.44876">
        <ele>302</ele>
        <time>2013-09-15T09:45:01Z</time>
      </trkpt>
      <trkpt lat="50.21223" lon="5.44875">
        <ele>303</ele>
        <time>2013-09-15T09:45:06Z</time>
      </trkpt>
      <trkpt lat="50.21226" lon="5.44873">
        <ele>303</ele>
        <time>2013-09-15T09:45:12Z</time>
      </trkpt>
      <trkpt lat="50.21227" lon="5.44871">
        <ele>303</ele>
        <time>2013-09-15T09:45:17Z</time>
      </trkpt>
      <trkpt lat="50.21229" lon="5.44865">
        <ele>303</ele>
        <time>2013-09-15T09:45:23Z</time>
      </trkpt>
      <trkpt lat="50.2123" lon="5.44857">
        <ele>303</ele>
        <time>2013-09-15T09:45:29Z</time>
      </trkpt>
      <trkpt lat="50.21232" lon="5.44848">
        <ele>303</ele>
        <time>2013-09-15T09:45:34Z</time>
      </trkpt>
      <trkpt lat="50.21235" lon="5.44841">
        <ele>304</ele>
        <time>2013-09-15T09:45:39Z</time>
      </trkpt>
      <trkpt lat="50.21238" lon="5.44833">
        <ele>303</ele>
        <time>2013-09-15T09:45:45Z</time>
      </trkpt>
      <trkpt lat="50.21241" lon="5.44827">
        <ele>304</ele>
        <time>2013-09-15T09:45:50Z</time>
      </trkpt>
      <trkpt lat="50.21242" lon="5.4482">
        <ele>304</ele>
        <time>2013-09-15T09:45:56Z</time>
      </trkpt>
      <trkpt lat="50.21243" lon="5.44814">
        <ele>304</ele>
        <time>2013-09-15T09:46:01Z</time>
      </trkpt>
      <trkpt lat="50.21246" lon="5.44806">
        <ele>304</ele>
        <time>2013-09-15T09:46:06Z</time>
      </trkpt>
      <trkpt lat="50.21249" lon="5.44801">
        <ele>305</ele>
        <time>2013-09-15T09:46:11Z</time>
      </trkpt>
      <trkpt lat="50.21251" lon="5.44793">
        <ele>305</ele>
        <time>2013-09-15T09:46:17Z</time>
      </trkpt>
      <trkpt lat="50.21255" lon="5.44785">
        <ele>306</ele>
        <time>2013-09-15T09:46:23Z</time>
      </trkpt>
      <trkpt lat="50.21258" lon="5.44777">
        <ele>306</ele>
        <time>2013-09-15T09:46:28Z</time>
      </trkpt>
      <trkpt lat="50.21261" lon="5.4477">
        <ele>306</ele>
        <time>2013-09-15T09:46:34Z</time>
      </trkpt>
      <trkpt lat="50.21267" lon="5.44764">
        <ele>306</ele>
        <time>2013-09-15T09:46:39Z</time>
      </trkpt>
      <trkpt lat="50.21272" lon="5.44759">
        <ele>306</ele>
        <time>2013-09-15T09:46:44Z</time>
      </trkpt>
      <trkpt lat="50.21276" lon="5.44754">
        <ele>306</ele>
        <time>2013-09-15T09:46:49Z</time>
      </trkpt>
      <trkpt lat="50.21283" lon="5.44749">
        <ele>306</ele>
        <time>2013-09-15T09:46:55Z</time>
      </trkpt>
      <trkpt lat="50.21287" lon="5.44743">
        <ele>307</ele>
        <time>2013-09-15T09:47:00Z</time>
      </trkpt>
      <trkpt lat="50.21292" lon="5.44738">
        <ele>307</ele>
        <time>2013-09-15T09:47:06Z</time>
      </trkpt>
      <trkpt lat="50.21299" lon="5.44734">
        <ele>307</ele>
        <time>2013-09-15T09:47:11Z</time>
      </trkpt>
      <trkpt lat="50.21303" lon="5.44731">
        <ele>307</ele>
        <time>2013-09-15T09:47:16Z</time>
      </trkpt>
      <trkpt lat="50.21307" lon="5.44724">
        <ele>308</ele>
        <time>2013-09-15T09:47:22Z</time>
      </trkpt>
      <trkpt lat="50.2131" lon="5.44715">
        <ele>308</ele>
        <time>2013-09-15T09:47:28Z</time>
      </trkpt>
      <trkpt lat="50.21312" lon="5.4471">
        <ele>309</ele>
        <time>2013-09-15T09:47:33Z</time>
      </trkpt>
      <trkpt lat="50.21312" lon="5.44703">
        <ele>309</ele>
        <time>2013-09-15T09:47:39Z</time>
      </trkpt>
      <trkpt lat="50.21313" lon="5.44695">
        <ele>310</ele>
        <time>2013-09-15T09:47:44Z</time>
      </trkpt>
      <trkpt lat="50.21313" lon="5.44685">
        <ele>310</ele>
        <time>2013-09-15T09:47:50Z</time>
      </trkpt>
      <trkpt lat="50.21312" lon="5.44674">
        <ele>310</ele>
        <time>2013-09-15T09:47:56Z</time>
      </trkpt>
      <trkpt lat="50.21311" lon="5.44667">
        <ele>311</ele>
        <time>2013-09-15T09:48:02Z</time>
      </trkpt>
      <trkpt lat="50.21312" lon="5.44663">
        <ele>311</ele>
        <time>2013-09-15T09:48:07Z</time>
      </trkpt>
      <trkpt lat="50.21313" lon="5.44661">
        <ele>311</ele>
        <time>2013-09-15T09:48:13Z</time>
      </trkpt>
      <trkpt lat="50.21316" lon="5.44658">
        <ele>311</ele>
        <time>2013-09-15T09:48:18Z</time>
      </trkpt>
      <trkpt lat="50.21318" lon="5.44651">
        <ele>312</ele>
        <time>2013-09-15T09:48:24Z</time>
      </trkpt>
      <trkpt lat="50.21321" lon="5.44645">
        <ele>312</ele>
        <time>2013-09-15T09:48:30Z</time>
      </trkpt>
      <trkpt lat="50.21322" lon="5.4464">
        <ele>312</ele>
        <time>2013-09-15T09:48:35Z</time>
      </trkpt>
      <trkpt lat="50.21323" lon="5.44633">
        <ele>313</ele>
        <time>2013-09-15T09:48:41Z</time>
      </trkpt>
      <trkpt lat="50.21324" lon="5.44627">
        <ele>314</ele>
        <time>2013-09-15T09:48:46Z</time>
      </trkpt>
      <trkpt lat="50.21325" lon="5.4462">
        <ele>314</ele>
        <time>2013-09-15T09:48:51Z</time>
      </trkpt>
      <trkpt lat="50.21325" lon="5.44615">
        <ele>314</ele>
        <time>2013-09-15T09:48:57Z</time>
      </trkpt>
      <trkpt lat="50.21326" lon="5.44611">
        <ele>315</ele>
        <time>2013-09-15T09:49:02Z</time>
      </trkpt>
      <trkpt lat="50.21328" lon="5.44604">
        <ele>315</ele>
        <time>2013-09-15T09:49:07Z</time>
      </trkpt>
      <trkpt lat="50.2133" lon="5.44599">
        <ele>316</ele>
        <time>2013-09-15T09:49:13Z</time>
      </trkpt>
      <trkpt lat="50.21332" lon="5.44593">
        <ele>316</ele>
        <time>2013-09-15T09:49:18Z</time>
      </trkpt>
      <trkpt lat="50.21335" lon="5.44587">
        <ele>316</ele>
        <time>2013-09-15T09:49:24Z</time>
      </trkpt>
      <trkpt lat="50.21336" lon="5.44581">
        <ele>317</ele>
        <time>2013-09-15T09:49:29Z</time>
      </trkpt>
      <trkpt lat="50.2134" lon="5.44573">
        <ele>318</ele>
        <time>2013-09-15T09:49:35Z</time>
      </trkpt>
      <trkpt lat="50.21346" lon="5.44567">
        <ele>318</ele>
        <time>2013-09-15T09:49:41Z</time>
      </trkpt>
      <trkpt lat="50.21351" lon="5.44562">
        <ele>318</ele>
        <time>2013-09-15T09:49:46Z</time>
      </trkpt>
      <trkpt lat="50.21356" lon="5.44556">
        <ele>319</ele>
        <time>2013-09-15T09:49:52Z</time>
      </trkpt>
      <trkpt lat="50.2136" lon="5.4455">
        <ele>319</ele>
        <time>2013-09-15T09:49:58Z</time>
      </trkpt>
      <trkpt lat="50.21365" lon="5.44545">
        <ele>319</ele>
        <time>2013-09-15T09:50:04Z</time>
      </trkpt>
      <trkpt lat="50.2137" lon="5.44537">
        <ele>319</ele>
        <time>2013-09-15T09:50:10Z</time>
      </trkpt>
      <trkpt lat="50.21372" lon="5.44533">
        <ele>320</ele>
        <time>2013-09-15T09:50:15Z</time>
      </trkpt>
      <trkpt lat="50.21377" lon="5.44528">
        <ele>321</ele>
        <time>2013-09-15T09:50:20Z</time>
      </trkpt>
      <trkpt lat="50.21383" lon="5.44522">
        <ele>321</ele>
        <time>2013-09-15T09:50:26Z</time>
      </trkpt>
      <trkpt lat="50.21389" lon="5.44517">
        <ele>321</ele>
        <time>2013-09-15T09:50:32Z</time>
      </trkpt>
      <trkpt lat="50.21394" lon="5.44512">
        <ele>322</ele>
        <time>2013-09-15T09:50:38Z</time>
      </trkpt>
      <trkpt lat="50.21399" lon="5.44507">
        <ele>322</ele>
        <time>2013-09-15T09:50:43Z</time>
      </trkpt>
      <trkpt lat="50.21403" lon="5.44502">
        <ele>323</ele>
        <time>2013-09-15T09:50:49Z</time>
      </trkpt>
      <trkpt lat="50.21406" lon="5.44496">
        <ele>323</ele>
        <time>2013-09-15T09:50:54Z</time>
      </trkpt>
      <trkpt lat="50.21408" lon="5.4449">
        <ele>323</ele>
        <time>2013-09-15T09:51:00Z</time>
      </trkpt>
      <trkpt lat="50.21413" lon="5.44484">
        <ele>324</ele>
        <time>2013-09-15T09:51:06Z</time>
      </trkpt>
      <trkpt lat="50.21414" lon="5.44479">
        <ele>325</ele>
        <time>2013-09-15T09:51:12Z</time>
      </trkpt>
      <trkpt lat="50.21415" lon="5.44475">
        <ele>325</ele>
        <time>2013-09-15T09:51:17Z</time>
      </trkpt>
      <trkpt lat="50.21414" lon="5.44471">
        <ele>325</ele>
        <time>2013-09-15T09:51:23Z</time>
      </trkpt>
      <trkpt lat="50.21418" lon="5.44465">
        <ele>326</ele>
        <time>2013-09-15T09:51:28Z</time>
      </trkpt>
      <trkpt lat="50.21423" lon="5.44461">
        <ele>326</ele>
        <time>2013-09-15T09:51:34Z</time>
      </trkpt>
      <trkpt lat="50.21428" lon="5.44455">
        <ele>326</ele>
        <time>2013-09-15T09:51:40Z</time>
      </trkpt>
      <trkpt lat="50.21432" lon="5.4445">
        <ele>327</ele>
        <time>2013-09-15T09:51:45Z</time>
      </trkpt>
      <trkpt lat="50.21436" lon="5.44448">
        <ele>327</ele>
        <time>2013-09-15T09:51:51Z</time>
      </trkpt>
      <trkpt lat="50.21437" lon="5.44442">
        <ele>327</ele>
        <time>2013-09-15T09:51:57Z</time>
      </trkpt>
      <trkpt lat="50.21443" lon="5.44438">
        <ele>327</ele>
        <time>2013-09-15T09:52:03Z</time>
      </trkpt>
      <trkpt lat="50.21445" lon="5.44434">
        <ele>327</ele>
        <time>2013-09-15T09:52:09Z</time>
      </trkpt>
      <trkpt lat="50.2145" lon="5.44431">
        <ele>328</ele>
        <time>2013-09-15T09:52:14Z</time>
      </trkpt>
      <trkpt lat="50.21455" lon="5.44427">
        <ele>328</ele>
        <time>2013-09-15T09:52:19Z</time>
      </trkpt>
      <trkpt lat="50.21458" lon="5.44418">
        <ele>328</ele>
        <time>2013-09-15T09:52:25Z</time>
      </trkpt>
      <trkpt lat="50.21462" lon="5.4441">
        <ele>329</ele>
        <time>2013-09-15T09:52:31Z</time>
      </trkpt>
      <trkpt lat="50.21465" lon="5.44404">
        <ele>329</ele>
        <time>2013-09-15T09:52:36Z</time>
      </trkpt>
      <trkpt lat="50.21466" lon="5.44396">
        <ele>330</ele>
        <time>2013-09-15T09:52:42Z</time>
      </trkpt>
      <trkpt lat="50.21468" lon="5.44392">
        <ele>330</ele>
        <time>2013-09-15T09:52:47Z</time>
      </trkpt>
      <trkpt lat="50.21471" lon="5.44385">
        <ele>331</ele>
        <time>2013-09-15T09:52:52Z</time>
      </trkpt>
      <trkpt lat="50.21472" lon="5.44378">
        <ele>332</ele>
        <time>2013-09-15T09:52:57Z</time>
      </trkpt>
      <trkpt lat="50.21474" lon="5.44371">
        <ele>332</ele>
        <time>2013-09-15T09:53:02Z</time>
      </trkpt>
      <trkpt lat="50.21476" lon="5.44365">
        <ele>332</ele>
        <time>2013-09-15T09:53:07Z</time>
      </trkpt>
      <trkpt lat="50.21479" lon="5.4436">
        <ele>333</ele>
        <time>2013-09-15T09:53:12Z</time>
      </trkpt>
      <trkpt lat="50.21481" lon="5.44353">
        <ele>334</ele>
        <time>2013-09-15T09:53:18Z</time>
      </trkpt>
      <trkpt lat="50.21482" lon="5.44347">
        <ele>334</ele>
        <time>2013-09-15T09:53:24Z</time>
      </trkpt>
      <trkpt lat="50.21484" lon="5.44341">
        <ele>335</ele>
        <time>2013-09-15T09:53:30Z</time>
      </trkpt>
      <trkpt lat="50.21485" lon="5.44337">
        <ele>335</ele>
        <time>2013-09-15T09:53:35Z</time>
      </trkpt>
      <trkpt lat="50.21487" lon="5.44332">
        <ele>336</ele>
        <time>2013-09-15T09:53:41Z</time>
      </trkpt>
      <trkpt lat="50.21489" lon="5.44329">
        <ele>337</ele>
        <time>2013-09-15T09:53:46Z</time>
      </trkpt>
      <trkpt lat="50.2149" lon="5.44326">
        <ele>337</ele>
        <time>2013-09-15T09:53:52Z</time>
      </trkpt>
      <trkpt lat="50.21491" lon="5.44325">
        <ele>338</ele>
        <time>2013-09-15T09:53:57Z</time>
      </trkpt>
      <trkpt lat="50.2149" lon="5.44325">
        <ele>338</ele>
        <time>2013-09-15T09:54:02Z</time>
      </trkpt>
      <trkpt lat="50.21492" lon="5.44325">
        <ele>338</ele>
        <time>2013-09-15T09:54:07Z</time>
      </trkpt>
      <trkpt lat="50.21492" lon="5.44326">
        <ele>338</ele>
        <time>2013-09-15T09:54:13Z</time>
      </trkpt>
      <trkpt lat="50.21493" lon="5.44325">
        <ele>339</ele>
        <time>2013-09-15T09:54:18Z</time>
      </trkpt>
      <trkpt lat="50.21494" lon="5.44323">
        <ele>339</ele>
        <time>2013-09-15T09:54:23Z</time>
      </trkpt>
      <trkpt lat="50.21497" lon="5.44322">
        <ele>339</ele>
        <time>2013-09-15T09:54:29Z</time>
      </trkpt>
      <trkpt lat="50.215" lon="5.4432">
        <ele>340</ele>
        <time>2013-09-15T09:54:34Z</time>
      </trkpt>
      <trkpt lat="50.21505" lon="5.44319">
        <ele>341</ele>
        <time>2013-09-15T09:54:40Z</time>
      </trkpt>
      <trkpt lat="50.21508" lon="5.44319">
        <ele>341</ele>
        <time>2013-09-15T09:54:46Z</time>
      </trkpt>
      <trkpt lat="50.21514" lon="5.44319">
        <ele>342</ele>
        <time>2013-09-15T09:54:52Z</time>
      </trkpt>
      <trkpt lat="50.21518" lon="5.44319">
        <ele>342</ele>
        <time>2013-09-15T09:54:57Z</time>
      </trkpt>
      <trkpt lat="50.21523" lon="5.44318">
        <ele>343</ele>
        <time>2013-09-15T09:55:02Z</time>
      </trkpt>
      <trkpt lat="50.21528" lon="5.44318">
        <ele>343</ele>
        <time>2013-09-15T09:55:08Z</time>
      </trkpt>
      <trkpt lat="50.2153" lon="5.44318">
        <ele>344</ele>
        <time>2013-09-15T09:55:13Z</time>
      </trkpt>
      <trkpt lat="50.21533" lon="5.44316">
        <ele>344</ele>
        <time>2013-09-15T09:55:19Z</time>
      </trkpt>
      <trkpt lat="50.21537" lon="5.44313">
        <ele>345</ele>
        <time>2013-09-15T09:55:24Z</time>
      </trkpt>
      <trkpt lat="50.2154" lon="5.44309">
        <ele>346</ele>
        <time>2013-09-15T09:55:29Z</time>
      </trkpt>
      <trkpt lat="50.21543" lon="5.44303">
        <ele>346</ele>
        <time>2013-09-15T09:55:35Z</time>
      </trkpt>
      <trkpt lat="50.21545" lon="5.44297">
        <ele>347</ele>
        <time>2013-09-15T09:55:40Z</time>
      </trkpt>
      <trkpt lat="50.21548" lon="5.44291">
        <ele>347</ele>
        <time>2013-09-15T09:55:46Z</time>
      </trkpt>
      <trkpt lat="50.2155" lon="5.44287">
        <ele>348</ele>
        <time>2013-09-15T09:55:51Z</time>
      </trkpt>
      <trkpt lat="50.21551" lon="5.44283">
        <ele>348</ele>
        <time>2013-09-15T09:55:57Z</time>
      </trkpt>
      <trkpt lat="50.21554" lon="5.44278">
        <ele>349</ele>
        <time>2013-09-15T09:56:03Z</time>
      </trkpt>
      <trkpt lat="50.21556" lon="5.44272">
        <ele>349</ele>
        <time>2013-09-15T09:56:08Z</time>
      </trkpt>
      <trkpt lat="50.21557" lon="5.44266">
        <ele>351</ele>
        <time>2013-09-15T09:56:14Z</time>
      </trkpt>
      <trkpt lat="50.21558" lon="5.4426">
        <ele>351</ele>
        <time>2013-09-15T09:56:19Z</time>
      </trkpt>
      <trkpt lat="50.21558" lon="5.44253">
        <ele>352</ele>
        <time>2013-09-15T09:56:25Z</time>
      </trkpt>
      <trkpt lat="50.21557" lon="5.44251">
        <ele>352</ele>
        <time>2013-09-15T09:56:30Z</time>
      </trkpt>
      <trkpt lat="50.21556" lon="5.44248">
        <ele>353</ele>
        <time>2013-09-15T09:56:36Z</time>
      </trkpt>
      <trkpt lat="50.21554" lon="5.44242">
        <ele>353</ele>
        <time>2013-09-15T09:56:42Z</time>
      </trkpt>
      <trkpt lat="50.21553" lon="5.44241">
        <ele>354</ele>
        <time>2013-09-15T09:56:49Z</time>
      </trkpt>
      <trkpt lat="50.21548" lon="5.44235">
        <ele>354</ele>
        <time>2013-09-15T09:56:55Z</time>
      </trkpt>
      <trkpt lat="50.21544" lon="5.44228">
        <ele>355</ele>
        <time>2013-09-15T09:57:00Z</time>
      </trkpt>
      <trkpt lat="50.21541" lon="5.44223">
        <ele>356</ele>
        <time>2013-09-15T09:57:05Z</time>
      </trkpt>
      <trkpt lat="50.21541" lon="5.44224">
        <ele>356</ele>
        <time>2013-09-15T09:57:10Z</time>
      </trkpt>
      <trkpt lat="50.21541" lon="5.44224">
        <ele>356</ele>
        <time>2013-09-15T09:57:16Z</time>
      </trkpt>
      <trkpt lat="50.21543" lon="5.44223">
        <ele>355</ele>
        <time>2013-09-15T09:57:22Z</time>
      </trkpt>
      <trkpt lat="50.21543" lon="5.44222">
        <ele>355</ele>
        <time>2013-09-15T09:57:27Z</time>
      </trkpt>
      <trkpt lat="50.21543" lon="5.44222">
        <ele>356</ele>
        <time>2013-09-15T09:57:33Z</time>
      </trkpt>
      <trkpt lat="50.21544" lon="5.44222">
        <ele>355</ele>
        <time>2013-09-15T09:57:38Z</time>
      </trkpt>
      <trkpt lat="50.21544" lon="5.44221">
        <ele>355</ele>
        <time>2013-09-15T09:57:43Z</time>
      </trkpt>
      <trkpt lat="50.21544" lon="5.44221">
        <ele>355</ele>
        <time>2013-09-15T09:57:49Z</time>
      </trkpt>
      <trkpt lat="50.21544" lon="5.44221">
        <ele>355</ele>
        <time>2013-09-15T09:57:54Z</time>
      </trkpt>
      <trkpt lat="50.21544" lon="5.44221">
        <ele>355</ele>
        <time>2013-09-15T09:58:00Z</time>
      </trkpt>
      <trkpt lat="50.21544" lon="5.44221">
        <ele>355</ele>
        <time>2013-09-15T09:58:07Z</time>
      </trkpt>
      <trkpt lat="50.21543" lon="5.44221">
        <ele>356</ele>
        <time>2013-09-15T09:58:14Z</time>
      </trkpt>
      <trkpt lat="50.21543" lon="5.44221">
        <ele>355</ele>
        <time>2013-09-15T09:58:19Z</time>
      </trkpt>
      <trkpt lat="50.21542" lon="5.44221">
        <ele>355</ele>
        <time>2013-09-15T09:58:25Z</time>
      </trkpt>
      <trkpt lat="50.21542" lon="5.44221">
        <ele>355</ele>
        <time>2013-09-15T09:58:31Z</time>
      </trkpt>
      <trkpt lat="50.21542" lon="5.44219">
        <ele>355</ele>
        <time>2013-09-15T09:58:36Z</time>
      </trkpt>
      <trkpt lat="50.21542" lon="5.4422">
        <ele>355</ele>
        <time>2013-09-15T09:58:42Z</time>
      </trkpt>
      <trkpt lat="50.21544" lon="5.4422">
        <ele>356</ele>
        <time>2013-09-15T09:58:47Z</time>
      </trkpt>
      <trkpt lat="50.21544" lon="5.4422">
        <ele>355</ele>
        <time>2013-09-15T09:58:53Z</time>
      </trkpt>
      <trkpt lat="50.21544" lon="5.4422">
        <ele>356</ele>
        <time>2013-09-15T09:59:00Z</time>
      </trkpt>
      <trkpt lat="50.21544" lon="5.44223">
        <ele>356</ele>
        <time>2013-09-15T09:59:06Z</time>
      </trkpt>
      <trkpt lat="50.21544" lon="5.44224">
        <ele>356</ele>
        <time>2013-09-15T09:59:13Z</time>
      </trkpt>
      <trkpt lat="50.21542" lon="5.44223">
        <ele>356</ele>
        <time>2013-09-15T09:59:19Z</time>
      </trkpt>
      <trkpt lat="50.21542" lon="5.44223">
        <ele>356</ele>
        <time>2013-09-15T09:59:25Z</time>
      </trkpt>
      <trkpt lat="50.21542" lon="5.44222">
        <ele>356</ele>
        <time>2013-09-15T09:59:32Z</time>
      </trkpt>
      <trkpt lat="50.21542" lon="5.44222">
        <ele>356</ele>
        <time>2013-09-15T09:59:37Z</time>
      </trkpt>
      <trkpt lat="50.21542" lon="5.44222">
        <ele>355</ele>
        <time>2013-09-15T09:59:45Z</time>
      </trkpt>
      <trkpt lat="50.21542" lon="5.44221">
        <ele>355</ele>
        <time>2013-09-15T09:59:50Z</time>
      </trkpt>
      <trkpt lat="50.21542" lon="5.44221">
        <ele>356</ele>
        <time>2013-09-15T09:59:55Z</time>
      </trkpt>
      <trkpt lat="50.21542" lon="5.44221">
        <ele>356</ele>
        <time>2013-09-15T10:00:01Z</time>
      </trkpt>
      <trkpt lat="50.21542" lon="5.44221">
        <ele>356</ele>
        <time>2013-09-15T10:00:07Z</time>
      </trkpt>
      <trkpt lat="50.21542" lon="5.4422">
        <ele>356</ele>
        <time>2013-09-15T10:00:16Z</time>
      </trkpt>
      <trkpt lat="50.21542" lon="5.4422">
        <ele>356</ele>
        <time>2013-09-15T10:00:21Z</time>
      </trkpt>
      <trkpt lat="50.21542" lon="5.44221">
        <ele>356</ele>
        <time>2013-09-15T10:00:27Z</time>
      </trkpt>
      <trkpt lat="50.21543" lon="5.4422">
        <ele>356</ele>
        <time>2013-09-15T10:00:33Z</time>
      </trkpt>
      <trkpt lat="50.21543" lon="5.4422">
        <ele>356</ele>
        <time>2013-09-15T10:00:38Z</time>
      </trkpt>
      <trkpt lat="50.21544" lon="5.4422">
        <ele>356</ele>
        <time>2013-09-15T10:00:43Z</time>
      </trkpt>
      <trkpt lat="50.21544" lon="5.4422">
        <ele>356</ele>
        <time>2013-09-15T10:00:48Z</time>
      </trkpt>
      <trkpt lat="50.21543" lon="5.44221">
        <ele>356</ele>
        <time>2013-09-15T10:00:54Z</time>
      </trkpt>
      <trkpt lat="50.21542" lon="5.44221">
        <ele>356</ele>
        <time>2013-09-15T10:00:59Z</time>
      </trkpt>
      <trkpt lat="50.21542" lon="5.44221">
        <ele>356</ele>
        <time>2013-09-15T10:01:05Z</time>
      </trkpt>
      <trkpt lat="50.21542" lon="5.44222">
        <ele>356</ele>
        <time>2013-09-15T10:01:10Z</time>
      </trkpt>
      <trkpt lat="50.21543" lon="5.44223">
        <ele>355</ele>
        <time>2013-09-15T10:01:18Z</time>
      </trkpt>
      <trkpt lat="50.21544" lon="5.44223">
        <ele>355</ele>
        <time>2013-09-15T10:01:23Z</time>
      </trkpt>
      <trkpt lat="50.21542" lon="5.44222">
        <ele>355</ele>
        <time>2013-09-15T10:01:29Z</time>
      </trkpt>
      <trkpt lat="50.21542" lon="5.44222">
        <ele>356</ele>
        <time>2013-09-15T10:01:36Z</time>
      </trkpt>
      <trkpt lat="50.21542" lon="5.44221">
        <ele>356</ele>
        <time>2013-09-15T10:01:43Z</time>
      </trkpt>
      <trkpt lat="50.21542" lon="5.44221">
        <ele>356</ele>
        <time>2013-09-15T10:01:50Z</time>
      </trkpt>
      <trkpt lat="50.21542" lon="5.44221">
        <ele>356</ele>
        <time>2013-09-15T10:01:57Z</time>
      </trkpt>
      <trkpt lat="50.21544" lon="5.44222">
        <ele>356</ele>
        <time>2013-09-15T10:02:03Z</time>
      </trkpt>
      <trkpt lat="50.21543" lon="5.44221">
        <ele>356</ele>
        <time>2013-09-15T10:02:08Z</time>
      </trkpt>
      <trkpt lat="50.21543" lon="5.44222">
        <ele>357</ele>
        <time>2013-09-15T10:02:13Z</time>
      </trkpt>
      <trkpt lat="50.21543" lon="5.44222">
        <ele>356</ele>
        <time>2013-09-15T10:02:19Z</time>
      </trkpt>
      <trkpt lat="50.21543" lon="5.44221">
        <ele>356</ele>
        <time>2013-09-15T10:02:26Z</time>
      </trkpt>
      <trkpt lat="50.21543" lon="5.44221">
        <ele>356</ele>
        <time>2013-09-15T10:02:31Z</time>
      </trkpt>
      <trkpt lat="50.21543" lon="5.44222">
        <ele>356</ele>
        <time>2013-09-15T10:02:39Z</time>
      </trkpt>
      <trkpt lat="50.21544" lon="5.44222">
        <ele>356</ele>
        <time>2013-09-15T10:02:46Z</time>
      </trkpt>
      <trkpt lat="50.21545" lon="5.44222">
        <ele>356</ele>
        <time>2013-09-15T10:02:53Z</time>
      </trkpt>
      <trkpt lat="50.21545" lon="5.44222">
        <ele>356</ele>
        <time>2013-09-15T10:02:59Z</time>
      </trkpt>
      <trkpt lat="50.21546" lon="5.44222">
        <ele>356</ele>
        <time>2013-09-15T10:03:04Z</time>
      </trkpt>
      <trkpt lat="50.21547" lon="5.44222">
        <ele>356</ele>
        <time>2013-09-15T10:03:09Z</time>
      </trkpt>
      <trkpt lat="50.21547" lon="5.44222">
        <ele>357</ele>
        <time>2013-09-15T10:03:14Z</time>
      </trkpt>
      <trkpt lat="50.21546" lon="5.44222">
        <ele>356</ele>
        <time>2013-09-15T10:03:20Z</time>
      </trkpt>
      <trkpt lat="50.21544" lon="5.44224">
        <ele>356</ele>
        <time>2013-09-15T10:03:25Z</time>
      </trkpt>
      <trkpt lat="50.21542" lon="5.44225">
        <ele>356</ele>
        <time>2013-09-15T10:03:31Z</time>
      </trkpt>
      <trkpt lat="50.21541" lon="5.44226">
        <ele>357</ele>
        <time>2013-09-15T10:03:36Z</time>
      </trkpt>
      <trkpt lat="50.2154" lon="5.44227">
        <ele>356</ele>
        <time>2013-09-15T10:03:42Z</time>
      </trkpt>
      <trkpt lat="50.21539" lon="5.44227">
        <ele>357</ele>
        <time>2013-09-15T10:03:47Z</time>
      </trkpt>
      <trkpt lat="50.21538" lon="5.44228">
        <ele>357</ele>
        <time>2013-09-15T10:03:53Z</time>
      </trkpt>
      <trkpt lat="50.21537" lon="5.44229">
        <ele>357</ele>
        <time>2013-09-15T10:03:58Z</time>
      </trkpt>
      <trkpt lat="50.21537" lon="5.44228">
        <ele>357</ele>
        <time>2013-09-15T10:04:03Z</time>
      </trkpt>
      <trkpt lat="50.2154" lon="5.44227">
        <ele>357</ele>
        <time>2013-09-15T10:04:09Z</time>
      </trkpt>
      <trkpt lat="50.2154" lon="5.44226">
        <ele>357</ele>
        <time>2013-09-15T10:04:15Z</time>
      </trkpt>
      <trkpt lat="50.2154" lon="5.44226">
        <ele>356</ele>
        <time>2013-09-15T10:04:21Z</time>
      </trkpt>
      <trkpt lat="50.2154" lon="5.44225">
        <ele>356</ele>
        <time>2013-09-15T10:04:26Z</time>
      </trkpt>
      <trkpt lat="50.2154" lon="5.44224">
        <ele>357</ele>
        <time>2013-09-15T10:04:32Z</time>
      </trkpt>
      <trkpt lat="50.21539" lon="5.44224">
        <ele>356</ele>
        <time>2013-09-15T10:04:37Z</time>
      </trkpt>
      <trkpt lat="50.21541" lon="5.44224">
        <ele>356</ele>
        <time>2013-09-15T10:04:43Z</time>
      </trkpt>
      <trkpt lat="50.21542" lon="5.44223">
        <ele>356</ele>
        <time>2013-09-15T10:04:49Z</time>
      </trkpt>
      <trkpt lat="50.21543" lon="5.44223">
        <ele>357</ele>
        <time>2013-09-15T10:04:55Z</time>
      </trkpt>
      <trkpt lat="50.21542" lon="5.44222">
        <ele>357</ele>
        <time>2013-09-15T10:05:00Z</time>
      </trkpt>
      <trkpt lat="50.21542" lon="5.44221">
        <ele>356</ele>
        <time>2013-09-15T10:05:06Z</time>
      </trkpt>
      <trkpt lat="50.21542" lon="5.4422">
        <ele>357</ele>
        <time>2013-09-15T10:05:11Z</time>
      </trkpt>
      <trkpt lat="50.21542" lon="5.4422">
        <ele>356</ele>
        <time>2013-09-15T10:05:16Z</time>
      </trkpt>
      <trkpt lat="50.21543" lon="5.4422">
        <ele>357</ele>
        <time>2013-09-15T10:05:22Z</time>
      </trkpt>
      <trkpt lat="50.21543" lon="5.44219">
        <ele>356</ele>
        <time>2013-09-15T10:05:28Z</time>
      </trkpt>
      <trkpt lat="50.21542" lon="5.44219">
        <ele>356</ele>
        <time>2013-09-15T10:05:33Z</time>
      </trkpt>
      <trkpt lat="50.21542" lon="5.44218">
        <ele>356</ele>
        <time>2013-09-15T10:05:41Z</time>
      </trkpt>
      <trkpt lat="50.21542" lon="5.44219">
        <ele>357</ele>
        <time>2013-09-15T10:05:47Z</time>
      </trkpt>
      <trkpt lat="50.21542" lon="5.44218">
        <ele>357</ele>
        <time>2013-09-15T10:05:55Z</time>
      </trkpt>
      <trkpt lat="50.21542" lon="5.44219">
        <ele>357</ele>
        <time>2013-09-15T10:06:02Z</time>
      </trkpt>
      <trkpt lat="50.21542" lon="5.44218">
        <ele>357</ele>
        <time>2013-09-15T10:06:07Z</time>
      </trkpt>
      <trkpt lat="50.21542" lon="5.44219">
        <ele>356</ele>
        <time>2013-09-15T10:06:13Z</time>
      </trkpt>
      <trkpt lat="50.21542" lon="5.44219">
        <ele>356</ele>
        <time>2013-09-15T10:06:18Z</time>
      </trkpt>
      <trkpt lat="50.21541" lon="5.44218">
        <ele>356</ele>
        <time>2013-09-15T10:06:24Z</time>
      </trkpt>
      <trkpt lat="50.2154" lon="5.44216">
        <ele>356</ele>
        <time>2013-09-15T10:06:31Z</time>
      </trkpt>
      <trkpt lat="50.2154" lon="5.44215">
        <ele>356</ele>
        <time>2013-09-15T10:06:36Z</time>
      </trkpt>
      <trkpt lat="50.21539" lon="5.44214">
        <ele>356</ele>
        <time>2013-09-15T10:06:41Z</time>
      </trkpt>
      <trkpt lat="50.21539" lon="5.44213">
        <ele>357</ele>
        <time>2013-09-15T10:06:50Z</time>
      </trkpt>
      <trkpt lat="50.2154" lon="5.44213">
        <ele>357</ele>
        <time>2013-09-15T10:06:56Z</time>
      </trkpt>
      <trkpt lat="50.2154" lon="5.44214">
        <ele>356</ele>
        <time>2013-09-15T10:07:01Z</time>
      </trkpt>
      <trkpt lat="50.21542" lon="5.44214">
        <ele>357</ele>
        <time>2013-09-15T10:07:07Z</time>
      </trkpt>
      <trkpt lat="50.21542" lon="5.44214">
        <ele>357</ele>
        <time>2013-09-15T10:07:12Z</time>
      </trkpt>
      <trkpt lat="50.21544" lon="5.44217">
        <ele>357</ele>
        <time>2013-09-15T10:07:18Z</time>
      </trkpt>
      <trkpt lat="50.21545" lon="5.44218">
        <ele>357</ele>
        <time>2013-09-15T10:07:23Z</time>
      </trkpt>
      <trkpt lat="50.21545" lon="5.44218">
        <ele>357</ele>
        <time>2013-09-15T10:07:29Z</time>
      </trkpt>
      <trkpt lat="50.21547" lon="5.4422">
        <ele>357</ele>
        <time>2013-09-15T10:07:34Z</time>
      </trkpt>
      <trkpt lat="50.21547" lon="5.4422">
        <ele>356</ele>
        <time>2013-09-15T10:07:39Z</time>
      </trkpt>
      <trkpt lat="50.21547" lon="5.44222">
        <ele>356</ele>
        <time>2013-09-15T10:07:44Z</time>
      </trkpt>
      <trkpt lat="50.21547" lon="5.44222">
        <ele>357</ele>
        <time>2013-09-15T10:07:49Z</time>
      </trkpt>
      <trkpt lat="50.21547" lon="5.44221">
        <ele>357</ele>
        <time>2013-09-15T10:07:54Z</time>
      </trkpt>
      <trkpt lat="50.21545" lon="5.44221">
        <ele>357</ele>
        <time>2013-09-15T10:08:00Z</time>
      </trkpt>
      <trkpt lat="50.21541" lon="5.44218">
        <ele>357</ele>
        <time>2013-09-15T10:08:05Z</time>
      </trkpt>
      <trkpt lat="50.21538" lon="5.44216">
        <ele>357</ele>
        <time>2013-09-15T10:08:10Z</time>
      </trkpt>
      <trkpt lat="50.21533" lon="5.44214">
        <ele>357</ele>
        <time>2013-09-15T10:08:15Z</time>
      </trkpt>
      <trkpt lat="50.21525" lon="5.4421">
        <ele>357</ele>
        <time>2013-09-15T10:08:21Z</time>
      </trkpt>
      <trkpt lat="50.2152" lon="5.44207">
        <ele>358</ele>
        <time>2013-09-15T10:08:26Z</time>
      </trkpt>
      <trkpt lat="50.21515" lon="5.44203">
        <ele>358</ele>
        <time>2013-09-15T10:08:32Z</time>
      </trkpt>
      <trkpt lat="50.2151" lon="5.44199">
        <ele>358</ele>
        <time>2013-09-15T10:08:38Z</time>
      </trkpt>
      <trkpt lat="50.21506" lon="5.44196">
        <ele>359</ele>
        <time>2013-09-15T10:08:43Z</time>
      </trkpt>
      <trkpt lat="50.21502" lon="5.44192">
        <ele>359</ele>
        <time>2013-09-15T10:08:48Z</time>
      </trkpt>
      <trkpt lat="50.21497" lon="5.44188">
        <ele>360</ele>
        <time>2013-09-15T10:08:54Z</time>
      </trkpt>
      <trkpt lat="50.21493" lon="5.44183">
        <ele>360</ele>
        <time>2013-09-15T10:09:00Z</time>
      </trkpt>
      <trkpt lat="50.21488" lon="5.4418">
        <ele>360</ele>
        <time>2013-09-15T10:09:06Z</time>
      </trkpt>
      <trkpt lat="50.21484" lon="5.44177">
        <ele>360</ele>
        <time>2013-09-15T10:09:12Z</time>
      </trkpt>
      <trkpt lat="50.21484" lon="5.44179">
        <ele>361</ele>
        <time>2013-09-15T10:09:17Z</time>
      </trkpt>
      <trkpt lat="50.21484" lon="5.44182">
        <ele>361</ele>
        <time>2013-09-15T10:09:23Z</time>
      </trkpt>
      <trkpt lat="50.21484" lon="5.44184">
        <ele>361</ele>
        <time>2013-09-15T10:09:29Z</time>
      </trkpt>
      <trkpt lat="50.21484" lon="5.44186">
        <ele>361</ele>
        <time>2013-09-15T10:09:35Z</time>
      </trkpt>
      <trkpt lat="50.21484" lon="5.44185">
        <ele>361</ele>
        <time>2013-09-15T10:09:40Z</time>
      </trkpt>
      <trkpt lat="50.21484" lon="5.44186">
        <ele>361</ele>
        <time>2013-09-15T10:09:46Z</time>
      </trkpt>
      <trkpt lat="50.21484" lon="5.44187">
        <ele>360</ele>
        <time>2013-09-15T10:09:53Z</time>
      </trkpt>
      <trkpt lat="50.21484" lon="5.44187">
        <ele>360</ele>
        <time>2013-09-15T10:09:58Z</time>
      </trkpt>
      <trkpt lat="50.21482" lon="5.44185">
        <ele>361</ele>
        <time>2013-09-15T10:10:04Z</time>
      </trkpt>
      <trkpt lat="50.2148" lon="5.44183">
        <ele>361</ele>
        <time>2013-09-15T10:10:09Z</time>
      </trkpt>
      <trkpt lat="50.21476" lon="5.4418">
        <ele>361</ele>
        <time>2013-09-15T10:10:15Z</time>
      </trkpt>
      <trkpt lat="50.21471" lon="5.44176">
        <ele>362</ele>
        <time>2013-09-15T10:10:21Z</time>
      </trkpt>
      <trkpt lat="50.21467" lon="5.44174">
        <ele>362</ele>
        <time>2013-09-15T10:10:26Z</time>
      </trkpt>
      <trkpt lat="50.21463" lon="5.44171">
        <ele>362</ele>
        <time>2013-09-15T10:10:31Z</time>
      </trkpt>
      <trkpt lat="50.21459" lon="5.44169">
        <ele>363</ele>
        <time>2013-09-15T10:10:37Z</time>
      </trkpt>
      <trkpt lat="50.21455" lon="5.44169">
        <ele>363</ele>
        <time>2013-09-15T10:10:42Z</time>
      </trkpt>
      <trkpt lat="50.2145" lon="5.44168">
        <ele>363</ele>
        <time>2013-09-15T10:10:48Z</time>
      </trkpt>
      <trkpt lat="50.21445" lon="5.44167">
        <ele>363</ele>
        <time>2013-09-15T10:10:53Z</time>
      </trkpt>
      <trkpt lat="50.21441" lon="5.44167">
        <ele>364</ele>
        <time>2013-09-15T10:10:59Z</time>
      </trkpt>
      <trkpt lat="50.21442" lon="5.44169">
        <ele>364</ele>
        <time>2013-09-15T10:11:05Z</time>
      </trkpt>
      <trkpt lat="50.21437" lon="5.44167">
        <ele>364</ele>
        <time>2013-09-15T10:11:10Z</time>
      </trkpt>
      <trkpt lat="50.21432" lon="5.44164">
        <ele>364</ele>
        <time>2013-09-15T10:11:15Z</time>
      </trkpt>
      <trkpt lat="50.21428" lon="5.44161">
        <ele>364</ele>
        <time>2013-09-15T10:11:20Z</time>
      </trkpt>
      <trkpt lat="50.21423" lon="5.44158">
        <ele>365</ele>
        <time>2013-09-15T10:11:25Z</time>
      </trkpt>
      <trkpt lat="50.21416" lon="5.44157">
        <ele>365</ele>
        <time>2013-09-15T10:11:31Z</time>
      </trkpt>
      <trkpt lat="50.21408" lon="5.44155">
        <ele>365</ele>
        <time>2013-09-15T10:11:37Z</time>
      </trkpt>
      <trkpt lat="50.21402" lon="5.44152">
        <ele>365</ele>
        <time>2013-09-15T10:11:43Z</time>
      </trkpt>
      <trkpt lat="50.21395" lon="5.44149">
        <ele>365</ele>
        <time>2013-09-15T10:11:49Z</time>
      </trkpt>
      <trkpt lat="50.21391" lon="5.44146">
        <ele>365</ele>
        <time>2013-09-15T10:11:54Z</time>
      </trkpt>
      <trkpt lat="50.21385" lon="5.44144">
        <ele>366</ele>
        <time>2013-09-15T10:11:59Z</time>
      </trkpt>
      <trkpt lat="50.21379" lon="5.44144">
        <ele>366</ele>
        <time>2013-09-15T10:12:05Z</time>
      </trkpt>
      <trkpt lat="50.21375" lon="5.44143">
        <ele>365</ele>
        <time>2013-09-15T10:12:10Z</time>
      </trkpt>
      <trkpt lat="50.2137" lon="5.44141">
        <ele>365</ele>
        <time>2013-09-15T10:12:15Z</time>
      </trkpt>
      <trkpt lat="50.21365" lon="5.44138">
        <ele>365</ele>
        <time>2013-09-15T10:12:21Z</time>
      </trkpt>
      <trkpt lat="50.21361" lon="5.44136">
        <ele>366</ele>
        <time>2013-09-15T10:12:26Z</time>
      </trkpt>
      <trkpt lat="50.21357" lon="5.44135">
        <ele>366</ele>
        <time>2013-09-15T10:12:31Z</time>
      </trkpt>
      <trkpt lat="50.2135" lon="5.44132">
        <ele>366</ele>
        <time>2013-09-15T10:12:37Z</time>
      </trkpt>
      <trkpt lat="50.21344" lon="5.44131">
        <ele>366</ele>
        <time>2013-09-15T10:12:42Z</time>
      </trkpt>
      <trkpt lat="50.21338" lon="5.44128">
        <ele>366</ele>
        <time>2013-09-15T10:12:47Z</time>
      </trkpt>
      <trkpt lat="50.21332" lon="5.44125">
        <ele>366</ele>
        <time>2013-09-15T10:12:52Z</time>
      </trkpt>
      <trkpt lat="50.21328" lon="5.44122">
        <ele>367</ele>
        <time>2013-09-15T10:12:58Z</time>
      </trkpt>
      <trkpt lat="50.21323" lon="5.44119">
        <ele>367</ele>
        <time>2013-09-15T10:13:04Z</time>
      </trkpt>
      <trkpt lat="50.21318" lon="5.44117">
        <ele>367</ele>
        <time>2013-09-15T10:13:09Z</time>
      </trkpt>
      <trkpt lat="50.21313" lon="5.44116">
        <ele>367</ele>
        <time>2013-09-15T10:13:15Z</time>
      </trkpt>
      <trkpt lat="50.2131" lon="5.44115">
        <ele>367</ele>
        <time>2013-09-15T10:13:20Z</time>
      </trkpt>
      <trkpt lat="50.21307" lon="5.44113">
        <ele>367</ele>
        <time>2013-09-15T10:13:25Z</time>
      </trkpt>
      <trkpt lat="50.21303" lon="5.44112">
        <ele>367</ele>
        <time>2013-09-15T10:13:31Z</time>
      </trkpt>
      <trkpt lat="50.21297" lon="5.4411">
        <ele>367</ele>
        <time>2013-09-15T10:13:37Z</time>
      </trkpt>
      <trkpt lat="50.21293" lon="5.44108">
        <ele>368</ele>
        <time>2013-09-15T10:13:42Z</time>
      </trkpt>
      <trkpt lat="50.2129" lon="5.44107">
        <ele>368</ele>
        <time>2013-09-15T10:13:47Z</time>
      </trkpt>
      <trkpt lat="50.21285" lon="5.44106">
        <ele>368</ele>
        <time>2013-09-15T10:13:52Z</time>
      </trkpt>
      <trkpt lat="50.2128" lon="5.44104">
        <ele>368</ele>
        <time>2013-09-15T10:13:58Z</time>
      </trkpt>
      <trkpt lat="50.21273" lon="5.441">
        <ele>368</ele>
        <time>2013-09-15T10:14:04Z</time>
      </trkpt>
      <trkpt lat="50.2127" lon="5.44096">
        <ele>369</ele>
        <time>2013-09-15T10:14:10Z</time>
      </trkpt>
      <trkpt lat="50.21265" lon="5.4409">
        <ele>369</ele>
        <time>2013-09-15T10:14:16Z</time>
      </trkpt>
      <trkpt lat="50.21263" lon="5.44085">
        <ele>369</ele>
        <time>2013-09-15T10:14:21Z</time>
      </trkpt>
      <trkpt lat="50.2126" lon="5.44079">
        <ele>369</ele>
        <time>2013-09-15T10:14:27Z</time>
      </trkpt>
      <trkpt lat="50.21257" lon="5.44071">
        <ele>369</ele>
        <time>2013-09-15T10:14:33Z</time>
      </trkpt>
      <trkpt lat="50.21256" lon="5.44066">
        <ele>369</ele>
        <time>2013-09-15T10:14:39Z</time>
      </trkpt>
      <trkpt lat="50.21253" lon="5.44063">
        <ele>370</ele>
        <time>2013-09-15T10:14:44Z</time>
      </trkpt>
      <trkpt lat="50.21248" lon="5.44057">
        <ele>370</ele>
        <time>2013-09-15T10:14:50Z</time>
      </trkpt>
      <trkpt lat="50.21247" lon="5.44051">
        <ele>369</ele>
        <time>2013-09-15T10:14:56Z</time>
      </trkpt>
      <trkpt lat="50.21246" lon="5.44045">
        <ele>369</ele>
        <time>2013-09-15T10:15:02Z</time>
      </trkpt>
      <trkpt lat="50.21245" lon="5.44041">
        <ele>369</ele>
        <time>2013-09-15T10:15:07Z</time>
      </trkpt>
      <trkpt lat="50.21243" lon="5.44034">
        <ele>369</ele>
        <time>2013-09-15T10:15:13Z</time>
      </trkpt>
      <trkpt lat="50.21241" lon="5.4403">
        <ele>369</ele>
        <time>2013-09-15T10:15:19Z</time>
      </trkpt>
      <trkpt lat="50.21238" lon="5.44023">
        <ele>369</ele>
        <time>2013-09-15T10:15:25Z</time>
      </trkpt>
      <trkpt lat="50.21238" lon="5.44019">
        <ele>368</ele>
        <time>2013-09-15T10:15:30Z</time>
      </trkpt>
      <trkpt lat="50.21235" lon="5.44012">
        <ele>368</ele>
        <time>2013-09-15T10:15:36Z</time>
      </trkpt>
      <trkpt lat="50.21233" lon="5.44007">
        <ele>368</ele>
        <time>2013-09-15T10:15:41Z</time>
      </trkpt>
      <trkpt lat="50.21233" lon="5.44001">
        <ele>368</ele>
        <time>2013-09-15T10:15:46Z</time>
      </trkpt>
      <trkpt lat="50.21233" lon="5.43997">
        <ele>368</ele>
        <time>2013-09-15T10:15:52Z</time>
      </trkpt>
      <trkpt lat="50.2123" lon="5.43996">
        <ele>368</ele>
        <time>2013-09-15T10:15:58Z</time>
      </trkpt>
      <trkpt lat="50.2123" lon="5.43998">
        <ele>368</ele>
        <time>2013-09-15T10:16:03Z</time>
      </trkpt>
      <trkpt lat="50.21229" lon="5.44">
        <ele>368</ele>
        <time>2013-09-15T10:16:08Z</time>
      </trkpt>
      <trkpt lat="50.2123" lon="5.44002">
        <ele>368</ele>
        <time>2013-09-15T10:16:13Z</time>
      </trkpt>
      <trkpt lat="50.21229" lon="5.44004">
        <ele>367</ele>
        <time>2013-09-15T10:16:18Z</time>
      </trkpt>
      <trkpt lat="50.21229" lon="5.44004">
        <ele>367</ele>
        <time>2013-09-15T10:16:23Z</time>
      </trkpt>
      <trkpt lat="50.2123" lon="5.44003">
        <ele>367</ele>
        <time>2013-09-15T10:16:29Z</time>
      </trkpt>
      <trkpt lat="50.21231" lon="5.44">
        <ele>368</ele>
        <time>2013-09-15T10:16:35Z</time>
      </trkpt>
      <trkpt lat="50.21228" lon="5.43999">
        <ele>367</ele>
        <time>2013-09-15T10:16:41Z</time>
      </trkpt>
      <trkpt lat="50.21227" lon="5.43999">
        <ele>368</ele>
        <time>2013-09-15T10:16:46Z</time>
      </trkpt>
      <trkpt lat="50.21225" lon="5.44002">
        <ele>368</ele>
        <time>2013-09-15T10:16:52Z</time>
      </trkpt>
      <trkpt lat="50.21227" lon="5.44002">
        <ele>368</ele>
        <time>2013-09-15T10:16:58Z</time>
      </trkpt>
      <trkpt lat="50.21228" lon="5.44">
        <ele>368</ele>
        <time>2013-09-15T10:17:03Z</time>
      </trkpt>
      <trkpt lat="50.21229" lon="5.43996">
        <ele>368</ele>
        <time>2013-09-15T10:17:09Z</time>
      </trkpt>
      <trkpt lat="50.2123" lon="5.43991">
        <ele>368</ele>
        <time>2013-09-15T10:17:14Z</time>
      </trkpt>
      <trkpt lat="50.21235" lon="5.43984">
        <ele>368</ele>
        <time>2013-09-15T10:17:19Z</time>
      </trkpt>
      <trkpt lat="50.21238" lon="5.43977">
        <ele>368</ele>
        <time>2013-09-15T10:17:24Z</time>
      </trkpt>
      <trkpt lat="50.21241" lon="5.43975">
        <ele>368</ele>
        <time>2013-09-15T10:17:29Z</time>
      </trkpt>
      <trkpt lat="50.21242" lon="5.43973">
        <ele>368</ele>
        <time>2013-09-15T10:17:35Z</time>
      </trkpt>
      <trkpt lat="50.21243" lon="5.43972">
        <ele>367</ele>
        <time>2013-09-15T10:17:41Z</time>
      </trkpt>
      <trkpt lat="50.21244" lon="5.43972">
        <ele>367</ele>
        <time>2013-09-15T10:17:46Z</time>
      </trkpt>
      <trkpt lat="50.21245" lon="5.43973">
        <ele>367</ele>
        <time>2013-09-15T10:17:52Z</time>
      </trkpt>
      <trkpt lat="50.21246" lon="5.4397">
        <ele>367</ele>
        <time>2013-09-15T10:17:58Z</time>
      </trkpt>
      <trkpt lat="50.21244" lon="5.43966">
        <ele>367</ele>
        <time>2013-09-15T10:18:03Z</time>
      </trkpt>
      <trkpt lat="50.21242" lon="5.4396">
        <ele>366</ele>
        <time>2013-09-15T10:18:08Z</time>
      </trkpt>
      <trkpt lat="50.21239" lon="5.43953">
        <ele>366</ele>
        <time>2013-09-15T10:18:13Z</time>
      </trkpt>
      <trkpt lat="50.21237" lon="5.43945">
        <ele>365</ele>
        <time>2013-09-15T10:18:20Z</time>
      </trkpt>
      <trkpt lat="50.21235" lon="5.43939">
        <ele>365</ele>
        <time>2013-09-15T10:18:25Z</time>
      </trkpt>
      <trkpt lat="50.21231" lon="5.43929">
        <ele>365</ele>
        <time>2013-09-15T10:18:31Z</time>
      </trkpt>
      <trkpt lat="50.21228" lon="5.43922">
        <ele>365</ele>
        <time>2013-09-15T10:18:37Z</time>
      </trkpt>
      <trkpt lat="50.21225" lon="5.43917">
        <ele>364</ele>
        <time>2013-09-15T10:18:42Z</time>
      </trkpt>
      <trkpt lat="50.21221" lon="5.43908">
        <ele>364</ele>
        <time>2013-09-15T10:18:49Z</time>
      </trkpt>
      <trkpt lat="50.21215" lon="5.439">
        <ele>363</ele>
        <time>2013-09-15T10:18:54Z</time>
      </trkpt>
      <trkpt lat="50.21207" lon="5.43891">
        <ele>363</ele>
        <time>2013-09-15T10:18:59Z</time>
      </trkpt>
      <trkpt lat="50.21201" lon="5.4388">
        <ele>363</ele>
        <time>2013-09-15T10:19:05Z</time>
      </trkpt>
      <trkpt lat="50.21196" lon="5.43871">
        <ele>362</ele>
        <time>2013-09-15T10:19:10Z</time>
      </trkpt>
      <trkpt lat="50.21191" lon="5.43859">
        <ele>362</ele>
        <time>2013-09-15T10:19:16Z</time>
      </trkpt>
      <trkpt lat="50.21187" lon="5.43848">
        <ele>361</ele>
        <time>2013-09-15T10:19:22Z</time>
      </trkpt>
      <trkpt lat="50.21184" lon="5.43838">
        <ele>361</ele>
        <time>2013-09-15T10:19:28Z</time>
      </trkpt>
      <trkpt lat="50.2118" lon="5.43828">
        <ele>361</ele>
        <time>2013-09-15T10:19:34Z</time>
      </trkpt>
      <trkpt lat="50.21178" lon="5.43818">
        <ele>361</ele>
        <time>2013-09-15T10:19:40Z</time>
      </trkpt>
      <trkpt lat="50.21175" lon="5.43808">
        <ele>360</ele>
        <time>2013-09-15T10:19:46Z</time>
      </trkpt>
      <trkpt lat="50.21172" lon="5.43798">
        <ele>360</ele>
        <time>2013-09-15T10:19:52Z</time>
      </trkpt>
      <trkpt lat="50.21169" lon="5.43789">
        <ele>360</ele>
        <time>2013-09-15T10:19:58Z</time>
      </trkpt>
      <trkpt lat="50.21166" lon="5.43781">
        <ele>360</ele>
        <time>2013-09-15T10:20:03Z</time>
      </trkpt>
      <trkpt lat="50.21163" lon="5.43773">
        <ele>360</ele>
        <time>2013-09-15T10:20:08Z</time>
      </trkpt>
      <trkpt lat="50.2116" lon="5.43764">
        <ele>360</ele>
        <time>2013-09-15T10:20:13Z</time>
      </trkpt>
      <trkpt lat="50.21157" lon="5.43756">
        <ele>360</ele>
        <time>2013-09-15T10:20:18Z</time>
      </trkpt>
      <trkpt lat="50.21155" lon="5.43746">
        <ele>360</ele>
        <time>2013-09-15T10:20:24Z</time>
      </trkpt>
      <trkpt lat="50.21153" lon="5.43737">
        <ele>359</ele>
        <time>2013-09-15T10:20:30Z</time>
      </trkpt>
      <trkpt lat="50.21152" lon="5.43731">
        <ele>359</ele>
        <time>2013-09-15T10:20:35Z</time>
      </trkpt>
      <trkpt lat="50.21153" lon="5.43726">
        <ele>359</ele>
        <time>2013-09-15T10:20:40Z</time>
      </trkpt>
      <trkpt lat="50.21153" lon="5.43718">
        <ele>358</ele>
        <time>2013-09-15T10:20:46Z</time>
      </trkpt>
      <trkpt lat="50.21153" lon="5.43711">
        <ele>359</ele>
        <time>2013-09-15T10:20:51Z</time>
      </trkpt>
      <trkpt lat="50.21152" lon="5.43702">
        <ele>359</ele>
        <time>2013-09-15T10:20:56Z</time>
      </trkpt>
      <trkpt lat="50.21151" lon="5.43693">
        <ele>359</ele>
        <time>2013-09-15T10:21:01Z</time>
      </trkpt>
      <trkpt lat="50.2115" lon="5.43683">
        <ele>359</ele>
        <time>2013-09-15T10:21:07Z</time>
      </trkpt>
      <trkpt lat="50.21148" lon="5.43673">
        <ele>359</ele>
        <time>2013-09-15T10:21:12Z</time>
      </trkpt>
      <trkpt lat="50.21145" lon="5.43663">
        <ele>359</ele>
        <time>2013-09-15T10:21:17Z</time>
      </trkpt>
      <trkpt lat="50.21144" lon="5.43653">
        <ele>359</ele>
        <time>2013-09-15T10:21:23Z</time>
      </trkpt>
      <trkpt lat="50.21143" lon="5.43645">
        <ele>359</ele>
        <time>2013-09-15T10:21:28Z</time>
      </trkpt>
      <trkpt lat="50.21143" lon="5.43635">
        <ele>359</ele>
        <time>2013-09-15T10:21:34Z</time>
      </trkpt>
      <trkpt lat="50.21142" lon="5.43627">
        <ele>359</ele>
        <time>2013-09-15T10:21:39Z</time>
      </trkpt>
      <trkpt lat="50.21141" lon="5.43618">
        <ele>359</ele>
        <time>2013-09-15T10:21:45Z</time>
      </trkpt>
      <trkpt lat="50.21139" lon="5.43609">
        <ele>359</ele>
        <time>2013-09-15T10:21:50Z</time>
      </trkpt>
      <trkpt lat="50.21136" lon="5.43599">
        <ele>359</ele>
        <time>2013-09-15T10:21:56Z</time>
      </trkpt>
      <trkpt lat="50.21134" lon="5.43588">
        <ele>359</ele>
        <time>2013-09-15T10:22:02Z</time>
      </trkpt>
      <trkpt lat="50.21131" lon="5.4358">
        <ele>359</ele>
        <time>2013-09-15T10:22:07Z</time>
      </trkpt>
      <trkpt lat="50.21131" lon="5.43573">
        <ele>359</ele>
        <time>2013-09-15T10:22:12Z</time>
      </trkpt>
      <trkpt lat="50.21128" lon="5.43565">
        <ele>359</ele>
        <time>2013-09-15T10:22:18Z</time>
      </trkpt>
      <trkpt lat="50.21125" lon="5.43556">
        <ele>359</ele>
        <time>2013-09-15T10:22:23Z</time>
      </trkpt>
      <trkpt lat="50.21124" lon="5.43548">
        <ele>360</ele>
        <time>2013-09-15T10:22:28Z</time>
      </trkpt>
      <trkpt lat="50.21124" lon="5.43541">
        <ele>360</ele>
        <time>2013-09-15T10:22:34Z</time>
      </trkpt>
      <trkpt lat="50.21122" lon="5.43531">
        <ele>360</ele>
        <time>2013-09-15T10:22:40Z</time>
      </trkpt>
      <trkpt lat="50.21117" lon="5.4352">
        <ele>360</ele>
        <time>2013-09-15T10:22:45Z</time>
      </trkpt>
      <trkpt lat="50.21111" lon="5.43512">
        <ele>361</ele>
        <time>2013-09-15T10:22:50Z</time>
      </trkpt>
      <trkpt lat="50.21107" lon="5.43503">
        <ele>360</ele>
        <time>2013-09-15T10:22:55Z</time>
      </trkpt>
      <trkpt lat="50.21104" lon="5.43494">
        <ele>360</ele>
        <time>2013-09-15T10:23:00Z</time>
      </trkpt>
      <trkpt lat="50.21101" lon="5.43482">
        <ele>360</ele>
        <time>2013-09-15T10:23:06Z</time>
      </trkpt>
      <trkpt lat="50.21097" lon="5.43473">
        <ele>360</ele>
        <time>2013-09-15T10:23:11Z</time>
      </trkpt>
      <trkpt lat="50.21093" lon="5.43464">
        <ele>360</ele>
        <time>2013-09-15T10:23:17Z</time>
      </trkpt>
      <trkpt lat="50.21091" lon="5.43454">
        <ele>360</ele>
        <time>2013-09-15T10:23:23Z</time>
      </trkpt>
      <trkpt lat="50.21088" lon="5.43444">
        <ele>360</ele>
        <time>2013-09-15T10:23:28Z</time>
      </trkpt>
      <trkpt lat="50.21086" lon="5.43436">
        <ele>360</ele>
        <time>2013-09-15T10:23:33Z</time>
      </trkpt>
      <trkpt lat="50.21085" lon="5.43431">
        <ele>361</ele>
        <time>2013-09-15T10:23:39Z</time>
      </trkpt>
      <trkpt lat="50.21085" lon="5.43434">
        <ele>361</ele>
        <time>2013-09-15T10:23:44Z</time>
      </trkpt>
      <trkpt lat="50.21083" lon="5.43434">
        <ele>360</ele>
        <time>2013-09-15T10:23:50Z</time>
      </trkpt>
      <trkpt lat="50.21085" lon="5.43428">
        <ele>360</ele>
        <time>2013-09-15T10:23:56Z</time>
      </trkpt>
      <trkpt lat="50.21084" lon="5.43419">
        <ele>361</ele>
        <time>2013-09-15T10:24:01Z</time>
      </trkpt>
      <trkpt lat="50.21082" lon="5.43409">
        <ele>361</ele>
        <time>2013-09-15T10:24:07Z</time>
      </trkpt>
      <trkpt lat="50.21082" lon="5.43401">
        <ele>361</ele>
        <time>2013-09-15T10:24:13Z</time>
      </trkpt>
      <trkpt lat="50.21082" lon="5.43397">
        <ele>361</ele>
        <time>2013-09-15T10:24:19Z</time>
      </trkpt>
      <trkpt lat="50.21081" lon="5.43392">
        <ele>361</ele>
        <time>2013-09-15T10:24:25Z</time>
      </trkpt>
      <trkpt lat="50.21078" lon="5.43384">
        <ele>361</ele>
        <time>2013-09-15T10:24:31Z</time>
      </trkpt>
      <trkpt lat="50.21076" lon="5.43376">
        <ele>360</ele>
        <time>2013-09-15T10:24:37Z</time>
      </trkpt>
      <trkpt lat="50.21073" lon="5.43368">
        <ele>360</ele>
        <time>2013-09-15T10:24:43Z</time>
      </trkpt>
      <trkpt lat="50.21068" lon="5.43359">
        <ele>359</ele>
        <time>2013-09-15T10:24:49Z</time>
      </trkpt>
      <trkpt lat="50.21066" lon="5.43351">
        <ele>359</ele>
        <time>2013-09-15T10:24:54Z</time>
      </trkpt>
      <trkpt lat="50.21066" lon="5.43344">
        <ele>359</ele>
        <time>2013-09-15T10:25:00Z</time>
      </trkpt>
      <trkpt lat="50.21066" lon="5.43335">
        <ele>359</ele>
        <time>2013-09-15T10:25:06Z</time>
      </trkpt>
      <trkpt lat="50.21064" lon="5.43325">
        <ele>359</ele>
        <time>2013-09-15T10:25:12Z</time>
      </trkpt>
      <trkpt lat="50.21064" lon="5.43317">
        <ele>359</ele>
        <time>2013-09-15T10:25:18Z</time>
      </trkpt>
      <trkpt lat="50.21062" lon="5.4331">
        <ele>359</ele>
        <time>2013-09-15T10:25:23Z</time>
      </trkpt>
      <trkpt lat="50.21056" lon="5.43303">
        <ele>358</ele>
        <time>2013-09-15T10:25:29Z</time>
      </trkpt>
      <trkpt lat="50.21053" lon="5.43297">
        <ele>358</ele>
        <time>2013-09-15T10:25:35Z</time>
      </trkpt>
      <trkpt lat="50.2105" lon="5.43294">
        <ele>359</ele>
        <time>2013-09-15T10:25:40Z</time>
      </trkpt>
      <trkpt lat="50.21048" lon="5.43291">
        <ele>358</ele>
        <time>2013-09-15T10:25:45Z</time>
      </trkpt>
      <trkpt lat="50.21042" lon="5.43285">
        <ele>358</ele>
        <time>2013-09-15T10:25:51Z</time>
      </trkpt>
      <trkpt lat="50.21039" lon="5.43278">
        <ele>358</ele>
        <time>2013-09-15T10:25:56Z</time>
      </trkpt>
      <trkpt lat="50.21035" lon="5.43268">
        <ele>358</ele>
        <time>2013-09-15T10:26:02Z</time>
      </trkpt>
      <trkpt lat="50.21033" lon="5.4326">
        <ele>358</ele>
        <time>2013-09-15T10:26:07Z</time>
      </trkpt>
      <trkpt lat="50.2103" lon="5.43253">
        <ele>358</ele>
        <time>2013-09-15T10:26:12Z</time>
      </trkpt>
      <trkpt lat="50.21027" lon="5.43246">
        <ele>358</ele>
        <time>2013-09-15T10:26:17Z</time>
      </trkpt>
      <trkpt lat="50.21026" lon="5.43241">
        <ele>358</ele>
        <time>2013-09-15T10:26:23Z</time>
      </trkpt>
      <trkpt lat="50.21025" lon="5.43236">
        <ele>358</ele>
        <time>2013-09-15T10:26:28Z</time>
      </trkpt>
      <trkpt lat="50.21022" lon="5.43229">
        <ele>358</ele>
        <time>2013-09-15T10:26:34Z</time>
      </trkpt>
      <trkpt lat="50.21019" lon="5.43223">
        <ele>358</ele>
        <time>2013-09-15T10:26:39Z</time>
      </trkpt>
      <trkpt lat="50.21015" lon="5.43216">
        <ele>358</ele>
        <time>2013-09-15T10:26:45Z</time>
      </trkpt>
      <trkpt lat="50.21012" lon="5.43207">
        <ele>358</ele>
        <time>2013-09-15T10:26:51Z</time>
      </trkpt>
      <trkpt lat="50.21009" lon="5.43199">
        <ele>358</ele>
        <time>2013-09-15T10:26:57Z</time>
      </trkpt>
      <trkpt lat="50.21006" lon="5.43192">
        <ele>358</ele>
        <time>2013-09-15T10:27:03Z</time>
      </trkpt>
      <trkpt lat="50.21003" lon="5.43186">
        <ele>358</ele>
        <time>2013-09-15T10:27:08Z</time>
      </trkpt>
      <trkpt lat="50.21001" lon="5.4318">
        <ele>358</ele>
        <time>2013-09-15T10:27:13Z</time>
      </trkpt>
      <trkpt lat="50.20998" lon="5.43174">
        <ele>358</ele>
        <time>2013-09-15T10:27:18Z</time>
      </trkpt>
      <trkpt lat="50.20995" lon="5.43167">
        <ele>358</ele>
        <time>2013-09-15T10:27:24Z</time>
      </trkpt>
      <trkpt lat="50.20993" lon="5.4316">
        <ele>358</ele>
        <time>2013-09-15T10:27:30Z</time>
      </trkpt>
      <trkpt lat="50.20992" lon="5.43156">
        <ele>358</ele>
        <time>2013-09-15T10:27:35Z</time>
      </trkpt>
      <trkpt lat="50.2099" lon="5.43153">
        <ele>358</ele>
        <time>2013-09-15T10:27:41Z</time>
      </trkpt>
      <trkpt lat="50.2099" lon="5.4315">
        <ele>358</ele>
        <time>2013-09-15T10:27:46Z</time>
      </trkpt>
      <trkpt lat="50.2099" lon="5.43145">
        <ele>358</ele>
        <time>2013-09-15T10:27:52Z</time>
      </trkpt>
      <trkpt lat="50.20989" lon="5.43138">
        <ele>359</ele>
        <time>2013-09-15T10:27:57Z</time>
      </trkpt>
      <trkpt lat="50.20988" lon="5.43128">
        <ele>359</ele>
        <time>2013-09-15T10:28:03Z</time>
      </trkpt>
      <trkpt lat="50.20987" lon="5.43121">
        <ele>359</ele>
        <time>2013-09-15T10:28:08Z</time>
      </trkpt>
      <trkpt lat="50.20984" lon="5.43113">
        <ele>359</ele>
        <time>2013-09-15T10:28:14Z</time>
      </trkpt>
      <trkpt lat="50.2098" lon="5.43105">
        <ele>359</ele>
        <time>2013-09-15T10:28:20Z</time>
      </trkpt>
      <trkpt lat="50.20977" lon="5.43098">
        <ele>360</ele>
        <time>2013-09-15T10:28:25Z</time>
      </trkpt>
      <trkpt lat="50.20974" lon="5.43093">
        <ele>359</ele>
        <time>2013-09-15T10:28:30Z</time>
      </trkpt>
      <trkpt lat="50.20971" lon="5.43087">
        <ele>359</ele>
        <time>2013-09-15T10:28:35Z</time>
      </trkpt>
      <trkpt lat="50.20967" lon="5.4308">
        <ele>359</ele>
        <time>2013-09-15T10:28:41Z</time>
      </trkpt>
      <trkpt lat="50.20964" lon="5.43074">
        <ele>360</ele>
        <time>2013-09-15T10:28:46Z</time>
      </trkpt>
      <trkpt lat="50.20961" lon="5.43068">
        <ele>360</ele>
        <time>2013-09-15T10:28:51Z</time>
      </trkpt>
      <trkpt lat="50.20957" lon="5.43063">
        <ele>359</ele>
        <time>2013-09-15T10:28:57Z</time>
      </trkpt>
      <trkpt lat="50.20954" lon="5.4306">
        <ele>359</ele>
        <time>2013-09-15T10:29:02Z</time>
      </trkpt>
      <trkpt lat="50.20952" lon="5.43059">
        <ele>359</ele>
        <time>2013-09-15T10:29:08Z</time>
      </trkpt>
      <trkpt lat="50.2095" lon="5.43058">
        <ele>359</ele>
        <time>2013-09-15T10:29:14Z</time>
      </trkpt>
      <trkpt lat="50.20946" lon="5.43053">
        <ele>359</ele>
        <time>2013-09-15T10:29:19Z</time>
      </trkpt>
      <trkpt lat="50.20944" lon="5.43047">
        <ele>360</ele>
        <time>2013-09-15T10:29:25Z</time>
      </trkpt>
      <trkpt lat="50.20942" lon="5.43041">
        <ele>360</ele>
        <time>2013-09-15T10:29:30Z</time>
      </trkpt>
      <trkpt lat="50.20937" lon="5.43034">
        <ele>360</ele>
        <time>2013-09-15T10:29:35Z</time>
      </trkpt>
      <trkpt lat="50.20933" lon="5.43025">
        <ele>360</ele>
        <time>2013-09-15T10:29:41Z</time>
      </trkpt>
      <trkpt lat="50.2093" lon="5.43018">
        <ele>361</ele>
        <time>2013-09-15T10:29:46Z</time>
      </trkpt>
      <trkpt lat="50.20929" lon="5.43015">
        <ele>360</ele>
        <time>2013-09-15T10:29:51Z</time>
      </trkpt>
      <trkpt lat="50.20924" lon="5.43007">
        <ele>361</ele>
        <time>2013-09-15T10:29:57Z</time>
      </trkpt>
      <trkpt lat="50.20921" lon="5.43">
        <ele>360</ele>
        <time>2013-09-15T10:30:02Z</time>
      </trkpt>
      <trkpt lat="50.20917" lon="5.4299">
        <ele>360</ele>
        <time>2013-09-15T10:30:08Z</time>
      </trkpt>
      <trkpt lat="50.20914" lon="5.42982">
        <ele>361</ele>
        <time>2013-09-15T10:30:13Z</time>
      </trkpt>
      <trkpt lat="50.20911" lon="5.42974">
        <ele>361</ele>
        <time>2013-09-15T10:30:18Z</time>
      </trkpt>
      <trkpt lat="50.2091" lon="5.42965">
        <ele>362</ele>
        <time>2013-09-15T10:30:24Z</time>
      </trkpt>
      <trkpt lat="50.20908" lon="5.42958">
        <ele>362</ele>
        <time>2013-09-15T10:30:30Z</time>
      </trkpt>
      <trkpt lat="50.20906" lon="5.42948">
        <ele>362</ele>
        <time>2013-09-15T10:30:35Z</time>
      </trkpt>
      <trkpt lat="50.20905" lon="5.42938">
        <ele>362</ele>
        <time>2013-09-15T10:30:40Z</time>
      </trkpt>
      <trkpt lat="50.20903" lon="5.42929">
        <ele>363</ele>
        <time>2013-09-15T10:30:45Z</time>
      </trkpt>
      <trkpt lat="50.20903" lon="5.42921">
        <ele>363</ele>
        <time>2013-09-15T10:30:50Z</time>
      </trkpt>
      <trkpt lat="50.20902" lon="5.42913">
        <ele>363</ele>
        <time>2013-09-15T10:30:55Z</time>
      </trkpt>
      <trkpt lat="50.20901" lon="5.4291">
        <ele>364</ele>
        <time>2013-09-15T10:31:01Z</time>
      </trkpt>
      <trkpt lat="50.20901" lon="5.42907">
        <ele>364</ele>
        <time>2013-09-15T10:31:07Z</time>
      </trkpt>
      <trkpt lat="50.20901" lon="5.42899">
        <ele>364</ele>
        <time>2013-09-15T10:31:13Z</time>
      </trkpt>
      <trkpt lat="50.209" lon="5.42896">
        <ele>364</ele>
        <time>2013-09-15T10:31:19Z</time>
      </trkpt>
      <trkpt lat="50.209" lon="5.42896">
        <ele>364</ele>
        <time>2013-09-15T10:31:24Z</time>
      </trkpt>
      <trkpt lat="50.209" lon="5.42895">
        <ele>364</ele>
        <time>2013-09-15T10:31:29Z</time>
      </trkpt>
      <trkpt lat="50.209" lon="5.42893">
        <ele>364</ele>
        <time>2013-09-15T10:31:34Z</time>
      </trkpt>
      <trkpt lat="50.209" lon="5.42893">
        <ele>364</ele>
        <time>2013-09-15T10:31:42Z</time>
      </trkpt>
      <trkpt lat="50.209" lon="5.42892">
        <ele>364</ele>
        <time>2013-09-15T10:31:51Z</time>
      </trkpt>
      <trkpt lat="50.209" lon="5.42892">
        <ele>364</ele>
        <time>2013-09-15T10:31:57Z</time>
      </trkpt>
      <trkpt lat="50.20901" lon="5.42888">
        <ele>364</ele>
        <time>2013-09-15T10:32:02Z</time>
      </trkpt>
      <trkpt lat="50.20901" lon="5.4288">
        <ele>364</ele>
        <time>2013-09-15T10:32:08Z</time>
      </trkpt>
      <trkpt lat="50.209" lon="5.42873">
        <ele>365</ele>
        <time>2013-09-15T10:32:13Z</time>
      </trkpt>
      <trkpt lat="50.209" lon="5.42864">
        <ele>365</ele>
        <time>2013-09-15T10:32:19Z</time>
      </trkpt>
      <trkpt lat="50.20901" lon="5.42863">
        <ele>366</ele>
        <time>2013-09-15T10:32:26Z</time>
      </trkpt>
      <trkpt lat="50.20901" lon="5.42863">
        <ele>367</ele>
        <time>2013-09-15T10:32:32Z</time>
      </trkpt>
      <trkpt lat="50.20901" lon="5.42856">
        <ele>366</ele>
        <time>2013-09-15T10:32:38Z</time>
      </trkpt>
      <trkpt lat="50.209" lon="5.42849">
        <ele>366</ele>
        <time>2013-09-15T10:32:43Z</time>
      </trkpt>
      <trkpt lat="50.209" lon="5.42843">
        <ele>366</ele>
        <time>2013-09-15T10:32:48Z</time>
      </trkpt>
      <trkpt lat="50.20897" lon="5.42835">
        <ele>367</ele>
        <time>2013-09-15T10:32:54Z</time>
      </trkpt>
      <trkpt lat="50.20895" lon="5.42828">
        <ele>368</ele>
        <time>2013-09-15T10:33:00Z</time>
      </trkpt>
      <trkpt lat="50.20893" lon="5.4282">
        <ele>367</ele>
        <time>2013-09-15T10:33:05Z</time>
      </trkpt>
      <trkpt lat="50.2089" lon="5.4281">
        <ele>367</ele>
        <time>2013-09-15T10:33:11Z</time>
      </trkpt>
      <trkpt lat="50.20887" lon="5.42801">
        <ele>367</ele>
        <time>2013-09-15T10:33:17Z</time>
      </trkpt>
      <trkpt lat="50.20883" lon="5.42792">
        <ele>366</ele>
        <time>2013-09-15T10:33:23Z</time>
      </trkpt>
      <trkpt lat="50.20881" lon="5.42788">
        <ele>367</ele>
        <time>2013-09-15T10:33:29Z</time>
      </trkpt>
      <trkpt lat="50.20881" lon="5.42787">
        <ele>367</ele>
        <time>2013-09-15T10:33:34Z</time>
      </trkpt>
      <trkpt lat="50.2088" lon="5.42785">
        <ele>367</ele>
        <time>2013-09-15T10:33:39Z</time>
      </trkpt>
      <trkpt lat="50.20877" lon="5.42778">
        <ele>367</ele>
        <time>2013-09-15T10:33:45Z</time>
      </trkpt>
      <trkpt lat="50.20875" lon="5.42775">
        <ele>367</ele>
        <time>2013-09-15T10:33:51Z</time>
      </trkpt>
      <trkpt lat="50.20874" lon="5.42779">
        <ele>366</ele>
        <time>2013-09-15T10:33:56Z</time>
      </trkpt>
      <trkpt lat="50.2087" lon="5.42789">
        <ele>367</ele>
        <time>2013-09-15T10:34:02Z</time>
      </trkpt>
      <trkpt lat="50.20867" lon="5.42801">
        <ele>366</ele>
        <time>2013-09-15T10:34:08Z</time>
      </trkpt>
      <trkpt lat="50.20865" lon="5.42805">
        <ele>366</ele>
        <time>2013-09-15T10:34:13Z</time>
      </trkpt>
      <trkpt lat="50.20866" lon="5.42802">
        <ele>365</ele>
        <time>2013-09-15T10:34:18Z</time>
      </trkpt>
      <trkpt lat="50.20866" lon="5.42791">
        <ele>366</ele>
        <time>2013-09-15T10:34:24Z</time>
      </trkpt>
      <trkpt lat="50.20868" lon="5.42782">
        <ele>366</ele>
        <time>2013-09-15T10:34:29Z</time>
      </trkpt>
      <trkpt lat="50.20872" lon="5.42778">
        <ele>367</ele>
        <time>2013-09-15T10:34:35Z</time>
      </trkpt>
      <trkpt lat="50.20874" lon="5.42776">
        <ele>367</ele>
        <time>2013-09-15T10:34:41Z</time>
      </trkpt>
      <trkpt lat="50.20876" lon="5.42774">
        <ele>367</ele>
        <time>2013-09-15T10:34:47Z</time>
      </trkpt>
      <trkpt lat="50.20877" lon="5.42774">
        <ele>368</ele>
        <time>2013-09-15T10:34:53Z</time>
      </trkpt>
      <trkpt lat="50.20877" lon="5.42769">
        <ele>368</ele>
        <time>2013-09-15T10:34:59Z</time>
      </trkpt>
      <trkpt lat="50.20875" lon="5.42763">
        <ele>368</ele>
        <time>2013-09-15T10:35:04Z</time>
      </trkpt>
      <trkpt lat="50.20872" lon="5.42754">
        <ele>368</ele>
        <time>2013-09-15T10:35:10Z</time>
      </trkpt>
      <trkpt lat="50.20869" lon="5.42747">
        <ele>367</ele>
        <time>2013-09-15T10:35:15Z</time>
      </trkpt>
      <trkpt lat="50.20866" lon="5.42737">
        <ele>367</ele>
        <time>2013-09-15T10:35:21Z</time>
      </trkpt>
      <trkpt lat="50.20864" lon="5.4273">
        <ele>367</ele>
        <time>2013-09-15T10:35:26Z</time>
      </trkpt>
      <trkpt lat="50.20864" lon="5.42729">
        <ele>367</ele>
        <time>2013-09-15T10:35:31Z</time>
      </trkpt>
      <trkpt lat="50.20863" lon="5.42729">
        <ele>367</ele>
        <time>2013-09-15T10:35:37Z</time>
      </trkpt>
      <trkpt lat="50.20861" lon="5.42722">
        <ele>367</ele>
        <time>2013-09-15T10:35:43Z</time>
      </trkpt>
      <trkpt lat="50.2086" lon="5.42721">
        <ele>367</ele>
        <time>2013-09-15T10:35:48Z</time>
      </trkpt>
      <trkpt lat="50.20858" lon="5.42716">
        <ele>367</ele>
        <time>2013-09-15T10:35:53Z</time>
      </trkpt>
      <trkpt lat="50.20854" lon="5.42706">
        <ele>367</ele>
        <time>2013-09-15T10:35:59Z</time>
      </trkpt>
      <trkpt lat="50.20852" lon="5.42698">
        <ele>366</ele>
        <time>2013-09-15T10:36:05Z</time>
      </trkpt>
      <trkpt lat="50.20849" lon="5.4269">
        <ele>366</ele>
        <time>2013-09-15T10:36:11Z</time>
      </trkpt>
      <trkpt lat="50.20847" lon="5.4268">
        <ele>366</ele>
        <time>2013-09-15T10:36:17Z</time>
      </trkpt>
      <trkpt lat="50.20844" lon="5.42671">
        <ele>366</ele>
        <time>2013-09-15T10:36:22Z</time>
      </trkpt>
      <trkpt lat="50.20841" lon="5.42663">
        <ele>366</ele>
        <time>2013-09-15T10:36:27Z</time>
      </trkpt>
      <trkpt lat="50.20838" lon="5.42655">
        <ele>366</ele>
        <time>2013-09-15T10:36:32Z</time>
      </trkpt>
      <trkpt lat="50.20836" lon="5.42646">
        <ele>366</ele>
        <time>2013-09-15T10:36:37Z</time>
      </trkpt>
      <trkpt lat="50.20834" lon="5.42637">
        <ele>366</ele>
        <time>2013-09-15T10:36:43Z</time>
      </trkpt>
      <trkpt lat="50.20831" lon="5.42628">
        <ele>365</ele>
        <time>2013-09-15T10:36:49Z</time>
      </trkpt>
      <trkpt lat="50.20828" lon="5.42622">
        <ele>365</ele>
        <time>2013-09-15T10:36:54Z</time>
      </trkpt>
      <trkpt lat="50.20825" lon="5.42615">
        <ele>366</ele>
        <time>2013-09-15T10:36:59Z</time>
      </trkpt>
      <trkpt lat="50.20821" lon="5.42607">
        <ele>365</ele>
        <time>2013-09-15T10:37:05Z</time>
      </trkpt>
      <trkpt lat="50.20816" lon="5.42599">
        <ele>365</ele>
        <time>2013-09-15T10:37:11Z</time>
      </trkpt>
      <trkpt lat="50.20812" lon="5.42593">
        <ele>364</ele>
        <time>2013-09-15T10:37:16Z</time>
      </trkpt>
      <trkpt lat="50.20807" lon="5.42587">
        <ele>364</ele>
        <time>2013-09-15T10:37:22Z</time>
      </trkpt>
      <trkpt lat="50.20802" lon="5.42582">
        <ele>363</ele>
        <time>2013-09-15T10:37:28Z</time>
      </trkpt>
      <trkpt lat="50.20795" lon="5.42579">
        <ele>362</ele>
        <time>2013-09-15T10:37:34Z</time>
      </trkpt>
      <trkpt lat="50.20789" lon="5.42576">
        <ele>362</ele>
        <time>2013-09-15T10:37:39Z</time>
      </trkpt>
      <trkpt lat="50.20785" lon="5.42573">
        <ele>361</ele>
        <time>2013-09-15T10:37:44Z</time>
      </trkpt>
      <trkpt lat="50.20779" lon="5.42568">
        <ele>361</ele>
        <time>2013-09-15T10:37:50Z</time>
      </trkpt>
      <trkpt lat="50.20775" lon="5.42562">
        <ele>361</ele>
        <time>2013-09-15T10:37:56Z</time>
      </trkpt>
      <trkpt lat="50.20772" lon="5.42557">
        <ele>361</ele>
        <time>2013-09-15T10:38:02Z</time>
      </trkpt>
      <trkpt lat="50.2077" lon="5.42553">
        <ele>361</ele>
        <time>2013-09-15T10:38:07Z</time>
      </trkpt>
      <trkpt lat="50.20767" lon="5.4255">
        <ele>360</ele>
        <time>2013-09-15T10:38:12Z</time>
      </trkpt>
      <trkpt lat="50.20765" lon="5.42548">
        <ele>360</ele>
        <time>2013-09-15T10:38:18Z</time>
      </trkpt>
      <trkpt lat="50.20762" lon="5.42545">
        <ele>360</ele>
        <time>2013-09-15T10:38:23Z</time>
      </trkpt>
      <trkpt lat="50.20757" lon="5.42539">
        <ele>359</ele>
        <time>2013-09-15T10:38:29Z</time>
      </trkpt>
      <trkpt lat="50.20751" lon="5.42533">
        <ele>359</ele>
        <time>2013-09-15T10:38:34Z</time>
      </trkpt>
      <trkpt lat="50.20746" lon="5.42529">
        <ele>358</ele>
        <time>2013-09-15T10:38:39Z</time>
      </trkpt>
      <trkpt lat="50.2074" lon="5.42525">
        <ele>358</ele>
        <time>2013-09-15T10:38:45Z</time>
      </trkpt>
      <trkpt lat="50.20734" lon="5.42522">
        <ele>358</ele>
        <time>2013-09-15T10:38:50Z</time>
      </trkpt>
      <trkpt lat="50.20726" lon="5.4252">
        <ele>357</ele>
        <time>2013-09-15T10:38:56Z</time>
      </trkpt>
      <trkpt lat="50.2072" lon="5.42517">
        <ele>357</ele>
        <time>2013-09-15T10:39:01Z</time>
      </trkpt>
      <trkpt lat="50.20712" lon="5.42514">
        <ele>357</ele>
        <time>2013-09-15T10:39:07Z</time>
      </trkpt>
      <trkpt lat="50.20708" lon="5.42513">
        <ele>356</ele>
        <time>2013-09-15T10:39:12Z</time>
      </trkpt>
      <trkpt lat="50.20707" lon="5.42513">
        <ele>356</ele>
        <time>2013-09-15T10:39:17Z</time>
      </trkpt>
      <trkpt lat="50.20701" lon="5.42509">
        <ele>356</ele>
        <time>2013-09-15T10:39:23Z</time>
      </trkpt>
      <trkpt lat="50.20695" lon="5.42505">
        <ele>356</ele>
        <time>2013-09-15T10:39:29Z</time>
      </trkpt>
      <trkpt lat="50.20689" lon="5.42503">
        <ele>355</ele>
        <time>2013-09-15T10:39:34Z</time>
      </trkpt>
      <trkpt lat="50.20683" lon="5.42501">
        <ele>355</ele>
        <time>2013-09-15T10:39:40Z</time>
      </trkpt>
      <trkpt lat="50.20677" lon="5.42499">
        <ele>355</ele>
        <time>2013-09-15T10:39:46Z</time>
      </trkpt>
      <trkpt lat="50.20673" lon="5.42497">
        <ele>355</ele>
        <time>2013-09-15T10:39:51Z</time>
      </trkpt>
      <trkpt lat="50.20668" lon="5.42497">
        <ele>354</ele>
        <time>2013-09-15T10:39:57Z</time>
      </trkpt>
      <trkpt lat="50.20663" lon="5.42498">
        <ele>354</ele>
        <time>2013-09-15T10:40:02Z</time>
      </trkpt>
      <trkpt lat="50.20657" lon="5.425">
        <ele>354</ele>
        <time>2013-09-15T10:40:08Z</time>
      </trkpt>
      <trkpt lat="50.20652" lon="5.42502">
        <ele>353</ele>
        <time>2013-09-15T10:40:13Z</time>
      </trkpt>
      <trkpt lat="50.20646" lon="5.42505">
        <ele>352</ele>
        <time>2013-09-15T10:40:19Z</time>
      </trkpt>
      <trkpt lat="50.2064" lon="5.42506">
        <ele>351</ele>
        <time>2013-09-15T10:40:24Z</time>
      </trkpt>
      <trkpt lat="50.20632" lon="5.42508">
        <ele>351</ele>
        <time>2013-09-15T10:40:30Z</time>
      </trkpt>
      <trkpt lat="50.20626" lon="5.42511">
        <ele>350</ele>
        <time>2013-09-15T10:40:36Z</time>
      </trkpt>
      <trkpt lat="50.2062" lon="5.42514">
        <ele>350</ele>
        <time>2013-09-15T10:40:42Z</time>
      </trkpt>
      <trkpt lat="50.20615" lon="5.42517">
        <ele>349</ele>
        <time>2013-09-15T10:40:47Z</time>
      </trkpt>
      <trkpt lat="50.20613" lon="5.42518">
        <ele>349</ele>
        <time>2013-09-15T10:40:53Z</time>
      </trkpt>
      <trkpt lat="50.2061" lon="5.42523">
        <ele>349</ele>
        <time>2013-09-15T10:40:59Z</time>
      </trkpt>
      <trkpt lat="50.20603" lon="5.42526">
        <ele>348</ele>
        <time>2013-09-15T10:41:05Z</time>
      </trkpt>
      <trkpt lat="50.206" lon="5.42527">
        <ele>347</ele>
        <time>2013-09-15T10:41:10Z</time>
      </trkpt>
      <trkpt lat="50.20598" lon="5.42527">
        <ele>347</ele>
        <time>2013-09-15T10:41:16Z</time>
      </trkpt>
      <trkpt lat="50.20592" lon="5.42526">
        <ele>347</ele>
        <time>2013-09-15T10:41:21Z</time>
      </trkpt>
      <trkpt lat="50.20585" lon="5.42527">
        <ele>346</ele>
        <time>2013-09-15T10:41:26Z</time>
      </trkpt>
      <trkpt lat="50.20583" lon="5.42527">
        <ele>346</ele>
        <time>2013-09-15T10:41:32Z</time>
      </trkpt>
      <trkpt lat="50.20583" lon="5.42528">
        <ele>345</ele>
        <time>2013-09-15T10:41:38Z</time>
      </trkpt>
      <trkpt lat="50.20583" lon="5.42532">
        <ele>345</ele>
        <time>2013-09-15T10:41:43Z</time>
      </trkpt>
      <trkpt lat="50.20582" lon="5.42532">
        <ele>345</ele>
        <time>2013-09-15T10:41:48Z</time>
      </trkpt>
      <trkpt lat="50.2058" lon="5.42529">
        <ele>345</ele>
        <time>2013-09-15T10:41:53Z</time>
      </trkpt>
      <trkpt lat="50.20577" lon="5.4253">
        <ele>345</ele>
        <time>2013-09-15T10:41:59Z</time>
      </trkpt>
      <trkpt lat="50.20575" lon="5.42529">
        <ele>344</ele>
        <time>2013-09-15T10:42:04Z</time>
      </trkpt>
      <trkpt lat="50.20569" lon="5.42527">
        <ele>344</ele>
        <time>2013-09-15T10:42:10Z</time>
      </trkpt>
      <trkpt lat="50.20561" lon="5.42525">
        <ele>343</ele>
        <time>2013-09-15T10:42:16Z</time>
      </trkpt>
      <trkpt lat="50.20556" lon="5.42525">
        <ele>342</ele>
        <time>2013-09-15T10:42:21Z</time>
      </trkpt>
      <trkpt lat="50.20552" lon="5.42525">
        <ele>342</ele>
        <time>2013-09-15T10:42:26Z</time>
      </trkpt>
      <trkpt lat="50.20547" lon="5.42524">
        <ele>342</ele>
        <time>2013-09-15T10:42:31Z</time>
      </trkpt>
      <trkpt lat="50.20547" lon="5.42521">
        <ele>341</ele>
        <time>2013-09-15T10:42:36Z</time>
      </trkpt>
      <trkpt lat="50.20546" lon="5.4252">
        <ele>340</ele>
        <time>2013-09-15T10:42:41Z</time>
      </trkpt>
      <trkpt lat="50.20543" lon="5.42519">
        <ele>341</ele>
        <time>2013-09-15T10:42:47Z</time>
      </trkpt>
      <trkpt lat="50.20538" lon="5.42518">
        <ele>341</ele>
        <time>2013-09-15T10:42:53Z</time>
      </trkpt>
      <trkpt lat="50.2053" lon="5.42519">
        <ele>340</ele>
        <time>2013-09-15T10:42:59Z</time>
      </trkpt>
      <trkpt lat="50.20525" lon="5.42518">
        <ele>339</ele>
        <time>2013-09-15T10:43:04Z</time>
      </trkpt>
      <trkpt lat="50.20519" lon="5.42517">
        <ele>338</ele>
        <time>2013-09-15T10:43:10Z</time>
      </trkpt>
      <trkpt lat="50.20515" lon="5.42517">
        <ele>338</ele>
        <time>2013-09-15T10:43:15Z</time>
      </trkpt>
      <trkpt lat="50.20508" lon="5.42517">
        <ele>337</ele>
        <time>2013-09-15T10:43:21Z</time>
      </trkpt>
      <trkpt lat="50.20501" lon="5.42516">
        <ele>336</ele>
        <time>2013-09-15T10:43:27Z</time>
      </trkpt>
      <trkpt lat="50.20497" lon="5.4252">
        <ele>336</ele>
        <time>2013-09-15T10:43:33Z</time>
      </trkpt>
      <trkpt lat="50.20496" lon="5.42529">
        <ele>335</ele>
        <time>2013-09-15T10:43:39Z</time>
      </trkpt>
      <trkpt lat="50.20494" lon="5.42535">
        <ele>335</ele>
        <time>2013-09-15T10:43:44Z</time>
      </trkpt>
      <trkpt lat="50.20495" lon="5.42539">
        <ele>334</ele>
        <time>2013-09-15T10:43:50Z</time>
      </trkpt>
      <trkpt lat="50.20494" lon="5.4254">
        <ele>335</ele>
        <time>2013-09-15T10:43:55Z</time>
      </trkpt>
      <trkpt lat="50.20493" lon="5.42541">
        <ele>335</ele>
        <time>2013-09-15T10:44:00Z</time>
      </trkpt>
      <trkpt lat="50.20494" lon="5.42542">
        <ele>334</ele>
        <time>2013-09-15T10:44:01Z</time>
      </trkpt>
    </trkseg>
  </trk>
</gpx>